<?xml version="1.0" encoding="UTF-8" standalone="no" ?>
<gpx xmlns="http://www.topografix.com/GPX/1/1" xmlns:xsi="http://www.w3.org/2001/XMLSchema-instance" xsi:schemaLocation="http://www.topografix.com/GPX/1/1 http://www.topografix.com/GPX/1/1/gpx.xsd" version="1.1" creator="VisuGPX - https://www.visugpx.com">
  <metadata>
    <name>vtt corrençon</name>
    <desc><![CDATA[grand huit de corrençon]]></desc>
  </metadata>
  <trk>
    <name><![CDATA[Correncon]]></name>
    <trkseg>
      <trkpt lat="45.04577" lon="5.55794">
        <ele>1146.0288085938</ele>
        <time>2011-05-07T09:21:05Z</time>
      </trkpt>
      <trkpt lat="45.04573" lon="5.55793">
        <ele>1147.9514160156</ele>
        <time>2011-05-07T09:21:24Z</time>
      </trkpt>
      <trkpt lat="45.04572" lon="5.55794">
        <ele>1147.9514160156</ele>
        <time>2011-05-07T09:21:56Z</time>
      </trkpt>
      <trkpt lat="45.04573" lon="5.55795">
        <ele>1159.0065917969</ele>
        <time>2011-05-07T09:23:15Z</time>
      </trkpt>
      <trkpt lat="45.04572" lon="5.55795">
        <ele>1156.6032714844</ele>
        <time>2011-05-07T09:24:25Z</time>
      </trkpt>
      <trkpt lat="45.04571" lon="5.55796">
        <ele>1152.7580566406</ele>
        <time>2011-05-07T09:25:34Z</time>
      </trkpt>
      <trkpt lat="45.04572" lon="5.55796">
        <ele>1154.2001953125</ele>
        <time>2011-05-07T09:25:49Z</time>
      </trkpt>
      <trkpt lat="45.04569" lon="5.55794">
        <ele>1154.2001953125</ele>
        <time>2011-05-07T09:25:52Z</time>
      </trkpt>
      <trkpt lat="45.04566" lon="5.55786">
        <ele>1151.796875</ele>
        <time>2011-05-07T09:26:04Z</time>
      </trkpt>
      <trkpt lat="45.04577" lon="5.55758">
        <ele>1149.8742675781</ele>
        <time>2011-05-07T09:26:20Z</time>
      </trkpt>
      <trkpt lat="45.04579" lon="5.55752">
        <ele>1145.0673828125</ele>
        <time>2011-05-07T09:26:56Z</time>
      </trkpt>
      <trkpt lat="45.04586" lon="5.55698">
        <ele>1144.1062011719</ele>
        <time>2011-05-07T09:27:15Z</time>
      </trkpt>
      <trkpt lat="45.04607" lon="5.55634">
        <ele>1144.5866699219</ele>
        <time>2011-05-07T09:27:33Z</time>
      </trkpt>
      <trkpt lat="45.04651" lon="5.55631">
        <ele>1146.0288085938</ele>
        <time>2011-05-07T09:27:47Z</time>
      </trkpt>
      <trkpt lat="45.04688" lon="5.5565">
        <ele>1145.5480957031</ele>
        <time>2011-05-07T09:28:00Z</time>
      </trkpt>
      <trkpt lat="45.04739" lon="5.55659">
        <ele>1146.9899902344</ele>
        <time>2011-05-07T09:28:16Z</time>
      </trkpt>
      <trkpt lat="45.04786" lon="5.55662">
        <ele>1147.9514160156</ele>
        <time>2011-05-07T09:28:32Z</time>
      </trkpt>
      <trkpt lat="45.04804" lon="5.55674">
        <ele>1146.9899902344</ele>
        <time>2011-05-07T09:28:37Z</time>
      </trkpt>
      <trkpt lat="45.04844" lon="5.55681">
        <ele>1144.1062011719</ele>
        <time>2011-05-07T09:28:47Z</time>
      </trkpt>
      <trkpt lat="45.04858" lon="5.55676">
        <ele>1143.1447753906</ele>
        <time>2011-05-07T09:28:50Z</time>
      </trkpt>
      <trkpt lat="45.04868" lon="5.55634">
        <ele>1141.2221679688</ele>
        <time>2011-05-07T09:28:57Z</time>
      </trkpt>
      <trkpt lat="45.04865" lon="5.55626">
        <ele>1140.7414550781</ele>
        <time>2011-05-07T09:28:58Z</time>
      </trkpt>
      <trkpt lat="45.04831" lon="5.55549">
        <ele>1133.0510253906</ele>
        <time>2011-05-07T09:29:08Z</time>
      </trkpt>
      <trkpt lat="45.04811" lon="5.55538">
        <ele>1131.6088867188</ele>
        <time>2011-05-07T09:29:13Z</time>
      </trkpt>
      <trkpt lat="45.04808" lon="5.55538">
        <ele>1132.08984375</ele>
        <time>2011-05-07T09:29:25Z</time>
      </trkpt>
      <trkpt lat="45.04788" lon="5.55549">
        <ele>1133.5317382812</ele>
        <time>2011-05-07T09:29:48Z</time>
      </trkpt>
      <trkpt lat="45.04755" lon="5.55537">
        <ele>1135.4543457031</ele>
        <time>2011-05-07T09:30:00Z</time>
      </trkpt>
      <trkpt lat="45.04728" lon="5.55503">
        <ele>1136.8962402344</ele>
        <time>2011-05-07T09:30:17Z</time>
      </trkpt>
      <trkpt lat="45.047" lon="5.55453">
        <ele>1136.8962402344</ele>
        <time>2011-05-07T09:30:32Z</time>
      </trkpt>
      <trkpt lat="45.04676" lon="5.55449">
        <ele>1136.4157714844</ele>
        <time>2011-05-07T09:30:40Z</time>
      </trkpt>
      <trkpt lat="45.04671" lon="5.55478">
        <ele>1134.4931640625</ele>
        <time>2011-05-07T09:30:46Z</time>
      </trkpt>
      <trkpt lat="45.04644" lon="5.55543">
        <ele>1134.0124511719</ele>
        <time>2011-05-07T09:30:57Z</time>
      </trkpt>
      <trkpt lat="45.04613" lon="5.55545">
        <ele>1136.4157714844</ele>
        <time>2011-05-07T09:31:12Z</time>
      </trkpt>
      <trkpt lat="45.04594" lon="5.55549">
        <ele>1135.4543457031</ele>
        <time>2011-05-07T09:31:27Z</time>
      </trkpt>
      <trkpt lat="45.04578" lon="5.55568">
        <ele>1133.5317382812</ele>
        <time>2011-05-07T09:31:31Z</time>
      </trkpt>
      <trkpt lat="45.04523" lon="5.55761">
        <ele>1130.6477050781</ele>
        <time>2011-05-07T09:32:01Z</time>
      </trkpt>
      <trkpt lat="45.04485" lon="5.55837">
        <ele>1129.6862792969</ele>
        <time>2011-05-07T09:32:18Z</time>
      </trkpt>
      <trkpt lat="45.04474" lon="5.55849">
        <ele>1130.1669921875</ele>
        <time>2011-05-07T09:32:23Z</time>
      </trkpt>
      <trkpt lat="45.04453" lon="5.5582">
        <ele>1134.4931640625</ele>
        <time>2011-05-07T09:32:34Z</time>
      </trkpt>
      <trkpt lat="45.04414" lon="5.55767">
        <ele>1133.0510253906</ele>
        <time>2011-05-07T09:32:55Z</time>
      </trkpt>
      <trkpt lat="45.04395" lon="5.55707">
        <ele>1134.0124511719</ele>
        <time>2011-05-07T09:33:17Z</time>
      </trkpt>
      <trkpt lat="45.04333" lon="5.55587">
        <ele>1144.1062011719</ele>
        <time>2011-05-07T09:34:15Z</time>
      </trkpt>
      <trkpt lat="45.04328" lon="5.55565">
        <ele>1149.8742675781</ele>
        <time>2011-05-07T09:34:33Z</time>
      </trkpt>
      <trkpt lat="45.0433" lon="5.55554">
        <ele>1159.4873046875</ele>
        <time>2011-05-07T09:35:07Z</time>
      </trkpt>
      <trkpt lat="45.04308" lon="5.55529">
        <ele>1159.9677734375</ele>
        <time>2011-05-07T09:35:26Z</time>
      </trkpt>
      <trkpt lat="45.04286" lon="5.55491">
        <ele>1163.8129882812</ele>
        <time>2011-05-07T09:35:46Z</time>
      </trkpt>
      <trkpt lat="45.04276" lon="5.55452">
        <ele>1163.8129882812</ele>
        <time>2011-05-07T09:36:00Z</time>
      </trkpt>
      <trkpt lat="45.04238" lon="5.55378">
        <ele>1165.2553710938</ele>
        <time>2011-05-07T09:36:24Z</time>
      </trkpt>
      <trkpt lat="45.04232" lon="5.55368">
        <ele>1164.7746582031</ele>
        <time>2011-05-07T09:36:28Z</time>
      </trkpt>
      <trkpt lat="45.04183" lon="5.55256">
        <ele>1162.37109375</ele>
        <time>2011-05-07T09:36:44Z</time>
      </trkpt>
      <trkpt lat="45.0414" lon="5.55185">
        <ele>1161.4099121094</ele>
        <time>2011-05-07T09:36:56Z</time>
      </trkpt>
      <trkpt lat="45.04142" lon="5.55149">
        <ele>1159.4873046875</ele>
        <time>2011-05-07T09:37:01Z</time>
      </trkpt>
      <trkpt lat="45.0415" lon="5.55122">
        <ele>1157.5646972656</ele>
        <time>2011-05-07T09:37:06Z</time>
      </trkpt>
      <trkpt lat="45.04144" lon="5.55098">
        <ele>1157.083984375</ele>
        <time>2011-05-07T09:37:10Z</time>
      </trkpt>
      <trkpt lat="45.04137" lon="5.55059">
        <ele>1156.6032714844</ele>
        <time>2011-05-07T09:37:15Z</time>
      </trkpt>
      <trkpt lat="45.04152" lon="5.55024">
        <ele>1156.1225585938</ele>
        <time>2011-05-07T09:37:20Z</time>
      </trkpt>
      <trkpt lat="45.04182" lon="5.54976">
        <ele>1156.1225585938</ele>
        <time>2011-05-07T09:37:32Z</time>
      </trkpt>
      <trkpt lat="45.04241" lon="5.54903">
        <ele>1155.6420898438</ele>
        <time>2011-05-07T09:37:49Z</time>
      </trkpt>
      <trkpt lat="45.04245" lon="5.54895">
        <ele>1154.6806640625</ele>
        <time>2011-05-07T09:37:51Z</time>
      </trkpt>
      <trkpt lat="45.04255" lon="5.5488">
        <ele>1153.2387695312</ele>
        <time>2011-05-07T09:37:54Z</time>
      </trkpt>
      <trkpt lat="45.04265" lon="5.54849">
        <ele>1151.796875</ele>
        <time>2011-05-07T09:37:59Z</time>
      </trkpt>
      <trkpt lat="45.04259" lon="5.54833">
        <ele>1150.8354492188</ele>
        <time>2011-05-07T09:38:02Z</time>
      </trkpt>
      <trkpt lat="45.04233" lon="5.54821">
        <ele>1148.9128417969</ele>
        <time>2011-05-07T09:38:08Z</time>
      </trkpt>
      <trkpt lat="45.04209" lon="5.54817">
        <ele>1147.9514160156</ele>
        <time>2011-05-07T09:38:12Z</time>
      </trkpt>
      <trkpt lat="45.04191" lon="5.5482">
        <ele>1146.5095214844</ele>
        <time>2011-05-07T09:38:15Z</time>
      </trkpt>
      <trkpt lat="45.04171" lon="5.54771">
        <ele>1138.3383789062</ele>
        <time>2011-05-07T09:38:22Z</time>
      </trkpt>
      <trkpt lat="45.04175" lon="5.54708">
        <ele>1134.0124511719</ele>
        <time>2011-05-07T09:38:27Z</time>
      </trkpt>
      <trkpt lat="45.04243" lon="5.54403">
        <ele>1132.5705566406</ele>
        <time>2011-05-07T09:38:54Z</time>
      </trkpt>
      <trkpt lat="45.04212" lon="5.54246">
        <ele>1129.2055664062</ele>
        <time>2011-05-07T09:39:05Z</time>
      </trkpt>
      <trkpt lat="45.04194" lon="5.54182">
        <ele>1125.3603515625</ele>
        <time>2011-05-07T09:39:20Z</time>
      </trkpt>
      <trkpt lat="45.04185" lon="5.54171">
        <ele>1122.9572753906</ele>
        <time>2011-05-07T09:39:24Z</time>
      </trkpt>
      <trkpt lat="45.04146" lon="5.54131">
        <ele>1114.7858886719</ele>
        <time>2011-05-07T09:39:38Z</time>
      </trkpt>
      <trkpt lat="45.04143" lon="5.54088">
        <ele>1109.9792480469</ele>
        <time>2011-05-07T09:39:54Z</time>
      </trkpt>
      <trkpt lat="45.04142" lon="5.54015">
        <ele>1105.1728515625</ele>
        <time>2011-05-07T09:40:16Z</time>
      </trkpt>
      <trkpt lat="45.04122" lon="5.53939">
        <ele>1101.8083496094</ele>
        <time>2011-05-07T09:40:33Z</time>
      </trkpt>
      <trkpt lat="45.04109" lon="5.53873">
        <ele>1103.2502441406</ele>
        <time>2011-05-07T09:40:50Z</time>
      </trkpt>
      <trkpt lat="45.03944" lon="5.53727">
        <ele>1106.1340332031</ele>
        <time>2011-05-07T09:41:53Z</time>
      </trkpt>
      <trkpt lat="45.03857" lon="5.53647">
        <ele>1103.7309570312</ele>
        <time>2011-05-07T09:42:10Z</time>
      </trkpt>
      <trkpt lat="45.03815" lon="5.53602">
        <ele>1103.2502441406</ele>
        <time>2011-05-07T09:42:23Z</time>
      </trkpt>
      <trkpt lat="45.03776" lon="5.53566">
        <ele>1103.7309570312</ele>
        <time>2011-05-07T09:42:34Z</time>
      </trkpt>
      <trkpt lat="45.03704" lon="5.5351">
        <ele>1105.1728515625</ele>
        <time>2011-05-07T09:42:53Z</time>
      </trkpt>
      <trkpt lat="45.03655" lon="5.53428">
        <ele>1097.962890625</ele>
        <time>2011-05-07T09:43:11Z</time>
      </trkpt>
      <trkpt lat="45.03639" lon="5.53404">
        <ele>1095.5595703125</ele>
        <time>2011-05-07T09:43:17Z</time>
      </trkpt>
      <trkpt lat="45.03631" lon="5.53391">
        <ele>1096.5209960938</ele>
        <time>2011-05-07T09:43:22Z</time>
      </trkpt>
      <trkpt lat="45.03589" lon="5.53374">
        <ele>1098.9240722656</ele>
        <time>2011-05-07T09:43:39Z</time>
      </trkpt>
      <trkpt lat="45.0354" lon="5.53361">
        <ele>1101.3276367188</ele>
        <time>2011-05-07T09:43:56Z</time>
      </trkpt>
      <trkpt lat="45.03493" lon="5.53348">
        <ele>1102.76953125</ele>
        <time>2011-05-07T09:44:12Z</time>
      </trkpt>
      <trkpt lat="45.03444" lon="5.53316">
        <ele>1104.2116699219</ele>
        <time>2011-05-07T09:44:29Z</time>
      </trkpt>
      <trkpt lat="45.03381" lon="5.53251">
        <ele>1105.6535644531</ele>
        <time>2011-05-07T09:44:53Z</time>
      </trkpt>
      <trkpt lat="45.03347" lon="5.53167">
        <ele>1102.2888183594</ele>
        <time>2011-05-07T09:45:15Z</time>
      </trkpt>
      <trkpt lat="45.03324" lon="5.53124">
        <ele>1103.7309570312</ele>
        <time>2011-05-07T09:45:30Z</time>
      </trkpt>
      <trkpt lat="45.03293" lon="5.53143">
        <ele>1106.1340332031</ele>
        <time>2011-05-07T09:45:44Z</time>
      </trkpt>
      <trkpt lat="45.03265" lon="5.53131">
        <ele>1108.5373535156</ele>
        <time>2011-05-07T09:45:58Z</time>
      </trkpt>
      <trkpt lat="45.03247" lon="5.53094">
        <ele>1108.5373535156</ele>
        <time>2011-05-07T09:46:11Z</time>
      </trkpt>
      <trkpt lat="45.03217" lon="5.53067">
        <ele>1111.4213867188</ele>
        <time>2011-05-07T09:46:27Z</time>
      </trkpt>
      <trkpt lat="45.03178" lon="5.53044">
        <ele>1111.4213867188</ele>
        <time>2011-05-07T09:46:47Z</time>
      </trkpt>
      <trkpt lat="45.03178" lon="5.53041">
        <ele>1115.2666015625</ele>
        <time>2011-05-07T09:47:02Z</time>
      </trkpt>
      <trkpt lat="45.03178" lon="5.53038">
        <ele>1116.7087402344</ele>
        <time>2011-05-07T09:47:12Z</time>
      </trkpt>
      <trkpt lat="45.03178" lon="5.53024">
        <ele>1115.7473144531</ele>
        <time>2011-05-07T09:47:17Z</time>
      </trkpt>
      <trkpt lat="45.03171" lon="5.52966">
        <ele>1111.9020996094</ele>
        <time>2011-05-07T09:47:29Z</time>
      </trkpt>
      <trkpt lat="45.03161" lon="5.5295">
        <ele>1110.9406738281</ele>
        <time>2011-05-07T09:47:32Z</time>
      </trkpt>
      <trkpt lat="45.0312" lon="5.52904">
        <ele>1109.9792480469</ele>
        <time>2011-05-07T09:47:47Z</time>
      </trkpt>
      <trkpt lat="45.03109" lon="5.52839">
        <ele>1108.5373535156</ele>
        <time>2011-05-07T09:48:05Z</time>
      </trkpt>
      <trkpt lat="45.03098" lon="5.52757">
        <ele>1111.4213867188</ele>
        <time>2011-05-07T09:48:24Z</time>
      </trkpt>
      <trkpt lat="45.03097" lon="5.52753">
        <ele>1111.4213867188</ele>
        <time>2011-05-07T09:48:25Z</time>
      </trkpt>
      <trkpt lat="45.03087" lon="5.52753">
        <ele>1111.4213867188</ele>
        <time>2011-05-07T09:48:31Z</time>
      </trkpt>
      <trkpt lat="45.03042" lon="5.52769">
        <ele>1113.3439941406</ele>
        <time>2011-05-07T09:48:50Z</time>
      </trkpt>
      <trkpt lat="45.02996" lon="5.52776">
        <ele>1115.7473144531</ele>
        <time>2011-05-07T09:49:08Z</time>
      </trkpt>
      <trkpt lat="45.02957" lon="5.52777">
        <ele>1117.189453125</ele>
        <time>2011-05-07T09:49:26Z</time>
      </trkpt>
      <trkpt lat="45.02932" lon="5.52775">
        <ele>1120.5539550781</ele>
        <time>2011-05-07T09:49:43Z</time>
      </trkpt>
      <trkpt lat="45.02932" lon="5.52775">
        <ele>1119.5927734375</ele>
        <time>2011-05-07T09:49:53Z</time>
      </trkpt>
      <trkpt lat="45.02913" lon="5.52739">
        <ele>1119.5927734375</ele>
        <time>2011-05-07T09:50:07Z</time>
      </trkpt>
      <trkpt lat="45.02884" lon="5.52711">
        <ele>1122.4765625</ele>
        <time>2011-05-07T09:50:25Z</time>
      </trkpt>
      <trkpt lat="45.02849" lon="5.52682">
        <ele>1121.9958496094</ele>
        <time>2011-05-07T09:50:44Z</time>
      </trkpt>
      <trkpt lat="45.02821" lon="5.52659">
        <ele>1124.3991699219</ele>
        <time>2011-05-07T09:50:59Z</time>
      </trkpt>
      <trkpt lat="45.02807" lon="5.52638">
        <ele>1124.8798828125</ele>
        <time>2011-05-07T09:51:13Z</time>
      </trkpt>
      <trkpt lat="45.02799" lon="5.52598">
        <ele>1125.3603515625</ele>
        <time>2011-05-07T09:51:28Z</time>
      </trkpt>
      <trkpt lat="45.02799" lon="5.52553">
        <ele>1126.3217773438</ele>
        <time>2011-05-07T09:51:45Z</time>
      </trkpt>
      <trkpt lat="45.02795" lon="5.5252">
        <ele>1127.283203125</ele>
        <time>2011-05-07T09:51:59Z</time>
      </trkpt>
      <trkpt lat="45.02793" lon="5.52518">
        <ele>1127.763671875</ele>
        <time>2011-05-07T09:52:14Z</time>
      </trkpt>
      <trkpt lat="45.02795" lon="5.52519">
        <ele>1134.9738769531</ele>
        <time>2011-05-07T09:52:58Z</time>
      </trkpt>
      <trkpt lat="45.0279" lon="5.52514">
        <ele>1134.4931640625</ele>
        <time>2011-05-07T09:53:12Z</time>
      </trkpt>
      <trkpt lat="45.02765" lon="5.52516">
        <ele>1135.4543457031</ele>
        <time>2011-05-07T09:53:25Z</time>
      </trkpt>
      <trkpt lat="45.02754" lon="5.52513">
        <ele>1135.9350585938</ele>
        <time>2011-05-07T09:53:35Z</time>
      </trkpt>
      <trkpt lat="45.02743" lon="5.52512">
        <ele>1136.8962402344</ele>
        <time>2011-05-07T09:53:42Z</time>
      </trkpt>
      <trkpt lat="45.02717" lon="5.52514">
        <ele>1136.8962402344</ele>
        <time>2011-05-07T09:53:57Z</time>
      </trkpt>
      <trkpt lat="45.0269" lon="5.52519">
        <ele>1138.3383789062</ele>
        <time>2011-05-07T09:54:13Z</time>
      </trkpt>
      <trkpt lat="45.02651" lon="5.52527">
        <ele>1142.18359375</ele>
        <time>2011-05-07T09:54:34Z</time>
      </trkpt>
      <trkpt lat="45.02618" lon="5.52539">
        <ele>1146.0288085938</ele>
        <time>2011-05-07T09:54:52Z</time>
      </trkpt>
      <trkpt lat="45.02587" lon="5.52539">
        <ele>1151.3161621094</ele>
        <time>2011-05-07T09:55:11Z</time>
      </trkpt>
      <trkpt lat="45.02557" lon="5.52538">
        <ele>1156.1225585938</ele>
        <time>2011-05-07T09:55:29Z</time>
      </trkpt>
      <trkpt lat="45.02533" lon="5.52548">
        <ele>1159.9677734375</ele>
        <time>2011-05-07T09:55:48Z</time>
      </trkpt>
      <trkpt lat="45.02519" lon="5.52568">
        <ele>1165.7360839844</ele>
        <time>2011-05-07T09:56:08Z</time>
      </trkpt>
      <trkpt lat="45.02518" lon="5.52568">
        <ele>1165.2553710938</ele>
        <time>2011-05-07T09:56:43Z</time>
      </trkpt>
      <trkpt lat="45.02515" lon="5.52568">
        <ele>1164.2939453125</ele>
        <time>2011-05-07T09:56:55Z</time>
      </trkpt>
      <trkpt lat="45.02496" lon="5.52576">
        <ele>1169.1005859375</ele>
        <time>2011-05-07T09:57:13Z</time>
      </trkpt>
      <trkpt lat="45.02472" lon="5.52593">
        <ele>1173.4265136719</ele>
        <time>2011-05-07T09:57:33Z</time>
      </trkpt>
      <trkpt lat="45.02455" lon="5.52619">
        <ele>1180.6364746094</ele>
        <time>2011-05-07T09:57:53Z</time>
      </trkpt>
      <trkpt lat="45.0244" lon="5.52647">
        <ele>1182.0783691406</ele>
        <time>2011-05-07T09:58:10Z</time>
      </trkpt>
      <trkpt lat="45.02415" lon="5.5266">
        <ele>1186.404296875</ele>
        <time>2011-05-07T09:58:29Z</time>
      </trkpt>
      <trkpt lat="45.02405" lon="5.52667">
        <ele>1192.6528320312</ele>
        <time>2011-05-07T09:58:44Z</time>
      </trkpt>
      <trkpt lat="45.02404" lon="5.52666">
        <ele>1189.7687988281</ele>
        <time>2011-05-07T09:59:12Z</time>
      </trkpt>
      <trkpt lat="45.02404" lon="5.52667">
        <ele>1193.1333007812</ele>
        <time>2011-05-07T09:59:41Z</time>
      </trkpt>
      <trkpt lat="45.02406" lon="5.52668">
        <ele>1193.6140136719</ele>
        <time>2011-05-07T10:00:04Z</time>
      </trkpt>
      <trkpt lat="45.02411" lon="5.52669">
        <ele>1196.017578125</ele>
        <time>2011-05-07T10:00:55Z</time>
      </trkpt>
      <trkpt lat="45.02411" lon="5.52671">
        <ele>1200.8239746094</ele>
        <time>2011-05-07T10:01:39Z</time>
      </trkpt>
      <trkpt lat="45.02414" lon="5.52674">
        <ele>1197.9401855469</ele>
        <time>2011-05-07T10:02:28Z</time>
      </trkpt>
      <trkpt lat="45.02414" lon="5.52674">
        <ele>1193.1333007812</ele>
        <time>2011-05-07T10:03:25Z</time>
      </trkpt>
      <trkpt lat="45.02407" lon="5.52669">
        <ele>1191.69140625</ele>
        <time>2011-05-07T10:03:39Z</time>
      </trkpt>
      <trkpt lat="45.02404" lon="5.5267">
        <ele>1192.1721191406</ele>
        <time>2011-05-07T10:03:49Z</time>
      </trkpt>
      <trkpt lat="45.02382" lon="5.52685">
        <ele>1194.5751953125</ele>
        <time>2011-05-07T10:04:08Z</time>
      </trkpt>
      <trkpt lat="45.02357" lon="5.52704">
        <ele>1196.4982910156</ele>
        <time>2011-05-07T10:04:29Z</time>
      </trkpt>
      <trkpt lat="45.02335" lon="5.5272">
        <ele>1200.8239746094</ele>
        <time>2011-05-07T10:04:47Z</time>
      </trkpt>
      <trkpt lat="45.02318" lon="5.52734">
        <ele>1204.1887207031</ele>
        <time>2011-05-07T10:05:04Z</time>
      </trkpt>
      <trkpt lat="45.02301" lon="5.52747">
        <ele>1206.591796875</ele>
        <time>2011-05-07T10:05:19Z</time>
      </trkpt>
      <trkpt lat="45.02287" lon="5.5276">
        <ele>1210.4370117188</ele>
        <time>2011-05-07T10:05:34Z</time>
      </trkpt>
      <trkpt lat="45.02285" lon="5.52763">
        <ele>1211.8791503906</ele>
        <time>2011-05-07T10:05:46Z</time>
      </trkpt>
      <trkpt lat="45.02283" lon="5.52764">
        <ele>1212.8405761719</ele>
        <time>2011-05-07T10:06:12Z</time>
      </trkpt>
      <trkpt lat="45.02285" lon="5.52765">
        <ele>1212.3598632812</ele>
        <time>2011-05-07T10:06:49Z</time>
      </trkpt>
      <trkpt lat="45.02282" lon="5.52767">
        <ele>1216.6857910156</ele>
        <time>2011-05-07T10:07:19Z</time>
      </trkpt>
      <trkpt lat="45.0227" lon="5.52783">
        <ele>1218.6083984375</ele>
        <time>2011-05-07T10:07:31Z</time>
      </trkpt>
      <trkpt lat="45.02263" lon="5.5281">
        <ele>1220.5310058594</ele>
        <time>2011-05-07T10:07:49Z</time>
      </trkpt>
      <trkpt lat="45.02237" lon="5.52831">
        <ele>1224.8569335938</ele>
        <time>2011-05-07T10:08:10Z</time>
      </trkpt>
      <trkpt lat="45.02229" lon="5.52834">
        <ele>1225.3374023438</ele>
        <time>2011-05-07T10:08:17Z</time>
      </trkpt>
      <trkpt lat="45.02227" lon="5.52832">
        <ele>1226.298828125</ele>
        <time>2011-05-07T10:08:35Z</time>
      </trkpt>
      <trkpt lat="45.02227" lon="5.52829">
        <ele>1226.298828125</ele>
        <time>2011-05-07T10:08:43Z</time>
      </trkpt>
      <trkpt lat="45.0222" lon="5.52829">
        <ele>1226.7795410156</ele>
        <time>2011-05-07T10:08:47Z</time>
      </trkpt>
      <trkpt lat="45.02213" lon="5.52832">
        <ele>1226.7795410156</ele>
        <time>2011-05-07T10:08:52Z</time>
      </trkpt>
      <trkpt lat="45.02195" lon="5.52833">
        <ele>1227.2602539062</ele>
        <time>2011-05-07T10:09:04Z</time>
      </trkpt>
      <trkpt lat="45.02193" lon="5.52835">
        <ele>1227.7407226562</ele>
        <time>2011-05-07T10:09:06Z</time>
      </trkpt>
      <trkpt lat="45.02177" lon="5.52831">
        <ele>1228.7023925781</ele>
        <time>2011-05-07T10:09:18Z</time>
      </trkpt>
      <trkpt lat="45.02169" lon="5.5283">
        <ele>1229.6635742188</ele>
        <time>2011-05-07T10:09:24Z</time>
      </trkpt>
      <trkpt lat="45.0217" lon="5.52816">
        <ele>1229.1828613281</ele>
        <time>2011-05-07T10:09:34Z</time>
      </trkpt>
      <trkpt lat="45.02205" lon="5.52776">
        <ele>1229.1828613281</ele>
        <time>2011-05-07T10:09:52Z</time>
      </trkpt>
      <trkpt lat="45.02208" lon="5.52775">
        <ele>1228.7023925781</ele>
        <time>2011-05-07T10:10:01Z</time>
      </trkpt>
      <trkpt lat="45.0221" lon="5.52768">
        <ele>1232.0668945312</ele>
        <time>2011-05-07T10:10:20Z</time>
      </trkpt>
      <trkpt lat="45.0221" lon="5.52767">
        <ele>1226.7795410156</ele>
        <time>2011-05-07T10:10:42Z</time>
      </trkpt>
      <trkpt lat="45.02208" lon="5.52769">
        <ele>1226.7795410156</ele>
        <time>2011-05-07T10:11:08Z</time>
      </trkpt>
      <trkpt lat="45.02214" lon="5.52763">
        <ele>1227.7407226562</ele>
        <time>2011-05-07T10:11:23Z</time>
      </trkpt>
      <trkpt lat="45.02213" lon="5.52755">
        <ele>1228.2216796875</ele>
        <time>2011-05-07T10:12:01Z</time>
      </trkpt>
      <trkpt lat="45.02214" lon="5.52752">
        <ele>1229.1828613281</ele>
        <time>2011-05-07T10:12:09Z</time>
      </trkpt>
      <trkpt lat="45.0221" lon="5.5274">
        <ele>1229.1828613281</ele>
        <time>2011-05-07T10:12:16Z</time>
      </trkpt>
      <trkpt lat="45.02206" lon="5.52727">
        <ele>1227.7407226562</ele>
        <time>2011-05-07T10:12:23Z</time>
      </trkpt>
      <trkpt lat="45.02194" lon="5.52696">
        <ele>1227.2602539062</ele>
        <time>2011-05-07T10:12:39Z</time>
      </trkpt>
      <trkpt lat="45.02191" lon="5.52656">
        <ele>1225.8181152344</ele>
        <time>2011-05-07T10:12:55Z</time>
      </trkpt>
      <trkpt lat="45.02207" lon="5.52606">
        <ele>1222.9343261719</ele>
        <time>2011-05-07T10:13:10Z</time>
      </trkpt>
      <trkpt lat="45.02218" lon="5.52569">
        <ele>1221.9729003906</ele>
        <time>2011-05-07T10:13:27Z</time>
      </trkpt>
      <trkpt lat="45.02236" lon="5.52549">
        <ele>1219.0891113281</ele>
        <time>2011-05-07T10:13:37Z</time>
      </trkpt>
      <trkpt lat="45.02238" lon="5.52548">
        <ele>1219.0891113281</ele>
        <time>2011-05-07T10:13:56Z</time>
      </trkpt>
      <trkpt lat="45.02236" lon="5.52548">
        <ele>1216.205078125</ele>
        <time>2011-05-07T10:14:20Z</time>
      </trkpt>
      <trkpt lat="45.02235" lon="5.52546">
        <ele>1218.6083984375</ele>
        <time>2011-05-07T10:14:49Z</time>
      </trkpt>
      <trkpt lat="45.02234" lon="5.5254">
        <ele>1217.6469726562</ele>
        <time>2011-05-07T10:15:05Z</time>
      </trkpt>
      <trkpt lat="45.02247" lon="5.52498">
        <ele>1214.2824707031</ele>
        <time>2011-05-07T10:15:14Z</time>
      </trkpt>
      <trkpt lat="45.02279" lon="5.52434">
        <ele>1206.591796875</ele>
        <time>2011-05-07T10:15:26Z</time>
      </trkpt>
      <trkpt lat="45.02296" lon="5.52369">
        <ele>1202.7465820312</ele>
        <time>2011-05-07T10:15:41Z</time>
      </trkpt>
      <trkpt lat="45.02296" lon="5.52364">
        <ele>1202.7465820312</ele>
        <time>2011-05-07T10:15:53Z</time>
      </trkpt>
      <trkpt lat="45.02292" lon="5.5237">
        <ele>1199.3820800781</ele>
        <time>2011-05-07T10:16:38Z</time>
      </trkpt>
      <trkpt lat="45.02293" lon="5.52369">
        <ele>1195.0559082031</ele>
        <time>2011-05-07T10:17:38Z</time>
      </trkpt>
      <trkpt lat="45.02296" lon="5.52363">
        <ele>1195.5366210938</ele>
        <time>2011-05-07T10:17:52Z</time>
      </trkpt>
      <trkpt lat="45.02305" lon="5.52367">
        <ele>1194.5751953125</ele>
        <time>2011-05-07T10:17:57Z</time>
      </trkpt>
      <trkpt lat="45.02321" lon="5.52388">
        <ele>1191.2106933594</ele>
        <time>2011-05-07T10:18:06Z</time>
      </trkpt>
      <trkpt lat="45.02327" lon="5.52388">
        <ele>1191.2106933594</ele>
        <time>2011-05-07T10:18:09Z</time>
      </trkpt>
      <trkpt lat="45.02329" lon="5.52385">
        <ele>1191.69140625</ele>
        <time>2011-05-07T10:18:27Z</time>
      </trkpt>
      <trkpt lat="45.02329" lon="5.52385">
        <ele>1192.1721191406</ele>
        <time>2011-05-07T10:18:29Z</time>
      </trkpt>
      <trkpt lat="45.02363" lon="5.52408">
        <ele>1191.2106933594</ele>
        <time>2011-05-07T10:18:41Z</time>
      </trkpt>
      <trkpt lat="45.02366" lon="5.52411">
        <ele>1191.2106933594</ele>
        <time>2011-05-07T10:18:42Z</time>
      </trkpt>
      <trkpt lat="45.02388" lon="5.52421">
        <ele>1188.3269042969</ele>
        <time>2011-05-07T10:18:47Z</time>
      </trkpt>
      <trkpt lat="45.02463" lon="5.52421">
        <ele>1187.8461914062</ele>
        <time>2011-05-07T10:19:06Z</time>
      </trkpt>
      <trkpt lat="45.02496" lon="5.52448">
        <ele>1184.9624023438</ele>
        <time>2011-05-07T10:19:22Z</time>
      </trkpt>
      <trkpt lat="45.02516" lon="5.52506">
        <ele>1180.1557617188</ele>
        <time>2011-05-07T10:19:36Z</time>
      </trkpt>
      <trkpt lat="45.02528" lon="5.52532">
        <ele>1176.791015625</ele>
        <time>2011-05-07T10:19:47Z</time>
      </trkpt>
      <trkpt lat="45.02556" lon="5.52523">
        <ele>1168.1391601562</ele>
        <time>2011-05-07T10:19:55Z</time>
      </trkpt>
      <trkpt lat="45.02568" lon="5.52524">
        <ele>1164.2939453125</ele>
        <time>2011-05-07T10:20:04Z</time>
      </trkpt>
      <trkpt lat="45.02572" lon="5.52527">
        <ele>1163.3325195312</ele>
        <time>2011-05-07T10:20:23Z</time>
      </trkpt>
      <trkpt lat="45.02608" lon="5.52508">
        <ele>1156.1225585938</ele>
        <time>2011-05-07T10:20:33Z</time>
      </trkpt>
      <trkpt lat="45.02712" lon="5.52444">
        <ele>1145.0673828125</ele>
        <time>2011-05-07T10:20:52Z</time>
      </trkpt>
      <trkpt lat="45.02729" lon="5.52433">
        <ele>1142.18359375</ele>
        <time>2011-05-07T10:21:00Z</time>
      </trkpt>
      <trkpt lat="45.02731" lon="5.52432">
        <ele>1137.8576660156</ele>
        <time>2011-05-07T10:21:12Z</time>
      </trkpt>
      <trkpt lat="45.02733" lon="5.52428">
        <ele>1137.376953125</ele>
        <time>2011-05-07T10:21:20Z</time>
      </trkpt>
      <trkpt lat="45.02747" lon="5.5242">
        <ele>1134.9738769531</ele>
        <time>2011-05-07T10:21:31Z</time>
      </trkpt>
      <trkpt lat="45.02742" lon="5.52381">
        <ele>1134.4931640625</ele>
        <time>2011-05-07T10:21:48Z</time>
      </trkpt>
      <trkpt lat="45.02744" lon="5.52363">
        <ele>1133.0510253906</ele>
        <time>2011-05-07T10:21:55Z</time>
      </trkpt>
      <trkpt lat="45.0274" lon="5.5235">
        <ele>1132.5705566406</ele>
        <time>2011-05-07T10:21:59Z</time>
      </trkpt>
      <trkpt lat="45.02728" lon="5.52308">
        <ele>1131.1284179688</ele>
        <time>2011-05-07T10:22:16Z</time>
      </trkpt>
      <trkpt lat="45.02712" lon="5.52259">
        <ele>1130.1669921875</ele>
        <time>2011-05-07T10:22:34Z</time>
      </trkpt>
      <trkpt lat="45.02698" lon="5.52224">
        <ele>1128.2443847656</ele>
        <time>2011-05-07T10:22:48Z</time>
      </trkpt>
      <trkpt lat="45.02683" lon="5.52224">
        <ele>1129.2055664062</ele>
        <time>2011-05-07T10:22:57Z</time>
      </trkpt>
      <trkpt lat="45.02666" lon="5.52201">
        <ele>1133.0510253906</ele>
        <time>2011-05-07T10:23:14Z</time>
      </trkpt>
      <trkpt lat="45.02639" lon="5.52176">
        <ele>1135.4543457031</ele>
        <time>2011-05-07T10:23:34Z</time>
      </trkpt>
      <trkpt lat="45.02613" lon="5.52149">
        <ele>1134.0124511719</ele>
        <time>2011-05-07T10:23:52Z</time>
      </trkpt>
      <trkpt lat="45.02593" lon="5.52134">
        <ele>1132.08984375</ele>
        <time>2011-05-07T10:24:02Z</time>
      </trkpt>
      <trkpt lat="45.02577" lon="5.52106">
        <ele>1134.0124511719</ele>
        <time>2011-05-07T10:24:14Z</time>
      </trkpt>
      <trkpt lat="45.026" lon="5.52069">
        <ele>1133.5317382812</ele>
        <time>2011-05-07T10:24:26Z</time>
      </trkpt>
      <trkpt lat="45.02604" lon="5.52061">
        <ele>1133.5317382812</ele>
        <time>2011-05-07T10:24:29Z</time>
      </trkpt>
      <trkpt lat="45.02594" lon="5.52023">
        <ele>1133.5317382812</ele>
        <time>2011-05-07T10:24:47Z</time>
      </trkpt>
      <trkpt lat="45.02585" lon="5.5201">
        <ele>1134.9738769531</ele>
        <time>2011-05-07T10:24:57Z</time>
      </trkpt>
      <trkpt lat="45.02567" lon="5.51994">
        <ele>1137.8576660156</ele>
        <time>2011-05-07T10:25:14Z</time>
      </trkpt>
      <trkpt lat="45.02546" lon="5.51973">
        <ele>1138.8190917969</ele>
        <time>2011-05-07T10:25:34Z</time>
      </trkpt>
      <trkpt lat="45.02536" lon="5.51961">
        <ele>1141.7028808594</ele>
        <time>2011-05-07T10:25:48Z</time>
      </trkpt>
      <trkpt lat="45.02534" lon="5.51961">
        <ele>1142.6643066406</ele>
        <time>2011-05-07T10:26:15Z</time>
      </trkpt>
      <trkpt lat="45.02532" lon="5.51962">
        <ele>1142.6643066406</ele>
        <time>2011-05-07T10:26:55Z</time>
      </trkpt>
      <trkpt lat="45.02529" lon="5.51959">
        <ele>1148.9128417969</ele>
        <time>2011-05-07T10:27:34Z</time>
      </trkpt>
      <trkpt lat="45.02513" lon="5.51931">
        <ele>1147.470703125</ele>
        <time>2011-05-07T10:27:49Z</time>
      </trkpt>
      <trkpt lat="45.02497" lon="5.51892">
        <ele>1149.3935546875</ele>
        <time>2011-05-07T10:28:13Z</time>
      </trkpt>
      <trkpt lat="45.02485" lon="5.51873">
        <ele>1148.9128417969</ele>
        <time>2011-05-07T10:28:26Z</time>
      </trkpt>
      <trkpt lat="45.02478" lon="5.51869">
        <ele>1151.3161621094</ele>
        <time>2011-05-07T10:28:32Z</time>
      </trkpt>
      <trkpt lat="45.02469" lon="5.51859">
        <ele>1151.3161621094</ele>
        <time>2011-05-07T10:28:40Z</time>
      </trkpt>
      <trkpt lat="45.02453" lon="5.51817">
        <ele>1148.9128417969</ele>
        <time>2011-05-07T10:28:53Z</time>
      </trkpt>
      <trkpt lat="45.02448" lon="5.51787">
        <ele>1148.4321289062</ele>
        <time>2011-05-07T10:29:06Z</time>
      </trkpt>
      <trkpt lat="45.02436" lon="5.51772">
        <ele>1148.9128417969</ele>
        <time>2011-05-07T10:29:16Z</time>
      </trkpt>
      <trkpt lat="45.02421" lon="5.51772">
        <ele>1149.3935546875</ele>
        <time>2011-05-07T10:29:26Z</time>
      </trkpt>
      <trkpt lat="45.02413" lon="5.51766">
        <ele>1149.8742675781</ele>
        <time>2011-05-07T10:29:31Z</time>
      </trkpt>
      <trkpt lat="45.02379" lon="5.51754">
        <ele>1151.3161621094</ele>
        <time>2011-05-07T10:29:50Z</time>
      </trkpt>
      <trkpt lat="45.02349" lon="5.5175">
        <ele>1153.7194824219</ele>
        <time>2011-05-07T10:30:08Z</time>
      </trkpt>
      <trkpt lat="45.0233" lon="5.51746">
        <ele>1154.6806640625</ele>
        <time>2011-05-07T10:30:23Z</time>
      </trkpt>
      <trkpt lat="45.02331" lon="5.51744">
        <ele>1153.7194824219</ele>
        <time>2011-05-07T10:31:04Z</time>
      </trkpt>
      <trkpt lat="45.02331" lon="5.51742">
        <ele>1153.7194824219</ele>
        <time>2011-05-07T10:31:21Z</time>
      </trkpt>
      <trkpt lat="45.02329" lon="5.51716">
        <ele>1154.2001953125</ele>
        <time>2011-05-07T10:31:36Z</time>
      </trkpt>
      <trkpt lat="45.02326" lon="5.51704">
        <ele>1156.1225585938</ele>
        <time>2011-05-07T10:31:42Z</time>
      </trkpt>
      <trkpt lat="45.02337" lon="5.51671">
        <ele>1162.37109375</ele>
        <time>2011-05-07T10:32:02Z</time>
      </trkpt>
      <trkpt lat="45.02359" lon="5.51665">
        <ele>1163.8129882812</ele>
        <time>2011-05-07T10:32:19Z</time>
      </trkpt>
      <trkpt lat="45.02371" lon="5.51657">
        <ele>1163.8129882812</ele>
        <time>2011-05-07T10:32:28Z</time>
      </trkpt>
      <trkpt lat="45.0237" lon="5.51643">
        <ele>1164.7746582031</ele>
        <time>2011-05-07T10:32:35Z</time>
      </trkpt>
      <trkpt lat="45.02362" lon="5.51623">
        <ele>1165.2553710938</ele>
        <time>2011-05-07T10:32:46Z</time>
      </trkpt>
      <trkpt lat="45.02367" lon="5.51614">
        <ele>1167.6584472656</ele>
        <time>2011-05-07T10:32:51Z</time>
      </trkpt>
      <trkpt lat="45.02374" lon="5.51591">
        <ele>1173.9069824219</ele>
        <time>2011-05-07T10:33:07Z</time>
      </trkpt>
      <trkpt lat="45.02379" lon="5.51573">
        <ele>1179.6748046875</ele>
        <time>2011-05-07T10:33:25Z</time>
      </trkpt>
      <trkpt lat="45.0238" lon="5.51567">
        <ele>1180.1557617188</ele>
        <time>2011-05-07T10:33:28Z</time>
      </trkpt>
      <trkpt lat="45.02376" lon="5.51575">
        <ele>1179.1940917969</ele>
        <time>2011-05-07T10:33:35Z</time>
      </trkpt>
      <trkpt lat="45.02375" lon="5.51601">
        <ele>1177.2717285156</ele>
        <time>2011-05-07T10:33:43Z</time>
      </trkpt>
      <trkpt lat="45.02398" lon="5.516">
        <ele>1177.2717285156</ele>
        <time>2011-05-07T10:33:55Z</time>
      </trkpt>
      <trkpt lat="45.02425" lon="5.51585">
        <ele>1180.1557617188</ele>
        <time>2011-05-07T10:34:13Z</time>
      </trkpt>
      <trkpt lat="45.02449" lon="5.51574">
        <ele>1181.59765625</ele>
        <time>2011-05-07T10:34:29Z</time>
      </trkpt>
      <trkpt lat="45.02485" lon="5.51561">
        <ele>1186.884765625</ele>
        <time>2011-05-07T10:34:49Z</time>
      </trkpt>
      <trkpt lat="45.02524" lon="5.51548">
        <ele>1192.6528320312</ele>
        <time>2011-05-07T10:35:07Z</time>
      </trkpt>
      <trkpt lat="45.02553" lon="5.51534">
        <ele>1196.4982910156</ele>
        <time>2011-05-07T10:35:24Z</time>
      </trkpt>
      <trkpt lat="45.02573" lon="5.51526">
        <ele>1195.5366210938</ele>
        <time>2011-05-07T10:35:43Z</time>
      </trkpt>
      <trkpt lat="45.02575" lon="5.51529">
        <ele>1194.0947265625</ele>
        <time>2011-05-07T10:36:07Z</time>
      </trkpt>
      <trkpt lat="45.0258" lon="5.51529">
        <ele>1194.0947265625</ele>
        <time>2011-05-07T10:36:11Z</time>
      </trkpt>
      <trkpt lat="45.02606" lon="5.51521">
        <ele>1194.5751953125</ele>
        <time>2011-05-07T10:36:29Z</time>
      </trkpt>
      <trkpt lat="45.02637" lon="5.51517">
        <ele>1196.017578125</ele>
        <time>2011-05-07T10:36:50Z</time>
      </trkpt>
      <trkpt lat="45.0267" lon="5.51498">
        <ele>1197.9401855469</ele>
        <time>2011-05-07T10:37:11Z</time>
      </trkpt>
      <trkpt lat="45.02675" lon="5.51491">
        <ele>1195.0559082031</ele>
        <time>2011-05-07T10:37:30Z</time>
      </trkpt>
      <trkpt lat="45.02673" lon="5.51494">
        <ele>1202.7465820312</ele>
        <time>2011-05-07T10:37:58Z</time>
      </trkpt>
      <trkpt lat="45.02673" lon="5.51487">
        <ele>1204.6691894531</ele>
        <time>2011-05-07T10:38:11Z</time>
      </trkpt>
      <trkpt lat="45.02671" lon="5.51478">
        <ele>1207.5532226562</ele>
        <time>2011-05-07T10:38:17Z</time>
      </trkpt>
      <trkpt lat="45.02686" lon="5.5145">
        <ele>1206.1110839844</ele>
        <time>2011-05-07T10:38:33Z</time>
      </trkpt>
      <trkpt lat="45.02693" lon="5.51435">
        <ele>1205.1499023438</ele>
        <time>2011-05-07T10:38:41Z</time>
      </trkpt>
      <trkpt lat="45.02724" lon="5.51401">
        <ele>1206.1110839844</ele>
        <time>2011-05-07T10:39:09Z</time>
      </trkpt>
      <trkpt lat="45.02746" lon="5.51373">
        <ele>1209.9562988281</ele>
        <time>2011-05-07T10:39:31Z</time>
      </trkpt>
      <trkpt lat="45.02752" lon="5.51354">
        <ele>1210.9177246094</ele>
        <time>2011-05-07T10:39:40Z</time>
      </trkpt>
      <trkpt lat="45.02767" lon="5.51324">
        <ele>1212.3598632812</ele>
        <time>2011-05-07T10:39:57Z</time>
      </trkpt>
      <trkpt lat="45.02791" lon="5.51276">
        <ele>1210.4370117188</ele>
        <time>2011-05-07T10:40:08Z</time>
      </trkpt>
      <trkpt lat="45.02809" lon="5.51224">
        <ele>1211.3984375</ele>
        <time>2011-05-07T10:40:26Z</time>
      </trkpt>
      <trkpt lat="45.02828" lon="5.51194">
        <ele>1212.8405761719</ele>
        <time>2011-05-07T10:40:42Z</time>
      </trkpt>
      <trkpt lat="45.02862" lon="5.5118">
        <ele>1210.4370117188</ele>
        <time>2011-05-07T10:41:00Z</time>
      </trkpt>
      <trkpt lat="45.02886" lon="5.51163">
        <ele>1213.3212890625</ele>
        <time>2011-05-07T10:41:15Z</time>
      </trkpt>
      <trkpt lat="45.02918" lon="5.5114">
        <ele>1213.8017578125</ele>
        <time>2011-05-07T10:41:36Z</time>
      </trkpt>
      <trkpt lat="45.02947" lon="5.51109">
        <ele>1216.205078125</ele>
        <time>2011-05-07T10:41:57Z</time>
      </trkpt>
      <trkpt lat="45.02969" lon="5.5107">
        <ele>1216.6857910156</ele>
        <time>2011-05-07T10:42:16Z</time>
      </trkpt>
      <trkpt lat="45.02982" lon="5.51013">
        <ele>1220.5310058594</ele>
        <time>2011-05-07T10:42:37Z</time>
      </trkpt>
      <trkpt lat="45.02995" lon="5.50968">
        <ele>1220.5310058594</ele>
        <time>2011-05-07T10:42:52Z</time>
      </trkpt>
      <trkpt lat="45.03004" lon="5.50947">
        <ele>1220.0502929688</ele>
        <time>2011-05-07T10:42:56Z</time>
      </trkpt>
      <trkpt lat="45.03023" lon="5.50901">
        <ele>1220.0502929688</ele>
        <time>2011-05-07T10:43:07Z</time>
      </trkpt>
      <trkpt lat="45.03027" lon="5.50889">
        <ele>1221.4921875</ele>
        <time>2011-05-07T10:43:18Z</time>
      </trkpt>
      <trkpt lat="45.03022" lon="5.50897">
        <ele>1220.5310058594</ele>
        <time>2011-05-07T10:43:22Z</time>
      </trkpt>
      <trkpt lat="45.03011" lon="5.50931">
        <ele>1219.0891113281</ele>
        <time>2011-05-07T10:43:30Z</time>
      </trkpt>
      <trkpt lat="45.03017" lon="5.50934">
        <ele>1219.0891113281</ele>
        <time>2011-05-07T10:43:34Z</time>
      </trkpt>
      <trkpt lat="45.03029" lon="5.50925">
        <ele>1219.0891113281</ele>
        <time>2011-05-07T10:43:42Z</time>
      </trkpt>
      <trkpt lat="45.03058" lon="5.50901">
        <ele>1219.5698242188</ele>
        <time>2011-05-07T10:44:00Z</time>
      </trkpt>
      <trkpt lat="45.03082" lon="5.50883">
        <ele>1221.01171875</ele>
        <time>2011-05-07T10:44:15Z</time>
      </trkpt>
      <trkpt lat="45.03104" lon="5.50861">
        <ele>1221.4921875</ele>
        <time>2011-05-07T10:44:29Z</time>
      </trkpt>
      <trkpt lat="45.03133" lon="5.5085">
        <ele>1222.9343261719</ele>
        <time>2011-05-07T10:44:46Z</time>
      </trkpt>
      <trkpt lat="45.03157" lon="5.50857">
        <ele>1225.3374023438</ele>
        <time>2011-05-07T10:45:00Z</time>
      </trkpt>
      <trkpt lat="45.03178" lon="5.50825">
        <ele>1227.2602539062</ele>
        <time>2011-05-07T10:45:19Z</time>
      </trkpt>
      <trkpt lat="45.03202" lon="5.50771">
        <ele>1228.2216796875</ele>
        <time>2011-05-07T10:45:36Z</time>
      </trkpt>
      <trkpt lat="45.0322" lon="5.50757">
        <ele>1228.7023925781</ele>
        <time>2011-05-07T10:45:44Z</time>
      </trkpt>
      <trkpt lat="45.03259" lon="5.50759">
        <ele>1231.5861816406</ele>
        <time>2011-05-07T10:46:05Z</time>
      </trkpt>
      <trkpt lat="45.033" lon="5.50774">
        <ele>1233.0280761719</ele>
        <time>2011-05-07T10:46:21Z</time>
      </trkpt>
      <trkpt lat="45.03344" lon="5.50773">
        <ele>1234.9509277344</ele>
        <time>2011-05-07T10:46:41Z</time>
      </trkpt>
      <trkpt lat="45.03415" lon="5.50745">
        <ele>1238.3154296875</ele>
        <time>2011-05-07T10:47:25Z</time>
      </trkpt>
      <trkpt lat="45.03514" lon="5.50782">
        <ele>1242.1606445312</ele>
        <time>2011-05-07T10:48:01Z</time>
      </trkpt>
      <trkpt lat="45.03608" lon="5.50793">
        <ele>1242.6413574219</ele>
        <time>2011-05-07T10:48:44Z</time>
      </trkpt>
      <trkpt lat="45.03676" lon="5.50798">
        <ele>1248.8898925781</ele>
        <time>2011-05-07T10:49:29Z</time>
      </trkpt>
      <trkpt lat="45.0368" lon="5.50794">
        <ele>1246.0061035156</ele>
        <time>2011-05-07T10:49:49Z</time>
      </trkpt>
      <trkpt lat="45.03649" lon="5.50762">
        <ele>1169.5812988281</ele>
        <time>2011-05-07T10:50:08Z</time>
      </trkpt>
      <trkpt lat="45.03632" lon="5.50785">
        <ele>1247.9287109375</ele>
        <time>2011-05-07T10:50:11Z</time>
      </trkpt>
      <trkpt lat="45.03669" lon="5.50722">
        <ele>1249.3706054688</ele>
        <time>2011-05-07T10:50:32Z</time>
      </trkpt>
      <trkpt lat="45.03672" lon="5.50706">
        <ele>1249.8513183594</ele>
        <time>2011-05-07T10:50:42Z</time>
      </trkpt>
      <trkpt lat="45.0369" lon="5.50675">
        <ele>1249.3706054688</ele>
        <time>2011-05-07T10:51:03Z</time>
      </trkpt>
      <trkpt lat="45.03712" lon="5.50639">
        <ele>1254.6577148438</ele>
        <time>2011-05-07T10:51:25Z</time>
      </trkpt>
      <trkpt lat="45.03709" lon="5.50632">
        <ele>1256.099609375</ele>
        <time>2011-05-07T10:51:32Z</time>
      </trkpt>
      <trkpt lat="45.03713" lon="5.50587">
        <ele>1257.5417480469</ele>
        <time>2011-05-07T10:51:53Z</time>
      </trkpt>
      <trkpt lat="45.03738" lon="5.50532">
        <ele>1257.5417480469</ele>
        <time>2011-05-07T10:52:18Z</time>
      </trkpt>
      <trkpt lat="45.03784" lon="5.50454">
        <ele>1259.4643554688</ele>
        <time>2011-05-07T10:53:05Z</time>
      </trkpt>
      <trkpt lat="45.03799" lon="5.50426">
        <ele>1260.9064941406</ele>
        <time>2011-05-07T10:53:26Z</time>
      </trkpt>
      <trkpt lat="45.0383" lon="5.50358">
        <ele>1265.7131347656</ele>
        <time>2011-05-07T10:54:05Z</time>
      </trkpt>
      <trkpt lat="45.03873" lon="5.50298">
        <ele>1274.3647460938</ele>
        <time>2011-05-07T10:54:46Z</time>
      </trkpt>
      <trkpt lat="45.03881" lon="5.50263">
        <ele>1277.2490234375</ele>
        <time>2011-05-07T10:55:05Z</time>
      </trkpt>
      <trkpt lat="45.04034" lon="5.50079">
        <ele>1180.6364746094</ele>
        <time>2011-05-07T10:55:34Z</time>
      </trkpt>
      <trkpt lat="45.03987" lon="5.50074">
        <ele>1176.3103027344</ele>
        <time>2011-05-07T10:55:59Z</time>
      </trkpt>
      <trkpt lat="45.03912" lon="5.50244">
        <ele>1285.419921875</ele>
        <time>2011-05-07T10:56:40Z</time>
      </trkpt>
      <trkpt lat="45.03933" lon="5.5024">
        <ele>1286.8618164062</ele>
        <time>2011-05-07T10:56:59Z</time>
      </trkpt>
      <trkpt lat="45.03896" lon="5.50263">
        <ele>1301.2817382812</ele>
        <time>2011-05-07T10:57:27Z</time>
      </trkpt>
      <trkpt lat="45.03879" lon="5.50293">
        <ele>1300.3205566406</ele>
        <time>2011-05-07T10:57:44Z</time>
      </trkpt>
      <trkpt lat="45.0389" lon="5.5029">
        <ele>1298.8784179688</ele>
        <time>2011-05-07T10:58:01Z</time>
      </trkpt>
      <trkpt lat="45.03892" lon="5.50256">
        <ele>1276.7683105469</ele>
        <time>2011-05-07T10:59:09Z</time>
      </trkpt>
      <trkpt lat="45.03918" lon="5.50247">
        <ele>1276.2875976562</ele>
        <time>2011-05-07T10:59:59Z</time>
      </trkpt>
      <trkpt lat="45.03914" lon="5.50248">
        <ele>1276.7683105469</ele>
        <time>2011-05-07T11:00:31Z</time>
      </trkpt>
      <trkpt lat="45.03896" lon="5.50263">
        <ele>1278.6909179688</ele>
        <time>2011-05-07T11:01:01Z</time>
      </trkpt>
      <trkpt lat="45.039" lon="5.50259">
        <ele>1279.6520996094</ele>
        <time>2011-05-07T11:01:30Z</time>
      </trkpt>
      <trkpt lat="45.03875" lon="5.50295">
        <ele>1314.740234375</ele>
        <time>2011-05-07T11:02:01Z</time>
      </trkpt>
      <trkpt lat="45.03877" lon="5.50285">
        <ele>1281.5747070312</ele>
        <time>2011-05-07T11:02:32Z</time>
      </trkpt>
      <trkpt lat="45.03884" lon="5.50275">
        <ele>1281.5747070312</ele>
        <time>2011-05-07T11:03:10Z</time>
      </trkpt>
      <trkpt lat="45.03928" lon="5.50239">
        <ele>1285.419921875</ele>
        <time>2011-05-07T11:05:07Z</time>
      </trkpt>
      <trkpt lat="45.03921" lon="5.50242">
        <ele>1284.939453125</ele>
        <time>2011-05-07T11:05:39Z</time>
      </trkpt>
      <trkpt lat="45.03889" lon="5.50264">
        <ele>1286.3813476562</ele>
        <time>2011-05-07T11:06:13Z</time>
      </trkpt>
      <trkpt lat="45.03888" lon="5.50287">
        <ele>1286.8618164062</ele>
        <time>2011-05-07T11:06:41Z</time>
      </trkpt>
      <trkpt lat="45.03854" lon="5.50285">
        <ele>1289.2651367188</ele>
        <time>2011-05-07T11:08:19Z</time>
      </trkpt>
      <trkpt lat="45.03859" lon="5.5028">
        <ele>1296.9558105469</ele>
        <time>2011-05-07T11:08:49Z</time>
      </trkpt>
      <trkpt lat="45.03868" lon="5.50276">
        <ele>1299.3591308594</ele>
        <time>2011-05-07T11:09:23Z</time>
      </trkpt>
      <trkpt lat="45.03877" lon="5.50287">
        <ele>1299.83984375</ele>
        <time>2011-05-07T11:09:43Z</time>
      </trkpt>
      <trkpt lat="45.03882" lon="5.50285">
        <ele>1295.5139160156</ele>
        <time>2011-05-07T11:10:11Z</time>
      </trkpt>
      <trkpt lat="45.03886" lon="5.50281">
        <ele>1247.4479980469</ele>
        <time>2011-05-07T11:10:42Z</time>
      </trkpt>
      <trkpt lat="45.03904" lon="5.50286">
        <ele>1310.4143066406</ele>
        <time>2011-05-07T11:11:16Z</time>
      </trkpt>
      <trkpt lat="45.03888" lon="5.50276">
        <ele>1304.1657714844</ele>
        <time>2011-05-07T11:11:51Z</time>
      </trkpt>
      <trkpt lat="45.03888" lon="5.50287">
        <ele>1333.4858398438</ele>
        <time>2011-05-07T11:12:20Z</time>
      </trkpt>
      <trkpt lat="45.03883" lon="5.50292">
        <ele>1299.83984375</ele>
        <time>2011-05-07T11:12:53Z</time>
      </trkpt>
      <trkpt lat="45.03884" lon="5.50276">
        <ele>1282.5361328125</ele>
        <time>2011-05-07T11:13:27Z</time>
      </trkpt>
      <trkpt lat="45.03886" lon="5.50274">
        <ele>1295.5139160156</ele>
        <time>2011-05-07T11:14:15Z</time>
      </trkpt>
      <trkpt lat="45.03876" lon="5.50277">
        <ele>1276.7683105469</ele>
        <time>2011-05-07T11:14:43Z</time>
      </trkpt>
      <trkpt lat="45.03926" lon="5.50247">
        <ele>1274.8454589844</ele>
        <time>2011-05-07T11:15:20Z</time>
      </trkpt>
      <trkpt lat="45.03899" lon="5.50267">
        <ele>1269.5583496094</ele>
        <time>2011-05-07T11:16:00Z</time>
      </trkpt>
      <trkpt lat="45.039" lon="5.50266">
        <ele>1270.0388183594</ele>
        <time>2011-05-07T11:16:34Z</time>
      </trkpt>
      <trkpt lat="45.03892" lon="5.5025">
        <ele>1294.0720214844</ele>
        <time>2011-05-07T11:17:11Z</time>
      </trkpt>
      <trkpt lat="45.0389" lon="5.50281">
        <ele>1327.7180175781</ele>
        <time>2011-05-07T11:17:37Z</time>
      </trkpt>
      <trkpt lat="45.03874" lon="5.50298">
        <ele>1324.353515625</ele>
        <time>2011-05-07T11:18:14Z</time>
      </trkpt>
      <trkpt lat="45.03894" lon="5.5028">
        <ele>1284.939453125</ele>
        <time>2011-05-07T11:18:43Z</time>
      </trkpt>
      <trkpt lat="45.0388" lon="5.50262">
        <ele>1289.7458496094</ele>
        <time>2011-05-07T11:19:17Z</time>
      </trkpt>
      <trkpt lat="45.0389" lon="5.50266">
        <ele>1311.8564453125</ele>
        <time>2011-05-07T11:20:26Z</time>
      </trkpt>
      <trkpt lat="45.0388" lon="5.50284">
        <ele>1289.7458496094</ele>
        <time>2011-05-07T11:21:12Z</time>
      </trkpt>
      <trkpt lat="45.03898" lon="5.50249">
        <ele>1254.1772460938</ele>
        <time>2011-05-07T11:21:52Z</time>
      </trkpt>
      <trkpt lat="45.03866" lon="5.50286">
        <ele>1289.2651367188</ele>
        <time>2011-05-07T11:22:35Z</time>
      </trkpt>
      <trkpt lat="45.03869" lon="5.50288">
        <ele>1290.70703125</ele>
        <time>2011-05-07T11:23:17Z</time>
      </trkpt>
      <trkpt lat="45.03882" lon="5.50288">
        <ele>1299.3591308594</ele>
        <time>2011-05-07T11:23:51Z</time>
      </trkpt>
      <trkpt lat="45.03851" lon="5.5031">
        <ele>1294.5524902344</ele>
        <time>2011-05-07T11:24:25Z</time>
      </trkpt>
      <trkpt lat="45.03884" lon="5.50294">
        <ele>1293.5913085938</ele>
        <time>2011-05-07T11:25:01Z</time>
      </trkpt>
      <trkpt lat="45.03904" lon="5.50264">
        <ele>1290.2265625</ele>
        <time>2011-05-07T11:25:44Z</time>
      </trkpt>
      <trkpt lat="45.03889" lon="5.50269">
        <ele>1285.9006347656</ele>
        <time>2011-05-07T11:26:22Z</time>
      </trkpt>
      <trkpt lat="45.03882" lon="5.50275">
        <ele>1286.8618164062</ele>
        <time>2011-05-07T11:27:01Z</time>
      </trkpt>
      <trkpt lat="45.03891" lon="5.50309">
        <ele>1359.4416503906</ele>
        <time>2011-05-07T11:27:37Z</time>
      </trkpt>
      <trkpt lat="45.03885" lon="5.5025">
        <ele>1275.3259277344</ele>
        <time>2011-05-07T11:28:12Z</time>
      </trkpt>
      <trkpt lat="45.03879" lon="5.50268">
        <ele>1290.2265625</ele>
        <time>2011-05-07T11:28:42Z</time>
      </trkpt>
      <trkpt lat="45.03885" lon="5.50264">
        <ele>1287.8232421875</ele>
        <time>2011-05-07T11:29:24Z</time>
      </trkpt>
      <trkpt lat="45.03891" lon="5.50259">
        <ele>1287.3425292969</ele>
        <time>2011-05-07T11:30:11Z</time>
      </trkpt>
      <trkpt lat="45.0387" lon="5.50291">
        <ele>1315.7016601562</ele>
        <time>2011-05-07T11:30:56Z</time>
      </trkpt>
      <trkpt lat="45.0387" lon="5.50295">
        <ele>1311.8564453125</ele>
        <time>2011-05-07T11:31:36Z</time>
      </trkpt>
      <trkpt lat="45.03882" lon="5.50288">
        <ele>1307.0495605469</ele>
        <time>2011-05-07T11:32:20Z</time>
      </trkpt>
      <trkpt lat="45.0388" lon="5.50288">
        <ele>1294.0720214844</ele>
        <time>2011-05-07T11:33:06Z</time>
      </trkpt>
      <trkpt lat="45.03882" lon="5.50273">
        <ele>1294.5524902344</ele>
        <time>2011-05-07T11:33:48Z</time>
      </trkpt>
      <trkpt lat="45.03876" lon="5.50281">
        <ele>1303.2043457031</ele>
        <time>2011-05-07T11:34:39Z</time>
      </trkpt>
      <trkpt lat="45.03882" lon="5.50277">
        <ele>1294.5524902344</ele>
        <time>2011-05-07T11:34:58Z</time>
      </trkpt>
      <trkpt lat="45.03873" lon="5.50286">
        <ele>1299.3591308594</ele>
        <time>2011-05-07T11:35:38Z</time>
      </trkpt>
      <trkpt lat="45.03881" lon="5.50282">
        <ele>1300.8010253906</ele>
        <time>2011-05-07T11:36:25Z</time>
      </trkpt>
      <trkpt lat="45.03866" lon="5.50303">
        <ele>1305.6076660156</ele>
        <time>2011-05-07T11:37:13Z</time>
      </trkpt>
      <trkpt lat="45.03866" lon="5.50283">
        <ele>1306.5688476562</ele>
        <time>2011-05-07T11:37:57Z</time>
      </trkpt>
      <trkpt lat="45.03873" lon="5.50286">
        <ele>1266.6743164062</ele>
        <time>2011-05-07T11:38:45Z</time>
      </trkpt>
      <trkpt lat="45.03883" lon="5.50271">
        <ele>1276.7683105469</ele>
        <time>2011-05-07T11:39:29Z</time>
      </trkpt>
      <trkpt lat="45.03884" lon="5.50269">
        <ele>1279.1713867188</ele>
        <time>2011-05-07T11:40:14Z</time>
      </trkpt>
      <trkpt lat="45.03883" lon="5.50269">
        <ele>1279.6520996094</ele>
        <time>2011-05-07T11:40:58Z</time>
      </trkpt>
      <trkpt lat="45.03894" lon="5.50264">
        <ele>1281.5747070312</ele>
        <time>2011-05-07T11:41:37Z</time>
      </trkpt>
      <trkpt lat="45.0389" lon="5.50262">
        <ele>1313.2983398438</ele>
        <time>2011-05-07T11:42:21Z</time>
      </trkpt>
      <trkpt lat="45.03889" lon="5.50263">
        <ele>1225.3374023438</ele>
        <time>2011-05-07T11:43:08Z</time>
      </trkpt>
      <trkpt lat="45.03886" lon="5.50253">
        <ele>1290.2265625</ele>
        <time>2011-05-07T11:44:02Z</time>
      </trkpt>
      <trkpt lat="45.03893" lon="5.5026">
        <ele>1268.5969238281</ele>
        <time>2011-05-07T11:44:43Z</time>
      </trkpt>
      <trkpt lat="45.03887" lon="5.50283">
        <ele>1311.3757324219</ele>
        <time>2011-05-07T11:45:35Z</time>
      </trkpt>
      <trkpt lat="45.03885" lon="5.50241">
        <ele>1280.1328125</ele>
        <time>2011-05-07T11:46:16Z</time>
      </trkpt>
      <trkpt lat="45.03882" lon="5.50275">
        <ele>1283.9780273438</ele>
        <time>2011-05-07T11:47:06Z</time>
      </trkpt>
      <trkpt lat="45.03879" lon="5.50263">
        <ele>1281.5747070312</ele>
        <time>2011-05-07T11:47:23Z</time>
      </trkpt>
      <trkpt lat="45.0388" lon="5.50263">
        <ele>1278.6909179688</ele>
        <time>2011-05-07T11:47:36Z</time>
      </trkpt>
      <trkpt lat="45.03882" lon="5.5026">
        <ele>1282.5361328125</ele>
        <time>2011-05-07T11:48:03Z</time>
      </trkpt>
      <trkpt lat="45.03882" lon="5.50259">
        <ele>1289.7458496094</ele>
        <time>2011-05-07T11:48:27Z</time>
      </trkpt>
      <trkpt lat="45.03872" lon="5.50246">
        <ele>1283.9780273438</ele>
        <time>2011-05-07T11:51:38Z</time>
      </trkpt>
      <trkpt lat="45.0387" lon="5.50261">
        <ele>1286.3813476562</ele>
        <time>2011-05-07T11:52:15Z</time>
      </trkpt>
      <trkpt lat="45.0387" lon="5.5026">
        <ele>1301.2817382812</ele>
        <time>2011-05-07T11:52:41Z</time>
      </trkpt>
      <trkpt lat="45.03871" lon="5.50258">
        <ele>1297.9172363281</ele>
        <time>2011-05-07T11:53:11Z</time>
      </trkpt>
      <trkpt lat="45.03872" lon="5.50256">
        <ele>1288.3039550781</ele>
        <time>2011-05-07T11:53:47Z</time>
      </trkpt>
      <trkpt lat="45.03874" lon="5.50255">
        <ele>1283.0166015625</ele>
        <time>2011-05-07T11:54:11Z</time>
      </trkpt>
      <trkpt lat="45.03876" lon="5.50253">
        <ele>1278.2102050781</ele>
        <time>2011-05-07T11:54:56Z</time>
      </trkpt>
      <trkpt lat="45.03888" lon="5.50251">
        <ele>1275.806640625</ele>
        <time>2011-05-07T11:55:17Z</time>
      </trkpt>
      <trkpt lat="45.03893" lon="5.50246">
        <ele>1273.8840332031</ele>
        <time>2011-05-07T11:55:51Z</time>
      </trkpt>
      <trkpt lat="45.03895" lon="5.50246">
        <ele>1284.4587402344</ele>
        <time>2011-05-07T11:56:36Z</time>
      </trkpt>
      <trkpt lat="45.03896" lon="5.50249">
        <ele>1301.2817382812</ele>
        <time>2011-05-07T11:57:17Z</time>
      </trkpt>
      <trkpt lat="45.03897" lon="5.5025">
        <ele>1292.6301269531</ele>
        <time>2011-05-07T11:57:47Z</time>
      </trkpt>
      <trkpt lat="45.03896" lon="5.50251">
        <ele>1298.3977050781</ele>
        <time>2011-05-07T11:58:19Z</time>
      </trkpt>
      <trkpt lat="45.03894" lon="5.50241">
        <ele>1284.4587402344</ele>
        <time>2011-05-07T11:58:47Z</time>
      </trkpt>
      <trkpt lat="45.03895" lon="5.50245">
        <ele>1284.939453125</ele>
        <time>2011-05-07T11:59:08Z</time>
      </trkpt>
      <trkpt lat="45.03894" lon="5.5025">
        <ele>1286.3813476562</ele>
        <time>2011-05-07T11:59:29Z</time>
      </trkpt>
      <trkpt lat="45.03889" lon="5.50252">
        <ele>1292.1494140625</ele>
        <time>2011-05-07T11:59:55Z</time>
      </trkpt>
      <trkpt lat="45.03888" lon="5.5025">
        <ele>1291.6684570312</ele>
        <time>2011-05-07T11:59:57Z</time>
      </trkpt>
      <trkpt lat="45.03883" lon="5.50249">
        <ele>1289.2651367188</ele>
        <time>2011-05-07T12:00:05Z</time>
      </trkpt>
      <trkpt lat="45.03885" lon="5.50255">
        <ele>1289.2651367188</ele>
        <time>2011-05-07T12:00:13Z</time>
      </trkpt>
      <trkpt lat="45.0389" lon="5.50256">
        <ele>1290.2265625</ele>
        <time>2011-05-07T12:00:19Z</time>
      </trkpt>
      <trkpt lat="45.03895" lon="5.50239">
        <ele>1291.1877441406</ele>
        <time>2011-05-07T12:00:35Z</time>
      </trkpt>
      <trkpt lat="45.03894" lon="5.50216">
        <ele>1291.6684570312</ele>
        <time>2011-05-07T12:00:51Z</time>
      </trkpt>
      <trkpt lat="45.03901" lon="5.50185">
        <ele>1291.1877441406</ele>
        <time>2011-05-07T12:01:10Z</time>
      </trkpt>
      <trkpt lat="45.03906" lon="5.50166">
        <ele>1296.9558105469</ele>
        <time>2011-05-07T12:01:27Z</time>
      </trkpt>
      <trkpt lat="45.03909" lon="5.50162">
        <ele>1292.6301269531</ele>
        <time>2011-05-07T12:01:56Z</time>
      </trkpt>
      <trkpt lat="45.0391" lon="5.50155">
        <ele>1290.70703125</ele>
        <time>2011-05-07T12:02:10Z</time>
      </trkpt>
      <trkpt lat="45.03909" lon="5.50157">
        <ele>1297.9172363281</ele>
        <time>2011-05-07T12:02:30Z</time>
      </trkpt>
      <trkpt lat="45.0391" lon="5.50154">
        <ele>1298.8784179688</ele>
        <time>2011-05-07T12:02:50Z</time>
      </trkpt>
      <trkpt lat="45.03923" lon="5.50136">
        <ele>1300.8010253906</ele>
        <time>2011-05-07T12:03:05Z</time>
      </trkpt>
      <trkpt lat="45.03937" lon="5.50122">
        <ele>1306.0881347656</ele>
        <time>2011-05-07T12:03:19Z</time>
      </trkpt>
      <trkpt lat="45.03939" lon="5.50119">
        <ele>1306.5688476562</ele>
        <time>2011-05-07T12:03:21Z</time>
      </trkpt>
      <trkpt lat="45.03956" lon="5.50098">
        <ele>1308.9724121094</ele>
        <time>2011-05-07T12:03:36Z</time>
      </trkpt>
      <trkpt lat="45.03974" lon="5.50083">
        <ele>1310.4143066406</ele>
        <time>2011-05-07T12:03:47Z</time>
      </trkpt>
      <trkpt lat="45.04027" lon="5.50083">
        <ele>1309.453125</ele>
        <time>2011-05-07T12:04:06Z</time>
      </trkpt>
      <trkpt lat="45.04056" lon="5.50083">
        <ele>1307.5302734375</ele>
        <time>2011-05-07T12:04:20Z</time>
      </trkpt>
      <trkpt lat="45.0407" lon="5.50083">
        <ele>1307.0495605469</ele>
        <time>2011-05-07T12:04:28Z</time>
      </trkpt>
      <trkpt lat="45.04154" lon="5.50066">
        <ele>1301.7624511719</ele>
        <time>2011-05-07T12:05:11Z</time>
      </trkpt>
      <trkpt lat="45.04178" lon="5.50054">
        <ele>1301.7624511719</ele>
        <time>2011-05-07T12:05:23Z</time>
      </trkpt>
      <trkpt lat="45.04232" lon="5.50003">
        <ele>1301.7624511719</ele>
        <time>2011-05-07T12:05:45Z</time>
      </trkpt>
      <trkpt lat="45.04263" lon="5.49955">
        <ele>1304.6462402344</ele>
        <time>2011-05-07T12:06:01Z</time>
      </trkpt>
      <trkpt lat="45.04265" lon="5.49939">
        <ele>1303.6850585938</ele>
        <time>2011-05-07T12:06:07Z</time>
      </trkpt>
      <trkpt lat="45.04263" lon="5.49934">
        <ele>1302.7236328125</ele>
        <time>2011-05-07T12:06:10Z</time>
      </trkpt>
      <trkpt lat="45.04263" lon="5.49925">
        <ele>1302.7236328125</ele>
        <time>2011-05-07T12:06:15Z</time>
      </trkpt>
      <trkpt lat="45.04284" lon="5.49873">
        <ele>1300.8010253906</ele>
        <time>2011-05-07T12:06:33Z</time>
      </trkpt>
      <trkpt lat="45.04283" lon="5.49807">
        <ele>1302.2429199219</ele>
        <time>2011-05-07T12:06:53Z</time>
      </trkpt>
      <trkpt lat="45.04273" lon="5.49787">
        <ele>1309.453125</ele>
        <time>2011-05-07T12:07:08Z</time>
      </trkpt>
      <trkpt lat="45.04266" lon="5.49778">
        <ele>1315.2209472656</ele>
        <time>2011-05-07T12:07:32Z</time>
      </trkpt>
      <trkpt lat="45.04241" lon="5.49734">
        <ele>1318.1047363281</ele>
        <time>2011-05-07T12:07:54Z</time>
      </trkpt>
      <trkpt lat="45.04196" lon="5.49716">
        <ele>1318.5854492188</ele>
        <time>2011-05-07T12:08:17Z</time>
      </trkpt>
      <trkpt lat="45.04164" lon="5.49693">
        <ele>1317.1435546875</ele>
        <time>2011-05-07T12:08:38Z</time>
      </trkpt>
      <trkpt lat="45.04127" lon="5.49683">
        <ele>1320.9887695312</ele>
        <time>2011-05-07T12:08:57Z</time>
      </trkpt>
      <trkpt lat="45.04122" lon="5.4968">
        <ele>1321.4692382812</ele>
        <time>2011-05-07T12:09:00Z</time>
      </trkpt>
      <trkpt lat="45.04092" lon="5.49677">
        <ele>1326.2761230469</ele>
        <time>2011-05-07T12:09:20Z</time>
      </trkpt>
      <trkpt lat="45.04056" lon="5.49663">
        <ele>1330.1213378906</ele>
        <time>2011-05-07T12:09:41Z</time>
      </trkpt>
      <trkpt lat="45.04032" lon="5.4964">
        <ele>1331.5632324219</ele>
        <time>2011-05-07T12:09:58Z</time>
      </trkpt>
      <trkpt lat="45.04" lon="5.4963">
        <ele>1338.7731933594</ele>
        <time>2011-05-07T12:10:18Z</time>
      </trkpt>
      <trkpt lat="45.04" lon="5.49632">
        <ele>1341.1765136719</ele>
        <time>2011-05-07T12:10:31Z</time>
      </trkpt>
      <trkpt lat="45.03965" lon="5.4963">
        <ele>1350.7895507812</ele>
        <time>2011-05-07T12:11:26Z</time>
      </trkpt>
      <trkpt lat="45.03924" lon="5.49607">
        <ele>1352.7121582031</ele>
        <time>2011-05-07T12:11:52Z</time>
      </trkpt>
      <trkpt lat="45.03914" lon="5.49595">
        <ele>1354.154296875</ele>
        <time>2011-05-07T12:12:01Z</time>
      </trkpt>
      <trkpt lat="45.03915" lon="5.49589">
        <ele>1354.634765625</ele>
        <time>2011-05-07T12:12:13Z</time>
      </trkpt>
      <trkpt lat="45.03914" lon="5.49591">
        <ele>1354.634765625</ele>
        <time>2011-05-07T12:12:33Z</time>
      </trkpt>
      <trkpt lat="45.03917" lon="5.49589">
        <ele>1361.8449707031</ele>
        <time>2011-05-07T12:12:45Z</time>
      </trkpt>
      <trkpt lat="45.03925" lon="5.49579">
        <ele>1357.9997558594</ele>
        <time>2011-05-07T12:12:53Z</time>
      </trkpt>
      <trkpt lat="45.03932" lon="5.49578">
        <ele>1358.4802246094</ele>
        <time>2011-05-07T12:12:59Z</time>
      </trkpt>
      <trkpt lat="45.03948" lon="5.49571">
        <ele>1363.2868652344</ele>
        <time>2011-05-07T12:13:19Z</time>
      </trkpt>
      <trkpt lat="45.03951" lon="5.49562">
        <ele>1368.5739746094</ele>
        <time>2011-05-07T12:13:33Z</time>
      </trkpt>
      <trkpt lat="45.03955" lon="5.49551">
        <ele>1368.5739746094</ele>
        <time>2011-05-07T12:13:48Z</time>
      </trkpt>
      <trkpt lat="45.03958" lon="5.49545">
        <ele>1370.9772949219</ele>
        <time>2011-05-07T12:14:06Z</time>
      </trkpt>
      <trkpt lat="45.03969" lon="5.49527">
        <ele>1370.9772949219</ele>
        <time>2011-05-07T12:14:25Z</time>
      </trkpt>
      <trkpt lat="45.03976" lon="5.49515">
        <ele>1370.9772949219</ele>
        <time>2011-05-07T12:14:40Z</time>
      </trkpt>
      <trkpt lat="45.03987" lon="5.49506">
        <ele>1371.4577636719</ele>
        <time>2011-05-07T12:14:58Z</time>
      </trkpt>
      <trkpt lat="45.03983" lon="5.49505">
        <ele>1372.4194335938</ele>
        <time>2011-05-07T12:15:17Z</time>
      </trkpt>
      <trkpt lat="45.03986" lon="5.49509">
        <ele>1379.6291503906</ele>
        <time>2011-05-07T12:15:49Z</time>
      </trkpt>
      <trkpt lat="45.04006" lon="5.49513">
        <ele>1389.2424316406</ele>
        <time>2011-05-07T12:16:08Z</time>
      </trkpt>
      <trkpt lat="45.04027" lon="5.4951">
        <ele>1395.0102539062</ele>
        <time>2011-05-07T12:16:27Z</time>
      </trkpt>
      <trkpt lat="45.0405" lon="5.495">
        <ele>1395.0102539062</ele>
        <time>2011-05-07T12:16:48Z</time>
      </trkpt>
      <trkpt lat="45.04062" lon="5.49494">
        <ele>1394.0490722656</ele>
        <time>2011-05-07T12:17:03Z</time>
      </trkpt>
      <trkpt lat="45.04071" lon="5.49485">
        <ele>1396.9328613281</ele>
        <time>2011-05-07T12:17:20Z</time>
      </trkpt>
      <trkpt lat="45.04073" lon="5.49477">
        <ele>1389.7231445312</ele>
        <time>2011-05-07T12:17:38Z</time>
      </trkpt>
      <trkpt lat="45.04076" lon="5.49479">
        <ele>1384.9165039062</ele>
        <time>2011-05-07T12:17:59Z</time>
      </trkpt>
      <trkpt lat="45.04081" lon="5.49476">
        <ele>1387.8002929688</ele>
        <time>2011-05-07T12:18:21Z</time>
      </trkpt>
      <trkpt lat="45.04084" lon="5.49452">
        <ele>1390.6843261719</ele>
        <time>2011-05-07T12:18:40Z</time>
      </trkpt>
      <trkpt lat="45.04081" lon="5.49441">
        <ele>1396.4523925781</ele>
        <time>2011-05-07T12:18:57Z</time>
      </trkpt>
      <trkpt lat="45.0408" lon="5.49435">
        <ele>1397.4135742188</ele>
        <time>2011-05-07T12:19:14Z</time>
      </trkpt>
      <trkpt lat="45.04078" lon="5.49428">
        <ele>1401.2587890625</ele>
        <time>2011-05-07T12:19:26Z</time>
      </trkpt>
      <trkpt lat="45.04072" lon="5.49411">
        <ele>1401.2587890625</ele>
        <time>2011-05-07T12:19:44Z</time>
      </trkpt>
      <trkpt lat="45.04068" lon="5.49391">
        <ele>1404.6235351562</ele>
        <time>2011-05-07T12:20:07Z</time>
      </trkpt>
      <trkpt lat="45.0407" lon="5.49384">
        <ele>1405.1042480469</ele>
        <time>2011-05-07T12:20:28Z</time>
      </trkpt>
      <trkpt lat="45.04072" lon="5.49373">
        <ele>1403.662109375</ele>
        <time>2011-05-07T12:20:34Z</time>
      </trkpt>
      <trkpt lat="45.04082" lon="5.49366">
        <ele>1409.4301757812</ele>
        <time>2011-05-07T12:20:49Z</time>
      </trkpt>
      <trkpt lat="45.04088" lon="5.49361">
        <ele>1411.8334960938</ele>
        <time>2011-05-07T12:21:06Z</time>
      </trkpt>
      <trkpt lat="45.04097" lon="5.49358">
        <ele>1412.3139648438</ele>
        <time>2011-05-07T12:21:23Z</time>
      </trkpt>
      <trkpt lat="45.04105" lon="5.49359">
        <ele>1413.275390625</ele>
        <time>2011-05-07T12:21:43Z</time>
      </trkpt>
      <trkpt lat="45.04114" lon="5.49348">
        <ele>1406.0654296875</ele>
        <time>2011-05-07T12:22:05Z</time>
      </trkpt>
      <trkpt lat="45.04115" lon="5.49358">
        <ele>1409.9106445312</ele>
        <time>2011-05-07T12:22:29Z</time>
      </trkpt>
      <trkpt lat="45.04114" lon="5.49358">
        <ele>1411.8334960938</ele>
        <time>2011-05-07T12:22:56Z</time>
      </trkpt>
      <trkpt lat="45.04114" lon="5.49356">
        <ele>1411.8334960938</ele>
        <time>2011-05-07T12:23:20Z</time>
      </trkpt>
      <trkpt lat="45.04114" lon="5.49355">
        <ele>1420.4853515625</ele>
        <time>2011-05-07T12:23:54Z</time>
      </trkpt>
      <trkpt lat="45.0412" lon="5.49354">
        <ele>1424.3305664062</ele>
        <time>2011-05-07T12:24:20Z</time>
      </trkpt>
      <trkpt lat="45.04141" lon="5.49353">
        <ele>1424.3305664062</ele>
        <time>2011-05-07T12:24:38Z</time>
      </trkpt>
      <trkpt lat="45.04167" lon="5.49351">
        <ele>1427.6950683594</ele>
        <time>2011-05-07T12:24:58Z</time>
      </trkpt>
      <trkpt lat="45.04189" lon="5.49345">
        <ele>1425.2917480469</ele>
        <time>2011-05-07T12:25:14Z</time>
      </trkpt>
      <trkpt lat="45.04213" lon="5.4934">
        <ele>1424.3305664062</ele>
        <time>2011-05-07T12:25:31Z</time>
      </trkpt>
      <trkpt lat="45.04239" lon="5.49345">
        <ele>1436.8276367188</ele>
        <time>2011-05-07T12:25:52Z</time>
      </trkpt>
      <trkpt lat="45.04261" lon="5.49345">
        <ele>1443.5568847656</ele>
        <time>2011-05-07T12:26:09Z</time>
      </trkpt>
      <trkpt lat="45.04277" lon="5.4935">
        <ele>1446.4409179688</ele>
        <time>2011-05-07T12:26:22Z</time>
      </trkpt>
      <trkpt lat="45.04276" lon="5.4935">
        <ele>1445.9602050781</ele>
        <time>2011-05-07T12:26:38Z</time>
      </trkpt>
      <trkpt lat="45.04299" lon="5.49352">
        <ele>1444.0375976562</ele>
        <time>2011-05-07T12:27:26Z</time>
      </trkpt>
      <trkpt lat="45.04323" lon="5.49342">
        <ele>1447.4020996094</ele>
        <time>2011-05-07T12:27:45Z</time>
      </trkpt>
      <trkpt lat="45.04327" lon="5.49342">
        <ele>1448.8439941406</ele>
        <time>2011-05-07T12:27:47Z</time>
      </trkpt>
      <trkpt lat="45.04334" lon="5.4934">
        <ele>1450.7666015625</ele>
        <time>2011-05-07T12:27:51Z</time>
      </trkpt>
      <trkpt lat="45.04381" lon="5.49265">
        <ele>1448.8439941406</ele>
        <time>2011-05-07T12:28:18Z</time>
      </trkpt>
      <trkpt lat="45.04383" lon="5.49316">
        <ele>1443.5568847656</ele>
        <time>2011-05-07T12:28:38Z</time>
      </trkpt>
      <trkpt lat="45.04375" lon="5.49316">
        <ele>1434.4243164062</ele>
        <time>2011-05-07T12:29:13Z</time>
      </trkpt>
      <trkpt lat="45.04379" lon="5.49318">
        <ele>1435.8662109375</ele>
        <time>2011-05-07T12:29:21Z</time>
      </trkpt>
      <trkpt lat="45.04397" lon="5.49308">
        <ele>1436.3471679688</ele>
        <time>2011-05-07T12:29:34Z</time>
      </trkpt>
      <trkpt lat="45.04402" lon="5.49306">
        <ele>1439.2309570312</ele>
        <time>2011-05-07T12:29:38Z</time>
      </trkpt>
      <trkpt lat="45.04426" lon="5.49301">
        <ele>1447.8828125</ele>
        <time>2011-05-07T12:29:57Z</time>
      </trkpt>
      <trkpt lat="45.04456" lon="5.4928">
        <ele>1451.7280273438</ele>
        <time>2011-05-07T12:30:16Z</time>
      </trkpt>
      <trkpt lat="45.04482" lon="5.49265">
        <ele>1456.5346679688</ele>
        <time>2011-05-07T12:30:35Z</time>
      </trkpt>
      <trkpt lat="45.04503" lon="5.4923">
        <ele>1451.7280273438</ele>
        <time>2011-05-07T12:30:51Z</time>
      </trkpt>
      <trkpt lat="45.04517" lon="5.49206">
        <ele>1452.2087402344</ele>
        <time>2011-05-07T12:31:08Z</time>
      </trkpt>
      <trkpt lat="45.0452" lon="5.492">
        <ele>1461.3413085938</ele>
        <time>2011-05-07T12:31:24Z</time>
      </trkpt>
      <trkpt lat="45.04523" lon="5.49188">
        <ele>1469.0319824219</ele>
        <time>2011-05-07T12:31:46Z</time>
      </trkpt>
      <trkpt lat="45.04526" lon="5.49165">
        <ele>1467.5895996094</ele>
        <time>2011-05-07T12:32:08Z</time>
      </trkpt>
      <trkpt lat="45.0453" lon="5.49151">
        <ele>1465.1865234375</ele>
        <time>2011-05-07T12:32:26Z</time>
      </trkpt>
      <trkpt lat="45.04533" lon="5.49145">
        <ele>1466.1477050781</ele>
        <time>2011-05-07T12:32:43Z</time>
      </trkpt>
      <trkpt lat="45.04537" lon="5.49145">
        <ele>1471.4350585938</ele>
        <time>2011-05-07T12:32:59Z</time>
      </trkpt>
      <trkpt lat="45.04537" lon="5.49134">
        <ele>1469.9931640625</ele>
        <time>2011-05-07T12:33:16Z</time>
      </trkpt>
      <trkpt lat="45.04538" lon="5.49133">
        <ele>1476.2416992188</ele>
        <time>2011-05-07T12:33:53Z</time>
      </trkpt>
      <trkpt lat="45.04538" lon="5.49132">
        <ele>1475.2802734375</ele>
        <time>2011-05-07T12:33:58Z</time>
      </trkpt>
      <trkpt lat="45.04541" lon="5.49101">
        <ele>1470.9545898438</ele>
        <time>2011-05-07T12:34:17Z</time>
      </trkpt>
      <trkpt lat="45.04543" lon="5.4908">
        <ele>1465.1865234375</ele>
        <time>2011-05-07T12:34:37Z</time>
      </trkpt>
      <trkpt lat="45.04536" lon="5.49086">
        <ele>1474.3190917969</ele>
        <time>2011-05-07T12:34:54Z</time>
      </trkpt>
      <trkpt lat="45.04555" lon="5.49063">
        <ele>1468.0705566406</ele>
        <time>2011-05-07T12:35:14Z</time>
      </trkpt>
      <trkpt lat="45.04576" lon="5.49047">
        <ele>1453.1701660156</ele>
        <time>2011-05-07T12:35:33Z</time>
      </trkpt>
      <trkpt lat="45.04575" lon="5.49051">
        <ele>1499.3132324219</ele>
        <time>2011-05-07T12:35:47Z</time>
      </trkpt>
      <trkpt lat="45.04588" lon="5.49043">
        <ele>1494.5065917969</ele>
        <time>2011-05-07T12:36:02Z</time>
      </trkpt>
      <trkpt lat="45.04608" lon="5.49032">
        <ele>1490.1809082031</ele>
        <time>2011-05-07T12:36:19Z</time>
      </trkpt>
      <trkpt lat="45.0463" lon="5.49026">
        <ele>1486.3356933594</ele>
        <time>2011-05-07T12:36:37Z</time>
      </trkpt>
      <trkpt lat="45.04648" lon="5.49024">
        <ele>1491.1420898438</ele>
        <time>2011-05-07T12:36:56Z</time>
      </trkpt>
      <trkpt lat="45.04669" lon="5.49009">
        <ele>1490.6613769531</ele>
        <time>2011-05-07T12:37:16Z</time>
      </trkpt>
      <trkpt lat="45.04672" lon="5.49004">
        <ele>1493.5454101562</ele>
        <time>2011-05-07T12:37:31Z</time>
      </trkpt>
      <trkpt lat="45.04677" lon="5.48993">
        <ele>1491.6228027344</ele>
        <time>2011-05-07T12:38:32Z</time>
      </trkpt>
      <trkpt lat="45.04687" lon="5.48984">
        <ele>1498.8325195312</ele>
        <time>2011-05-07T12:38:41Z</time>
      </trkpt>
      <trkpt lat="45.04709" lon="5.48958">
        <ele>1502.197265625</ele>
        <time>2011-05-07T12:39:03Z</time>
      </trkpt>
      <trkpt lat="45.04714" lon="5.48953">
        <ele>1502.197265625</ele>
        <time>2011-05-07T12:39:07Z</time>
      </trkpt>
      <trkpt lat="45.04737" lon="5.48933">
        <ele>1500.7553710938</ele>
        <time>2011-05-07T12:39:26Z</time>
      </trkpt>
      <trkpt lat="45.04742" lon="5.48927">
        <ele>1502.6779785156</ele>
        <time>2011-05-07T12:39:31Z</time>
      </trkpt>
      <trkpt lat="45.04762" lon="5.48906">
        <ele>1504.1201171875</ele>
        <time>2011-05-07T12:39:48Z</time>
      </trkpt>
      <trkpt lat="45.04787" lon="5.48881">
        <ele>1504.6005859375</ele>
        <time>2011-05-07T12:40:09Z</time>
      </trkpt>
      <trkpt lat="45.04809" lon="5.48857">
        <ele>1507.9653320312</ele>
        <time>2011-05-07T12:40:27Z</time>
      </trkpt>
      <trkpt lat="45.04832" lon="5.48828">
        <ele>1511.3298339844</ele>
        <time>2011-05-07T12:40:47Z</time>
      </trkpt>
      <trkpt lat="45.04835" lon="5.48825">
        <ele>1512.291015625</ele>
        <time>2011-05-07T12:40:49Z</time>
      </trkpt>
      <trkpt lat="45.04837" lon="5.4882">
        <ele>1513.2524414062</ele>
        <time>2011-05-07T12:40:52Z</time>
      </trkpt>
      <trkpt lat="45.04841" lon="5.48816">
        <ele>1512.291015625</ele>
        <time>2011-05-07T12:40:56Z</time>
      </trkpt>
      <trkpt lat="45.04856" lon="5.48785">
        <ele>1516.1364746094</ele>
        <time>2011-05-07T12:41:16Z</time>
      </trkpt>
      <trkpt lat="45.04867" lon="5.4875">
        <ele>1518.0590820312</ele>
        <time>2011-05-07T12:41:35Z</time>
      </trkpt>
      <trkpt lat="45.04884" lon="5.48694">
        <ele>1517.0979003906</ele>
        <time>2011-05-07T12:41:47Z</time>
      </trkpt>
      <trkpt lat="45.04885" lon="5.48687">
        <ele>1516.1364746094</ele>
        <time>2011-05-07T12:41:50Z</time>
      </trkpt>
      <trkpt lat="45.04898" lon="5.48652">
        <ele>1513.7329101562</ele>
        <time>2011-05-07T12:42:07Z</time>
      </trkpt>
      <trkpt lat="45.04899" lon="5.48644">
        <ele>1518.0590820312</ele>
        <time>2011-05-07T12:42:24Z</time>
      </trkpt>
      <trkpt lat="45.049" lon="5.48641">
        <ele>1519.9816894531</ele>
        <time>2011-05-07T12:42:33Z</time>
      </trkpt>
      <trkpt lat="45.04902" lon="5.48628">
        <ele>1517.0979003906</ele>
        <time>2011-05-07T12:42:43Z</time>
      </trkpt>
      <trkpt lat="45.0488" lon="5.48604">
        <ele>1513.2524414062</ele>
        <time>2011-05-07T12:43:03Z</time>
      </trkpt>
      <trkpt lat="45.04883" lon="5.4861">
        <ele>1518.0590820312</ele>
        <time>2011-05-07T12:43:24Z</time>
      </trkpt>
      <trkpt lat="45.04885" lon="5.48595">
        <ele>1504.1201171875</ele>
        <time>2011-05-07T12:43:52Z</time>
      </trkpt>
      <trkpt lat="45.04861" lon="5.48581">
        <ele>1506.5231933594</ele>
        <time>2011-05-07T12:44:07Z</time>
      </trkpt>
      <trkpt lat="45.04824" lon="5.4856">
        <ele>1510.3684082031</ele>
        <time>2011-05-07T12:44:28Z</time>
      </trkpt>
      <trkpt lat="45.04793" lon="5.48541">
        <ele>1512.7717285156</ele>
        <time>2011-05-07T12:44:45Z</time>
      </trkpt>
      <trkpt lat="45.04761" lon="5.48518">
        <ele>1514.6943359375</ele>
        <time>2011-05-07T12:45:04Z</time>
      </trkpt>
      <trkpt lat="45.04748" lon="5.48508">
        <ele>1518.0590820312</ele>
        <time>2011-05-07T12:45:21Z</time>
      </trkpt>
      <trkpt lat="45.04743" lon="5.48506">
        <ele>1521.4235839844</ele>
        <time>2011-05-07T12:45:45Z</time>
      </trkpt>
      <trkpt lat="45.04707" lon="5.48487">
        <ele>1522.3850097656</ele>
        <time>2011-05-07T12:46:04Z</time>
      </trkpt>
      <trkpt lat="45.04676" lon="5.4847">
        <ele>1521.904296875</ele>
        <time>2011-05-07T12:46:22Z</time>
      </trkpt>
      <trkpt lat="45.04641" lon="5.48444">
        <ele>1522.8657226562</ele>
        <time>2011-05-07T12:46:43Z</time>
      </trkpt>
      <trkpt lat="45.04609" lon="5.4842">
        <ele>1523.3464355469</ele>
        <time>2011-05-07T12:47:03Z</time>
      </trkpt>
      <trkpt lat="45.04573" lon="5.48394">
        <ele>1524.3076171875</ele>
        <time>2011-05-07T12:47:24Z</time>
      </trkpt>
      <trkpt lat="45.04545" lon="5.48365">
        <ele>1525.7495117188</ele>
        <time>2011-05-07T12:47:42Z</time>
      </trkpt>
      <trkpt lat="45.04518" lon="5.48327">
        <ele>1525.2687988281</ele>
        <time>2011-05-07T12:48:02Z</time>
      </trkpt>
      <trkpt lat="45.04508" lon="5.48311">
        <ele>1525.2687988281</ele>
        <time>2011-05-07T12:48:18Z</time>
      </trkpt>
      <trkpt lat="45.04511" lon="5.48311">
        <ele>1528.6335449219</ele>
        <time>2011-05-07T12:48:44Z</time>
      </trkpt>
      <trkpt lat="45.04514" lon="5.4831">
        <ele>1532.9594726562</ele>
        <time>2011-05-07T12:49:13Z</time>
      </trkpt>
      <trkpt lat="45.04515" lon="5.48308">
        <ele>1522.3850097656</ele>
        <time>2011-05-07T12:49:53Z</time>
      </trkpt>
      <trkpt lat="45.04515" lon="5.48307">
        <ele>1528.6335449219</ele>
        <time>2011-05-07T12:50:33Z</time>
      </trkpt>
      <trkpt lat="45.04514" lon="5.48307">
        <ele>1526.2302246094</ele>
        <time>2011-05-07T12:51:20Z</time>
      </trkpt>
      <trkpt lat="45.04512" lon="5.48309">
        <ele>1528.1528320312</ele>
        <time>2011-05-07T12:52:14Z</time>
      </trkpt>
      <trkpt lat="45.04511" lon="5.48308">
        <ele>1524.7883300781</ele>
        <time>2011-05-07T12:53:05Z</time>
      </trkpt>
      <trkpt lat="45.04512" lon="5.48308">
        <ele>1525.7495117188</ele>
        <time>2011-05-07T12:53:43Z</time>
      </trkpt>
      <trkpt lat="45.04513" lon="5.48312">
        <ele>1523.8269042969</ele>
        <time>2011-05-07T12:54:02Z</time>
      </trkpt>
      <trkpt lat="45.0451" lon="5.48312">
        <ele>1525.7495117188</ele>
        <time>2011-05-07T12:54:29Z</time>
      </trkpt>
      <trkpt lat="45.04507" lon="5.48311">
        <ele>1527.6721191406</ele>
        <time>2011-05-07T12:55:13Z</time>
      </trkpt>
      <trkpt lat="45.04507" lon="5.48312">
        <ele>1527.6721191406</ele>
        <time>2011-05-07T12:55:34Z</time>
      </trkpt>
      <trkpt lat="45.04507" lon="5.48311">
        <ele>1527.1916503906</ele>
        <time>2011-05-07T12:55:48Z</time>
      </trkpt>
      <trkpt lat="45.04512" lon="5.48314">
        <ele>1525.2687988281</ele>
        <time>2011-05-07T12:56:16Z</time>
      </trkpt>
      <trkpt lat="45.04514" lon="5.48313">
        <ele>1527.1916503906</ele>
        <time>2011-05-07T12:56:52Z</time>
      </trkpt>
      <trkpt lat="45.04514" lon="5.48314">
        <ele>1531.0368652344</ele>
        <time>2011-05-07T12:57:29Z</time>
      </trkpt>
      <trkpt lat="45.04513" lon="5.48311">
        <ele>1528.1528320312</ele>
        <time>2011-05-07T12:58:01Z</time>
      </trkpt>
      <trkpt lat="45.04499" lon="5.48299">
        <ele>1526.7109375</ele>
        <time>2011-05-07T12:58:08Z</time>
      </trkpt>
      <trkpt lat="45.0449" lon="5.48325">
        <ele>1523.8269042969</ele>
        <time>2011-05-07T12:58:15Z</time>
      </trkpt>
      <trkpt lat="45.04507" lon="5.48364">
        <ele>1518.5397949219</ele>
        <time>2011-05-07T12:58:22Z</time>
      </trkpt>
      <trkpt lat="45.04495" lon="5.48371">
        <ele>1516.6171875</ele>
        <time>2011-05-07T12:58:28Z</time>
      </trkpt>
      <trkpt lat="45.04492" lon="5.48363">
        <ele>1516.1364746094</ele>
        <time>2011-05-07T12:58:30Z</time>
      </trkpt>
      <trkpt lat="45.04465" lon="5.48338">
        <ele>1515.1750488281</ele>
        <time>2011-05-07T12:58:36Z</time>
      </trkpt>
      <trkpt lat="45.04425" lon="5.48327">
        <ele>1514.6943359375</ele>
        <time>2011-05-07T12:58:42Z</time>
      </trkpt>
      <trkpt lat="45.04403" lon="5.48311">
        <ele>1513.2524414062</ele>
        <time>2011-05-07T12:58:46Z</time>
      </trkpt>
      <trkpt lat="45.04376" lon="5.48256">
        <ele>1510.8491210938</ele>
        <time>2011-05-07T12:58:56Z</time>
      </trkpt>
      <trkpt lat="45.04375" lon="5.48177">
        <ele>1503.6394042969</ele>
        <time>2011-05-07T12:59:07Z</time>
      </trkpt>
      <trkpt lat="45.04403" lon="5.48126">
        <ele>1498.8325195312</ele>
        <time>2011-05-07T12:59:16Z</time>
      </trkpt>
      <trkpt lat="45.04578" lon="5.48064">
        <ele>1486.3356933594</ele>
        <time>2011-05-07T12:59:43Z</time>
      </trkpt>
      <trkpt lat="45.04641" lon="5.48048">
        <ele>1474.3190917969</ele>
        <time>2011-05-07T12:59:55Z</time>
      </trkpt>
      <trkpt lat="45.04707" lon="5.48034">
        <ele>1471.4350585938</ele>
        <time>2011-05-07T13:00:08Z</time>
      </trkpt>
      <trkpt lat="45.04825" lon="5.48012">
        <ele>1464.2250976562</ele>
        <time>2011-05-07T13:00:27Z</time>
      </trkpt>
      <trkpt lat="45.05065" lon="5.47999">
        <ele>1447.4020996094</ele>
        <time>2011-05-07T13:01:02Z</time>
      </trkpt>
      <trkpt lat="45.0508" lon="5.48003">
        <ele>1445.4794921875</ele>
        <time>2011-05-07T13:01:05Z</time>
      </trkpt>
      <trkpt lat="45.05086" lon="5.47991">
        <ele>1439.2309570312</ele>
        <time>2011-05-07T13:01:11Z</time>
      </trkpt>
      <trkpt lat="45.05077" lon="5.47989">
        <ele>1437.7890625</ele>
        <time>2011-05-07T13:01:13Z</time>
      </trkpt>
      <trkpt lat="45.04966" lon="5.47958">
        <ele>1429.1369628906</ele>
        <time>2011-05-07T13:01:31Z</time>
      </trkpt>
      <trkpt lat="45.04842" lon="5.47905">
        <ele>1421.4465332031</ele>
        <time>2011-05-07T13:01:50Z</time>
      </trkpt>
      <trkpt lat="45.04732" lon="5.47855">
        <ele>1416.1591796875</ele>
        <time>2011-05-07T13:02:06Z</time>
      </trkpt>
      <trkpt lat="45.04595" lon="5.47798">
        <ele>1407.98828125</ele>
        <time>2011-05-07T13:02:26Z</time>
      </trkpt>
      <trkpt lat="45.04518" lon="5.47714">
        <ele>1403.1813964844</ele>
        <time>2011-05-07T13:02:43Z</time>
      </trkpt>
      <trkpt lat="45.04504" lon="5.47669">
        <ele>1400.2976074219</ele>
        <time>2011-05-07T13:02:49Z</time>
      </trkpt>
      <trkpt lat="45.04506" lon="5.47662">
        <ele>1399.8168945312</ele>
        <time>2011-05-07T13:02:58Z</time>
      </trkpt>
      <trkpt lat="45.04523" lon="5.47664">
        <ele>1401.2587890625</ele>
        <time>2011-05-07T13:03:26Z</time>
      </trkpt>
      <trkpt lat="45.04524" lon="5.47661">
        <ele>1398.3747558594</ele>
        <time>2011-05-07T13:03:31Z</time>
      </trkpt>
      <trkpt lat="45.04483" lon="5.4766">
        <ele>1394.5295410156</ele>
        <time>2011-05-07T13:03:55Z</time>
      </trkpt>
      <trkpt lat="45.04295" lon="5.47656">
        <ele>1394.5295410156</ele>
        <time>2011-05-07T13:04:49Z</time>
      </trkpt>
      <trkpt lat="45.04293" lon="5.47644">
        <ele>1394.0490722656</ele>
        <time>2011-05-07T13:04:51Z</time>
      </trkpt>
      <trkpt lat="45.04213" lon="5.47631">
        <ele>1393.568359375</ele>
        <time>2011-05-07T13:05:21Z</time>
      </trkpt>
      <trkpt lat="45.04215" lon="5.47634">
        <ele>1391.1650390625</ele>
        <time>2011-05-07T13:05:40Z</time>
      </trkpt>
      <trkpt lat="45.04146" lon="5.47662">
        <ele>1387.8002929688</ele>
        <time>2011-05-07T13:06:01Z</time>
      </trkpt>
      <trkpt lat="45.04045" lon="5.4767">
        <ele>1387.3195800781</ele>
        <time>2011-05-07T13:06:27Z</time>
      </trkpt>
      <trkpt lat="45.03939" lon="5.47745">
        <ele>1382.0324707031</ele>
        <time>2011-05-07T13:06:49Z</time>
      </trkpt>
      <trkpt lat="45.03824" lon="5.47789">
        <ele>1368.0932617188</ele>
        <time>2011-05-07T13:07:04Z</time>
      </trkpt>
      <trkpt lat="45.03755" lon="5.47815">
        <ele>1366.6513671875</ele>
        <time>2011-05-07T13:07:14Z</time>
      </trkpt>
      <trkpt lat="45.03681" lon="5.47902">
        <ele>1352.2314453125</ele>
        <time>2011-05-07T13:07:33Z</time>
      </trkpt>
      <trkpt lat="45.03649" lon="5.47941">
        <ele>1343.5798339844</ele>
        <time>2011-05-07T13:07:47Z</time>
      </trkpt>
      <trkpt lat="45.03633" lon="5.47951">
        <ele>1340.2153320312</ele>
        <time>2011-05-07T13:07:52Z</time>
      </trkpt>
      <trkpt lat="45.03551" lon="5.47963">
        <ele>1332.5246582031</ele>
        <time>2011-05-07T13:08:06Z</time>
      </trkpt>
      <trkpt lat="45.03434" lon="5.47973">
        <ele>1324.353515625</ele>
        <time>2011-05-07T13:08:26Z</time>
      </trkpt>
      <trkpt lat="45.0339" lon="5.47975">
        <ele>1322.4306640625</ele>
        <time>2011-05-07T13:08:34Z</time>
      </trkpt>
      <trkpt lat="45.03364" lon="5.47967">
        <ele>1321.4692382812</ele>
        <time>2011-05-07T13:08:39Z</time>
      </trkpt>
      <trkpt lat="45.03343" lon="5.47934">
        <ele>1318.1047363281</ele>
        <time>2011-05-07T13:08:44Z</time>
      </trkpt>
      <trkpt lat="45.03337" lon="5.4792">
        <ele>1316.6628417969</ele>
        <time>2011-05-07T13:08:46Z</time>
      </trkpt>
      <trkpt lat="45.03279" lon="5.47828">
        <ele>1305.126953125</ele>
        <time>2011-05-07T13:09:03Z</time>
      </trkpt>
      <trkpt lat="45.03236" lon="5.47792">
        <ele>1300.8010253906</ele>
        <time>2011-05-07T13:09:18Z</time>
      </trkpt>
      <trkpt lat="45.03188" lon="5.47784">
        <ele>1298.3977050781</ele>
        <time>2011-05-07T13:09:37Z</time>
      </trkpt>
      <trkpt lat="45.03136" lon="5.47777">
        <ele>1297.9172363281</ele>
        <time>2011-05-07T13:09:58Z</time>
      </trkpt>
      <trkpt lat="45.03091" lon="5.47756">
        <ele>1297.4365234375</ele>
        <time>2011-05-07T13:10:18Z</time>
      </trkpt>
      <trkpt lat="45.03045" lon="5.47739">
        <ele>1297.4365234375</ele>
        <time>2011-05-07T13:10:39Z</time>
      </trkpt>
      <trkpt lat="45.02996" lon="5.47724">
        <ele>1296.4753417969</ele>
        <time>2011-05-07T13:11:00Z</time>
      </trkpt>
      <trkpt lat="45.02953" lon="5.47719">
        <ele>1295.9946289062</ele>
        <time>2011-05-07T13:11:17Z</time>
      </trkpt>
      <trkpt lat="45.02937" lon="5.47718">
        <ele>1293.1105957031</ele>
        <time>2011-05-07T13:11:31Z</time>
      </trkpt>
      <trkpt lat="45.02938" lon="5.47721">
        <ele>1292.6301269531</ele>
        <time>2011-05-07T13:11:57Z</time>
      </trkpt>
      <trkpt lat="45.02938" lon="5.47721">
        <ele>1290.70703125</ele>
        <time>2011-05-07T13:12:44Z</time>
      </trkpt>
      <trkpt lat="45.02934" lon="5.47718">
        <ele>1291.1877441406</ele>
        <time>2011-05-07T13:13:02Z</time>
      </trkpt>
      <trkpt lat="45.02921" lon="5.47716">
        <ele>1292.6301269531</ele>
        <time>2011-05-07T13:13:26Z</time>
      </trkpt>
      <trkpt lat="45.02873" lon="5.47704">
        <ele>1293.1105957031</ele>
        <time>2011-05-07T13:13:48Z</time>
      </trkpt>
      <trkpt lat="45.02811" lon="5.477">
        <ele>1289.7458496094</ele>
        <time>2011-05-07T13:14:08Z</time>
      </trkpt>
      <trkpt lat="45.02742" lon="5.47717">
        <ele>1286.3813476562</ele>
        <time>2011-05-07T13:14:24Z</time>
      </trkpt>
      <trkpt lat="45.02671" lon="5.47715">
        <ele>1284.4587402344</ele>
        <time>2011-05-07T13:14:42Z</time>
      </trkpt>
      <trkpt lat="45.02592" lon="5.47695">
        <ele>1279.6520996094</ele>
        <time>2011-05-07T13:15:00Z</time>
      </trkpt>
      <trkpt lat="45.02532" lon="5.47679">
        <ele>1280.6135253906</ele>
        <time>2011-05-07T13:15:16Z</time>
      </trkpt>
      <trkpt lat="45.0249" lon="5.47669">
        <ele>1284.939453125</ele>
        <time>2011-05-07T13:15:35Z</time>
      </trkpt>
      <trkpt lat="45.02442" lon="5.47665">
        <ele>1285.419921875</ele>
        <time>2011-05-07T13:15:57Z</time>
      </trkpt>
      <trkpt lat="45.02401" lon="5.47654">
        <ele>1287.8232421875</ele>
        <time>2011-05-07T13:16:17Z</time>
      </trkpt>
      <trkpt lat="45.02361" lon="5.47642">
        <ele>1288.7846679688</ele>
        <time>2011-05-07T13:16:39Z</time>
      </trkpt>
      <trkpt lat="45.02333" lon="5.47638">
        <ele>1288.7846679688</ele>
        <time>2011-05-07T13:16:55Z</time>
      </trkpt>
      <trkpt lat="45.023" lon="5.47631">
        <ele>1289.2651367188</ele>
        <time>2011-05-07T13:17:15Z</time>
      </trkpt>
      <trkpt lat="45.02265" lon="5.47617">
        <ele>1291.1877441406</ele>
        <time>2011-05-07T13:17:36Z</time>
      </trkpt>
      <trkpt lat="45.02226" lon="5.47608">
        <ele>1290.2265625</ele>
        <time>2011-05-07T13:17:55Z</time>
      </trkpt>
      <trkpt lat="45.02196" lon="5.47604">
        <ele>1292.1494140625</ele>
        <time>2011-05-07T13:18:09Z</time>
      </trkpt>
      <trkpt lat="45.0216" lon="5.47592">
        <ele>1293.1105957031</ele>
        <time>2011-05-07T13:18:26Z</time>
      </trkpt>
      <trkpt lat="45.02064" lon="5.47555">
        <ele>1296.9558105469</ele>
        <time>2011-05-07T13:19:04Z</time>
      </trkpt>
      <trkpt lat="45.02042" lon="5.47543">
        <ele>1297.4365234375</ele>
        <time>2011-05-07T13:19:11Z</time>
      </trkpt>
      <trkpt lat="45.02038" lon="5.47492">
        <ele>1301.7624511719</ele>
        <time>2011-05-07T13:19:26Z</time>
      </trkpt>
      <trkpt lat="45.02028" lon="5.47443">
        <ele>1305.126953125</ele>
        <time>2011-05-07T13:19:43Z</time>
      </trkpt>
      <trkpt lat="45.0202" lon="5.47423">
        <ele>1308.0112304688</ele>
        <time>2011-05-07T13:19:53Z</time>
      </trkpt>
      <trkpt lat="45.02008" lon="5.47377">
        <ele>1310.8950195312</ele>
        <time>2011-05-07T13:20:13Z</time>
      </trkpt>
      <trkpt lat="45.02004" lon="5.47369">
        <ele>1310.4143066406</ele>
        <time>2011-05-07T13:20:17Z</time>
      </trkpt>
      <trkpt lat="45.01983" lon="5.47333">
        <ele>1308.4916992188</ele>
        <time>2011-05-07T13:20:35Z</time>
      </trkpt>
      <trkpt lat="45.01954" lon="5.47321">
        <ele>1308.9724121094</ele>
        <time>2011-05-07T13:20:51Z</time>
      </trkpt>
      <trkpt lat="45.01908" lon="5.47305">
        <ele>1308.9724121094</ele>
        <time>2011-05-07T13:21:13Z</time>
      </trkpt>
      <trkpt lat="45.0188" lon="5.47282">
        <ele>1312.3369140625</ele>
        <time>2011-05-07T13:21:29Z</time>
      </trkpt>
      <trkpt lat="45.0183" lon="5.47248">
        <ele>1315.2209472656</ele>
        <time>2011-05-07T13:21:50Z</time>
      </trkpt>
      <trkpt lat="45.01793" lon="5.47236">
        <ele>1316.1821289062</ele>
        <time>2011-05-07T13:22:09Z</time>
      </trkpt>
      <trkpt lat="45.01776" lon="5.47237">
        <ele>1315.2209472656</ele>
        <time>2011-05-07T13:22:26Z</time>
      </trkpt>
      <trkpt lat="45.01774" lon="5.47235">
        <ele>1316.6628417969</ele>
        <time>2011-05-07T13:22:34Z</time>
      </trkpt>
      <trkpt lat="45.01742" lon="5.47224">
        <ele>1318.1047363281</ele>
        <time>2011-05-07T13:22:51Z</time>
      </trkpt>
      <trkpt lat="45.01743" lon="5.47226">
        <ele>1320.9887695312</ele>
        <time>2011-05-07T13:23:04Z</time>
      </trkpt>
      <trkpt lat="45.0175" lon="5.47229">
        <ele>1328.1987304688</ele>
        <time>2011-05-07T13:23:37Z</time>
      </trkpt>
      <trkpt lat="45.01763" lon="5.47232">
        <ele>1335.8891601562</ele>
        <time>2011-05-07T13:24:12Z</time>
      </trkpt>
      <trkpt lat="45.01769" lon="5.4723">
        <ele>1334.9279785156</ele>
        <time>2011-05-07T13:25:13Z</time>
      </trkpt>
      <trkpt lat="45.01743" lon="5.47229">
        <ele>1329.1599121094</ele>
        <time>2011-05-07T13:25:47Z</time>
      </trkpt>
      <trkpt lat="45.01741" lon="5.47227">
        <ele>1326.7568359375</ele>
        <time>2011-05-07T13:26:05Z</time>
      </trkpt>
      <trkpt lat="45.01735" lon="5.47223">
        <ele>1310.8950195312</ele>
        <time>2011-05-07T13:26:52Z</time>
      </trkpt>
      <trkpt lat="45.01761" lon="5.47232">
        <ele>1313.2983398438</ele>
        <time>2011-05-07T13:27:12Z</time>
      </trkpt>
      <trkpt lat="45.01776" lon="5.47238">
        <ele>1317.6240234375</ele>
        <time>2011-05-07T13:27:25Z</time>
      </trkpt>
      <trkpt lat="45.01801" lon="5.47242">
        <ele>1320.02734375</ele>
        <time>2011-05-07T13:27:44Z</time>
      </trkpt>
      <trkpt lat="45.01801" lon="5.47242">
        <ele>1320.02734375</ele>
        <time>2011-05-07T13:27:45Z</time>
      </trkpt>
      <trkpt lat="45.01804" lon="5.47238">
        <ele>1319.546875</ele>
        <time>2011-05-07T13:27:48Z</time>
      </trkpt>
      <trkpt lat="45.01783" lon="5.47251">
        <ele>1317.6240234375</ele>
        <time>2011-05-07T13:27:59Z</time>
      </trkpt>
      <trkpt lat="45.01838" lon="5.47277">
        <ele>1319.0661621094</ele>
        <time>2011-05-07T13:28:15Z</time>
      </trkpt>
      <trkpt lat="45.01878" lon="5.47301">
        <ele>1318.1047363281</ele>
        <time>2011-05-07T13:28:22Z</time>
      </trkpt>
      <trkpt lat="45.019" lon="5.47308">
        <ele>1321.9499511719</ele>
        <time>2011-05-07T13:28:33Z</time>
      </trkpt>
      <trkpt lat="45.01945" lon="5.47329">
        <ele>1320.9887695312</ele>
        <time>2011-05-07T13:28:53Z</time>
      </trkpt>
      <trkpt lat="45.01974" lon="5.47354">
        <ele>1319.0661621094</ele>
        <time>2011-05-07T13:29:05Z</time>
      </trkpt>
      <trkpt lat="45.01972" lon="5.47364">
        <ele>1317.1435546875</ele>
        <time>2011-05-07T13:29:09Z</time>
      </trkpt>
      <trkpt lat="45.01952" lon="5.47391">
        <ele>1319.546875</ele>
        <time>2011-05-07T13:29:30Z</time>
      </trkpt>
      <trkpt lat="45.01935" lon="5.47422">
        <ele>1322.4306640625</ele>
        <time>2011-05-07T13:29:53Z</time>
      </trkpt>
      <trkpt lat="45.01911" lon="5.47452">
        <ele>1330.6020507812</ele>
        <time>2011-05-07T13:30:18Z</time>
      </trkpt>
      <trkpt lat="45.01891" lon="5.47498">
        <ele>1327.2375488281</ele>
        <time>2011-05-07T13:30:34Z</time>
      </trkpt>
      <trkpt lat="45.01877" lon="5.47555">
        <ele>1325.3146972656</ele>
        <time>2011-05-07T13:30:58Z</time>
      </trkpt>
      <trkpt lat="45.01868" lon="5.47576">
        <ele>1328.6794433594</ele>
        <time>2011-05-07T13:31:17Z</time>
      </trkpt>
      <trkpt lat="45.01867" lon="5.47577">
        <ele>1329.1599121094</ele>
        <time>2011-05-07T13:31:18Z</time>
      </trkpt>
      <trkpt lat="45.01769" lon="5.47524">
        <ele>1331.0827636719</ele>
        <time>2011-05-07T13:32:08Z</time>
      </trkpt>
      <trkpt lat="45.0173" lon="5.47546">
        <ele>1337.3310546875</ele>
        <time>2011-05-07T13:32:26Z</time>
      </trkpt>
      <trkpt lat="45.01715" lon="5.47555">
        <ele>1337.8117675781</ele>
        <time>2011-05-07T13:32:34Z</time>
      </trkpt>
      <trkpt lat="45.01702" lon="5.47556">
        <ele>1337.3310546875</ele>
        <time>2011-05-07T13:32:37Z</time>
      </trkpt>
      <trkpt lat="45.01658" lon="5.47506">
        <ele>1332.5246582031</ele>
        <time>2011-05-07T13:32:46Z</time>
      </trkpt>
      <trkpt lat="45.01573" lon="5.47424">
        <ele>1328.6794433594</ele>
        <time>2011-05-07T13:33:03Z</time>
      </trkpt>
      <trkpt lat="45.01563" lon="5.47418">
        <ele>1329.1599121094</ele>
        <time>2011-05-07T13:33:06Z</time>
      </trkpt>
      <trkpt lat="45.01557" lon="5.47417">
        <ele>1330.1213378906</ele>
        <time>2011-05-07T13:33:10Z</time>
      </trkpt>
      <trkpt lat="45.0155" lon="5.47428">
        <ele>1330.6020507812</ele>
        <time>2011-05-07T13:33:15Z</time>
      </trkpt>
      <trkpt lat="45.01438" lon="5.47467">
        <ele>1327.7180175781</ele>
        <time>2011-05-07T13:33:48Z</time>
      </trkpt>
      <trkpt lat="45.01393" lon="5.47487">
        <ele>1332.0439453125</ele>
        <time>2011-05-07T13:34:12Z</time>
      </trkpt>
      <trkpt lat="45.01353" lon="5.47507">
        <ele>1333.4858398438</ele>
        <time>2011-05-07T13:34:36Z</time>
      </trkpt>
      <trkpt lat="45.01314" lon="5.47515">
        <ele>1336.3698730469</ele>
        <time>2011-05-07T13:34:56Z</time>
      </trkpt>
      <trkpt lat="45.01193" lon="5.47586">
        <ele>1337.3310546875</ele>
        <time>2011-05-07T13:35:43Z</time>
      </trkpt>
      <trkpt lat="45.01117" lon="5.4761">
        <ele>1339.734375</ele>
        <time>2011-05-07T13:36:10Z</time>
      </trkpt>
      <trkpt lat="45.01095" lon="5.47619">
        <ele>1339.2536621094</ele>
        <time>2011-05-07T13:36:14Z</time>
      </trkpt>
      <trkpt lat="45.01065" lon="5.47612">
        <ele>1336.3698730469</ele>
        <time>2011-05-07T13:36:18Z</time>
      </trkpt>
      <trkpt lat="45.01045" lon="5.47609">
        <ele>1335.4084472656</ele>
        <time>2011-05-07T13:36:22Z</time>
      </trkpt>
      <trkpt lat="45.00999" lon="5.47625">
        <ele>1333.9665527344</ele>
        <time>2011-05-07T13:36:37Z</time>
      </trkpt>
      <trkpt lat="45.00965" lon="5.47663">
        <ele>1328.6794433594</ele>
        <time>2011-05-07T13:36:55Z</time>
      </trkpt>
      <trkpt lat="45.00912" lon="5.47719">
        <ele>1327.2375488281</ele>
        <time>2011-05-07T13:37:15Z</time>
      </trkpt>
      <trkpt lat="45.00847" lon="5.47753">
        <ele>1324.353515625</ele>
        <time>2011-05-07T13:37:39Z</time>
      </trkpt>
      <trkpt lat="45.00798" lon="5.478">
        <ele>1321.9499511719</ele>
        <time>2011-05-07T13:37:58Z</time>
      </trkpt>
      <trkpt lat="45.00759" lon="5.47836">
        <ele>1321.9499511719</ele>
        <time>2011-05-07T13:38:13Z</time>
      </trkpt>
      <trkpt lat="45.00693" lon="5.47869">
        <ele>1325.7954101562</ele>
        <time>2011-05-07T13:38:33Z</time>
      </trkpt>
      <trkpt lat="45.00609" lon="5.47864">
        <ele>1326.2761230469</ele>
        <time>2011-05-07T13:38:55Z</time>
      </trkpt>
      <trkpt lat="45.00555" lon="5.47892">
        <ele>1329.1599121094</ele>
        <time>2011-05-07T13:39:12Z</time>
      </trkpt>
      <trkpt lat="45.00489" lon="5.47937">
        <ele>1329.1599121094</ele>
        <time>2011-05-07T13:39:37Z</time>
      </trkpt>
      <trkpt lat="45.00445" lon="5.47913">
        <ele>1330.6020507812</ele>
        <time>2011-05-07T13:39:56Z</time>
      </trkpt>
      <trkpt lat="45.00406" lon="5.47895">
        <ele>1330.6020507812</ele>
        <time>2011-05-07T13:40:12Z</time>
      </trkpt>
      <trkpt lat="45.00338" lon="5.47953">
        <ele>1339.734375</ele>
        <time>2011-05-07T13:41:08Z</time>
      </trkpt>
      <trkpt lat="45.00273" lon="5.47976">
        <ele>1342.1379394531</ele>
        <time>2011-05-07T13:41:30Z</time>
      </trkpt>
      <trkpt lat="45.00264" lon="5.47981">
        <ele>1341.1765136719</ele>
        <time>2011-05-07T13:41:33Z</time>
      </trkpt>
      <trkpt lat="45.00252" lon="5.48002">
        <ele>1337.8117675781</ele>
        <time>2011-05-07T13:41:38Z</time>
      </trkpt>
      <trkpt lat="45.00125" lon="5.48047">
        <ele>1334.447265625</ele>
        <time>2011-05-07T13:42:18Z</time>
      </trkpt>
      <trkpt lat="45.00054" lon="5.48008">
        <ele>1329.640625</ele>
        <time>2011-05-07T13:42:38Z</time>
      </trkpt>
      <trkpt lat="44.99997" lon="5.47928">
        <ele>1329.640625</ele>
        <time>2011-05-07T13:43:04Z</time>
      </trkpt>
      <trkpt lat="44.99954" lon="5.47881">
        <ele>1327.7180175781</ele>
        <time>2011-05-07T13:43:22Z</time>
      </trkpt>
      <trkpt lat="44.99915" lon="5.47845">
        <ele>1325.7954101562</ele>
        <time>2011-05-07T13:43:41Z</time>
      </trkpt>
      <trkpt lat="44.99879" lon="5.47816">
        <ele>1324.8342285156</ele>
        <time>2011-05-07T13:43:58Z</time>
      </trkpt>
      <trkpt lat="44.99877" lon="5.47803">
        <ele>1325.7954101562</ele>
        <time>2011-05-07T13:44:02Z</time>
      </trkpt>
      <trkpt lat="44.99843" lon="5.47773">
        <ele>1323.8725585938</ele>
        <time>2011-05-07T13:44:18Z</time>
      </trkpt>
      <trkpt lat="44.99792" lon="5.4776">
        <ele>1323.3920898438</ele>
        <time>2011-05-07T13:44:41Z</time>
      </trkpt>
      <trkpt lat="44.99764" lon="5.47766">
        <ele>1323.3920898438</ele>
        <time>2011-05-07T13:44:58Z</time>
      </trkpt>
      <trkpt lat="44.99762" lon="5.47765">
        <ele>1323.3920898438</ele>
        <time>2011-05-07T13:44:59Z</time>
      </trkpt>
      <trkpt lat="44.99749" lon="5.47726">
        <ele>1324.8342285156</ele>
        <time>2011-05-07T13:45:14Z</time>
      </trkpt>
      <trkpt lat="44.9971" lon="5.47722">
        <ele>1327.2375488281</ele>
        <time>2011-05-07T13:45:33Z</time>
      </trkpt>
      <trkpt lat="44.99651" lon="5.47733">
        <ele>1329.1599121094</ele>
        <time>2011-05-07T13:45:58Z</time>
      </trkpt>
      <trkpt lat="44.99625" lon="5.4772">
        <ele>1328.1987304688</ele>
        <time>2011-05-07T13:46:11Z</time>
      </trkpt>
      <trkpt lat="44.99609" lon="5.47676">
        <ele>1328.1987304688</ele>
        <time>2011-05-07T13:46:27Z</time>
      </trkpt>
      <trkpt lat="44.99576" lon="5.47667">
        <ele>1328.6794433594</ele>
        <time>2011-05-07T13:46:42Z</time>
      </trkpt>
      <trkpt lat="44.99541" lon="5.47698">
        <ele>1331.0827636719</ele>
        <time>2011-05-07T13:47:02Z</time>
      </trkpt>
      <trkpt lat="44.99498" lon="5.47729">
        <ele>1333.0051269531</ele>
        <time>2011-05-07T13:47:26Z</time>
      </trkpt>
      <trkpt lat="44.99455" lon="5.47755">
        <ele>1336.3698730469</ele>
        <time>2011-05-07T13:47:46Z</time>
      </trkpt>
      <trkpt lat="44.99367" lon="5.47838">
        <ele>1341.1765136719</ele>
        <time>2011-05-07T13:48:37Z</time>
      </trkpt>
      <trkpt lat="44.9932" lon="5.47863">
        <ele>1340.6958007812</ele>
        <time>2011-05-07T13:48:58Z</time>
      </trkpt>
      <trkpt lat="44.99269" lon="5.47887">
        <ele>1341.6572265625</ele>
        <time>2011-05-07T13:49:21Z</time>
      </trkpt>
      <trkpt lat="44.99267" lon="5.47887">
        <ele>1341.6572265625</ele>
        <time>2011-05-07T13:49:22Z</time>
      </trkpt>
      <trkpt lat="44.99267" lon="5.47867">
        <ele>1340.6958007812</ele>
        <time>2011-05-07T13:49:28Z</time>
      </trkpt>
      <trkpt lat="44.99291" lon="5.4783">
        <ele>1343.0991210938</ele>
        <time>2011-05-07T13:49:44Z</time>
      </trkpt>
      <trkpt lat="44.99316" lon="5.47807">
        <ele>1345.0217285156</ele>
        <time>2011-05-07T13:50:01Z</time>
      </trkpt>
      <trkpt lat="44.99319" lon="5.47803">
        <ele>1345.0217285156</ele>
        <time>2011-05-07T13:50:03Z</time>
      </trkpt>
      <trkpt lat="44.99319" lon="5.47798">
        <ele>1345.5024414062</ele>
        <time>2011-05-07T13:50:05Z</time>
      </trkpt>
      <trkpt lat="44.99308" lon="5.47767">
        <ele>1345.9831542969</ele>
        <time>2011-05-07T13:50:21Z</time>
      </trkpt>
      <trkpt lat="44.99282" lon="5.47731">
        <ele>1345.9831542969</ele>
        <time>2011-05-07T13:50:43Z</time>
      </trkpt>
      <trkpt lat="44.99284" lon="5.47691">
        <ele>1346.9443359375</ele>
        <time>2011-05-07T13:50:58Z</time>
      </trkpt>
      <trkpt lat="44.99256" lon="5.47666">
        <ele>1349.8283691406</ele>
        <time>2011-05-07T13:51:14Z</time>
      </trkpt>
      <trkpt lat="44.99247" lon="5.47665">
        <ele>1348.8669433594</ele>
        <time>2011-05-07T13:51:28Z</time>
      </trkpt>
      <trkpt lat="44.99234" lon="5.4766">
        <ele>1351.7509765625</ele>
        <time>2011-05-07T13:51:46Z</time>
      </trkpt>
      <trkpt lat="44.99194" lon="5.47645">
        <ele>1353.6735839844</ele>
        <time>2011-05-07T13:52:04Z</time>
      </trkpt>
      <trkpt lat="44.99132" lon="5.47647">
        <ele>1357.5190429688</ele>
        <time>2011-05-07T13:52:25Z</time>
      </trkpt>
      <trkpt lat="44.99086" lon="5.47649">
        <ele>1358.9609375</ele>
        <time>2011-05-07T13:52:43Z</time>
      </trkpt>
      <trkpt lat="44.99051" lon="5.47635">
        <ele>1360.4028320312</ele>
        <time>2011-05-07T13:52:59Z</time>
      </trkpt>
      <trkpt lat="44.99015" lon="5.4762">
        <ele>1360.4028320312</ele>
        <time>2011-05-07T13:53:17Z</time>
      </trkpt>
      <trkpt lat="44.99014" lon="5.47618">
        <ele>1361.8449707031</ele>
        <time>2011-05-07T13:53:19Z</time>
      </trkpt>
      <trkpt lat="44.99009" lon="5.47606">
        <ele>1362.3254394531</ele>
        <time>2011-05-07T13:53:27Z</time>
      </trkpt>
      <trkpt lat="44.99003" lon="5.47597">
        <ele>1361.8449707031</ele>
        <time>2011-05-07T13:53:42Z</time>
      </trkpt>
      <trkpt lat="44.99005" lon="5.47598">
        <ele>1367.1320800781</ele>
        <time>2011-05-07T13:54:01Z</time>
      </trkpt>
      <trkpt lat="44.99006" lon="5.47598">
        <ele>1369.0546875</ele>
        <time>2011-05-07T13:54:27Z</time>
      </trkpt>
      <trkpt lat="44.99002" lon="5.4759">
        <ele>1369.5354003906</ele>
        <time>2011-05-07T13:55:09Z</time>
      </trkpt>
      <trkpt lat="44.99002" lon="5.47566">
        <ele>1369.5354003906</ele>
        <time>2011-05-07T13:55:29Z</time>
      </trkpt>
      <trkpt lat="44.99005" lon="5.4756">
        <ele>1367.6125488281</ele>
        <time>2011-05-07T13:56:03Z</time>
      </trkpt>
      <trkpt lat="44.99003" lon="5.47557">
        <ele>1367.1320800781</ele>
        <time>2011-05-07T13:56:46Z</time>
      </trkpt>
      <trkpt lat="44.99002" lon="5.47553">
        <ele>1367.1320800781</ele>
        <time>2011-05-07T13:57:32Z</time>
      </trkpt>
      <trkpt lat="44.98967" lon="5.47546">
        <ele>1364.7287597656</ele>
        <time>2011-05-07T13:57:49Z</time>
      </trkpt>
      <trkpt lat="44.98944" lon="5.47575">
        <ele>1362.8061523438</ele>
        <time>2011-05-07T13:58:05Z</time>
      </trkpt>
      <trkpt lat="44.98938" lon="5.47588">
        <ele>1362.8061523438</ele>
        <time>2011-05-07T13:58:08Z</time>
      </trkpt>
      <trkpt lat="44.98933" lon="5.47636">
        <ele>1359.9221191406</ele>
        <time>2011-05-07T13:58:16Z</time>
      </trkpt>
      <trkpt lat="44.98912" lon="5.47669">
        <ele>1361.8449707031</ele>
        <time>2011-05-07T13:58:32Z</time>
      </trkpt>
      <trkpt lat="44.98912" lon="5.47717">
        <ele>1362.3254394531</ele>
        <time>2011-05-07T13:58:52Z</time>
      </trkpt>
      <trkpt lat="44.98909" lon="5.47735">
        <ele>1367.6125488281</ele>
        <time>2011-05-07T13:59:06Z</time>
      </trkpt>
      <trkpt lat="44.989" lon="5.47756">
        <ele>1369.5354003906</ele>
        <time>2011-05-07T13:59:27Z</time>
      </trkpt>
      <trkpt lat="44.98884" lon="5.478">
        <ele>1368.5739746094</ele>
        <time>2011-05-07T13:59:44Z</time>
      </trkpt>
      <trkpt lat="44.98878" lon="5.47809">
        <ele>1369.5354003906</ele>
        <time>2011-05-07T13:59:57Z</time>
      </trkpt>
      <trkpt lat="44.98874" lon="5.47814">
        <ele>1371.4577636719</ele>
        <time>2011-05-07T14:00:05Z</time>
      </trkpt>
      <trkpt lat="44.98868" lon="5.47848">
        <ele>1365.2094726562</ele>
        <time>2011-05-07T14:00:13Z</time>
      </trkpt>
      <trkpt lat="44.98881" lon="5.47908">
        <ele>1355.5961914062</ele>
        <time>2011-05-07T14:00:23Z</time>
      </trkpt>
      <trkpt lat="44.98872" lon="5.47929">
        <ele>1352.2314453125</ele>
        <time>2011-05-07T14:00:29Z</time>
      </trkpt>
      <trkpt lat="44.98859" lon="5.4794">
        <ele>1349.8283691406</ele>
        <time>2011-05-07T14:00:32Z</time>
      </trkpt>
      <trkpt lat="44.98821" lon="5.47954">
        <ele>1349.8283691406</ele>
        <time>2011-05-07T14:00:43Z</time>
      </trkpt>
      <trkpt lat="44.98795" lon="5.47971">
        <ele>1348.8669433594</ele>
        <time>2011-05-07T14:00:52Z</time>
      </trkpt>
      <trkpt lat="44.98784" lon="5.47986">
        <ele>1347.9057617188</ele>
        <time>2011-05-07T14:00:55Z</time>
      </trkpt>
      <trkpt lat="44.98768" lon="5.48005">
        <ele>1347.4250488281</ele>
        <time>2011-05-07T14:01:00Z</time>
      </trkpt>
      <trkpt lat="44.98736" lon="5.48046">
        <ele>1350.3090820312</ele>
        <time>2011-05-07T14:01:12Z</time>
      </trkpt>
      <trkpt lat="44.98711" lon="5.48076">
        <ele>1354.154296875</ele>
        <time>2011-05-07T14:01:30Z</time>
      </trkpt>
      <trkpt lat="44.98693" lon="5.48099">
        <ele>1356.0769042969</ele>
        <time>2011-05-07T14:01:47Z</time>
      </trkpt>
      <trkpt lat="44.98663" lon="5.48131">
        <ele>1352.7121582031</ele>
        <time>2011-05-07T14:01:57Z</time>
      </trkpt>
      <trkpt lat="44.98632" lon="5.48152">
        <ele>1353.6735839844</ele>
        <time>2011-05-07T14:02:08Z</time>
      </trkpt>
      <trkpt lat="44.98615" lon="5.48167">
        <ele>1357.9997558594</ele>
        <time>2011-05-07T14:02:24Z</time>
      </trkpt>
      <trkpt lat="44.98606" lon="5.48176">
        <ele>1361.3642578125</ele>
        <time>2011-05-07T14:02:44Z</time>
      </trkpt>
      <trkpt lat="44.98599" lon="5.48179">
        <ele>1361.3642578125</ele>
        <time>2011-05-07T14:02:59Z</time>
      </trkpt>
      <trkpt lat="44.98574" lon="5.48203">
        <ele>1357.5190429688</ele>
        <time>2011-05-07T14:03:07Z</time>
      </trkpt>
      <trkpt lat="44.98564" lon="5.48224">
        <ele>1356.5576171875</ele>
        <time>2011-05-07T14:03:11Z</time>
      </trkpt>
      <trkpt lat="44.98561" lon="5.48245">
        <ele>1355.1154785156</ele>
        <time>2011-05-07T14:03:15Z</time>
      </trkpt>
      <trkpt lat="44.9856" lon="5.48276">
        <ele>1350.7895507812</ele>
        <time>2011-05-07T14:03:19Z</time>
      </trkpt>
      <trkpt lat="44.98556" lon="5.48304">
        <ele>1346.9443359375</ele>
        <time>2011-05-07T14:03:23Z</time>
      </trkpt>
      <trkpt lat="44.98552" lon="5.48317">
        <ele>1345.0217285156</ele>
        <time>2011-05-07T14:03:25Z</time>
      </trkpt>
      <trkpt lat="44.98563" lon="5.48354">
        <ele>1341.1765136719</ele>
        <time>2011-05-07T14:03:33Z</time>
      </trkpt>
      <trkpt lat="44.98568" lon="5.48357">
        <ele>1344.060546875</ele>
        <time>2011-05-07T14:03:41Z</time>
      </trkpt>
      <trkpt lat="44.98563" lon="5.48361">
        <ele>1344.541015625</ele>
        <time>2011-05-07T14:04:00Z</time>
      </trkpt>
      <trkpt lat="44.9856" lon="5.48364">
        <ele>1356.0769042969</ele>
        <time>2011-05-07T14:04:28Z</time>
      </trkpt>
      <trkpt lat="44.98558" lon="5.48366">
        <ele>1357.0383300781</ele>
        <time>2011-05-07T14:05:11Z</time>
      </trkpt>
      <trkpt lat="44.98558" lon="5.48366">
        <ele>1364.7287597656</ele>
        <time>2011-05-07T14:05:58Z</time>
      </trkpt>
      <trkpt lat="44.98561" lon="5.48359">
        <ele>1354.634765625</ele>
        <time>2011-05-07T14:06:35Z</time>
      </trkpt>
      <trkpt lat="44.9856" lon="5.48361">
        <ele>1354.154296875</ele>
        <time>2011-05-07T14:06:54Z</time>
      </trkpt>
      <trkpt lat="44.98562" lon="5.48359">
        <ele>1352.2314453125</ele>
        <time>2011-05-07T14:07:01Z</time>
      </trkpt>
      <trkpt lat="44.98557" lon="5.48355">
        <ele>1351.7509765625</ele>
        <time>2011-05-07T14:07:05Z</time>
      </trkpt>
      <trkpt lat="44.98554" lon="5.48353">
        <ele>1350.3090820312</ele>
        <time>2011-05-07T14:07:18Z</time>
      </trkpt>
      <trkpt lat="44.98556" lon="5.48355">
        <ele>1347.4250488281</ele>
        <time>2011-05-07T14:07:34Z</time>
      </trkpt>
      <trkpt lat="44.98564" lon="5.48359">
        <ele>1345.5024414062</ele>
        <time>2011-05-07T14:07:48Z</time>
      </trkpt>
      <trkpt lat="44.98594" lon="5.48378">
        <ele>1344.060546875</ele>
        <time>2011-05-07T14:08:05Z</time>
      </trkpt>
      <trkpt lat="44.98608" lon="5.48395">
        <ele>1342.1379394531</ele>
        <time>2011-05-07T14:08:09Z</time>
      </trkpt>
      <trkpt lat="44.98627" lon="5.48417">
        <ele>1341.6572265625</ele>
        <time>2011-05-07T14:08:15Z</time>
      </trkpt>
      <trkpt lat="44.98628" lon="5.48459">
        <ele>1340.6958007812</ele>
        <time>2011-05-07T14:08:25Z</time>
      </trkpt>
      <trkpt lat="44.98628" lon="5.48498">
        <ele>1340.6958007812</ele>
        <time>2011-05-07T14:08:39Z</time>
      </trkpt>
      <trkpt lat="44.9863" lon="5.48515">
        <ele>1340.6958007812</ele>
        <time>2011-05-07T14:08:42Z</time>
      </trkpt>
      <trkpt lat="44.98638" lon="5.48538">
        <ele>1340.6958007812</ele>
        <time>2011-05-07T14:08:46Z</time>
      </trkpt>
      <trkpt lat="44.9866" lon="5.48554">
        <ele>1340.6958007812</ele>
        <time>2011-05-07T14:08:57Z</time>
      </trkpt>
      <trkpt lat="44.98705" lon="5.48584">
        <ele>1340.2153320312</ele>
        <time>2011-05-07T14:09:12Z</time>
      </trkpt>
      <trkpt lat="44.98762" lon="5.48591">
        <ele>1339.2536621094</ele>
        <time>2011-05-07T14:09:35Z</time>
      </trkpt>
      <trkpt lat="44.98792" lon="5.48585">
        <ele>1338.7731933594</ele>
        <time>2011-05-07T14:09:47Z</time>
      </trkpt>
      <trkpt lat="44.98824" lon="5.48604">
        <ele>1336.8503417969</ele>
        <time>2011-05-07T14:09:57Z</time>
      </trkpt>
      <trkpt lat="44.98827" lon="5.48605">
        <ele>1336.8503417969</ele>
        <time>2011-05-07T14:09:58Z</time>
      </trkpt>
      <trkpt lat="44.98837" lon="5.48605">
        <ele>1335.8891601562</ele>
        <time>2011-05-07T14:10:00Z</time>
      </trkpt>
      <trkpt lat="44.98862" lon="5.48594">
        <ele>1334.447265625</ele>
        <time>2011-05-07T14:10:05Z</time>
      </trkpt>
      <trkpt lat="44.98928" lon="5.48589">
        <ele>1333.0051269531</ele>
        <time>2011-05-07T14:10:20Z</time>
      </trkpt>
      <trkpt lat="44.98984" lon="5.4857">
        <ele>1329.640625</ele>
        <time>2011-05-07T14:10:34Z</time>
      </trkpt>
      <trkpt lat="44.99011" lon="5.4856">
        <ele>1328.1987304688</ele>
        <time>2011-05-07T14:10:48Z</time>
      </trkpt>
      <trkpt lat="44.99051" lon="5.48574">
        <ele>1331.0827636719</ele>
        <time>2011-05-07T14:11:09Z</time>
      </trkpt>
      <trkpt lat="44.99089" lon="5.48595">
        <ele>1330.6020507812</ele>
        <time>2011-05-07T14:11:26Z</time>
      </trkpt>
      <trkpt lat="44.9911" lon="5.48614">
        <ele>1331.5632324219</ele>
        <time>2011-05-07T14:11:38Z</time>
      </trkpt>
      <trkpt lat="44.99113" lon="5.48621">
        <ele>1331.5632324219</ele>
        <time>2011-05-07T14:11:43Z</time>
      </trkpt>
      <trkpt lat="44.99143" lon="5.48644">
        <ele>1329.640625</ele>
        <time>2011-05-07T14:11:53Z</time>
      </trkpt>
      <trkpt lat="44.99168" lon="5.48678">
        <ele>1328.6794433594</ele>
        <time>2011-05-07T14:12:07Z</time>
      </trkpt>
      <trkpt lat="44.99193" lon="5.48728">
        <ele>1326.2761230469</ele>
        <time>2011-05-07T14:12:21Z</time>
      </trkpt>
      <trkpt lat="44.99202" lon="5.48747">
        <ele>1325.7954101562</ele>
        <time>2011-05-07T14:12:25Z</time>
      </trkpt>
      <trkpt lat="44.99212" lon="5.48762">
        <ele>1325.7954101562</ele>
        <time>2011-05-07T14:12:28Z</time>
      </trkpt>
      <trkpt lat="44.99251" lon="5.48787">
        <ele>1327.2375488281</ele>
        <time>2011-05-07T14:12:42Z</time>
      </trkpt>
      <trkpt lat="44.99272" lon="5.48816">
        <ele>1326.2761230469</ele>
        <time>2011-05-07T14:12:57Z</time>
      </trkpt>
      <trkpt lat="44.99288" lon="5.48851">
        <ele>1326.2761230469</ele>
        <time>2011-05-07T14:13:12Z</time>
      </trkpt>
      <trkpt lat="44.99289" lon="5.48853">
        <ele>1327.2375488281</ele>
        <time>2011-05-07T14:13:14Z</time>
      </trkpt>
      <trkpt lat="44.99304" lon="5.48847">
        <ele>1330.6020507812</ele>
        <time>2011-05-07T14:13:27Z</time>
      </trkpt>
      <trkpt lat="44.9931" lon="5.48848">
        <ele>1329.1599121094</ele>
        <time>2011-05-07T14:13:31Z</time>
      </trkpt>
      <trkpt lat="44.99328" lon="5.48852">
        <ele>1330.6020507812</ele>
        <time>2011-05-07T14:13:43Z</time>
      </trkpt>
      <trkpt lat="44.99367" lon="5.48825">
        <ele>1333.4858398438</ele>
        <time>2011-05-07T14:14:06Z</time>
      </trkpt>
      <trkpt lat="44.99393" lon="5.48829">
        <ele>1335.4084472656</ele>
        <time>2011-05-07T14:14:21Z</time>
      </trkpt>
      <trkpt lat="44.99408" lon="5.48804">
        <ele>1335.8891601562</ele>
        <time>2011-05-07T14:14:24Z</time>
      </trkpt>
      <trkpt lat="44.99434" lon="5.48802">
        <ele>1336.3698730469</ele>
        <time>2011-05-07T14:14:38Z</time>
      </trkpt>
      <trkpt lat="44.99481" lon="5.48818">
        <ele>1338.7731933594</ele>
        <time>2011-05-07T14:15:05Z</time>
      </trkpt>
      <trkpt lat="44.99528" lon="5.48823">
        <ele>1338.7731933594</ele>
        <time>2011-05-07T14:15:24Z</time>
      </trkpt>
      <trkpt lat="44.99613" lon="5.48834">
        <ele>1340.6958007812</ele>
        <time>2011-05-07T14:16:07Z</time>
      </trkpt>
      <trkpt lat="44.99634" lon="5.48852">
        <ele>1348.3862304688</ele>
        <time>2011-05-07T14:16:30Z</time>
      </trkpt>
      <trkpt lat="44.99647" lon="5.48852">
        <ele>1412.3139648438</ele>
        <time>2011-05-07T14:16:52Z</time>
      </trkpt>
      <trkpt lat="44.99658" lon="5.48843">
        <ele>1396.4523925781</ele>
        <time>2011-05-07T14:17:16Z</time>
      </trkpt>
      <trkpt lat="44.99672" lon="5.48845">
        <ele>1388.7619628906</ele>
        <time>2011-05-07T14:17:37Z</time>
      </trkpt>
      <trkpt lat="44.99678" lon="5.48846">
        <ele>1388.7619628906</ele>
        <time>2011-05-07T14:17:54Z</time>
      </trkpt>
      <trkpt lat="44.99686" lon="5.4885">
        <ele>1385.3969726562</ele>
        <time>2011-05-07T14:18:14Z</time>
      </trkpt>
      <trkpt lat="44.99716" lon="5.48866">
        <ele>1384.4357910156</ele>
        <time>2011-05-07T14:18:38Z</time>
      </trkpt>
      <trkpt lat="44.99735" lon="5.48885">
        <ele>1384.9165039062</ele>
        <time>2011-05-07T14:18:58Z</time>
      </trkpt>
      <trkpt lat="44.99741" lon="5.48889">
        <ele>1386.8388671875</ele>
        <time>2011-05-07T14:19:02Z</time>
      </trkpt>
      <trkpt lat="44.99765" lon="5.48894">
        <ele>1386.3583984375</ele>
        <time>2011-05-07T14:19:22Z</time>
      </trkpt>
      <trkpt lat="44.99765" lon="5.48894">
        <ele>1398.3747558594</ele>
        <time>2011-05-07T14:19:58Z</time>
      </trkpt>
      <trkpt lat="44.99775" lon="5.4889">
        <ele>1400.7780761719</ele>
        <time>2011-05-07T14:20:24Z</time>
      </trkpt>
      <trkpt lat="44.99772" lon="5.48896">
        <ele>1401.7395019531</ele>
        <time>2011-05-07T14:20:39Z</time>
      </trkpt>
      <trkpt lat="44.99754" lon="5.48926">
        <ele>1404.1430664062</ele>
        <time>2011-05-07T14:20:59Z</time>
      </trkpt>
      <trkpt lat="44.99685" lon="5.48961">
        <ele>1400.7780761719</ele>
        <time>2011-05-07T14:21:48Z</time>
      </trkpt>
      <trkpt lat="44.99665" lon="5.48988">
        <ele>1398.3747558594</ele>
        <time>2011-05-07T14:22:06Z</time>
      </trkpt>
      <trkpt lat="44.99593" lon="5.49037">
        <ele>1387.8002929688</ele>
        <time>2011-05-07T14:22:49Z</time>
      </trkpt>
      <trkpt lat="44.99564" lon="5.49056">
        <ele>1388.7619628906</ele>
        <time>2011-05-07T14:23:11Z</time>
      </trkpt>
      <trkpt lat="44.99531" lon="5.49082">
        <ele>1389.2424316406</ele>
        <time>2011-05-07T14:23:35Z</time>
      </trkpt>
      <trkpt lat="44.99501" lon="5.49109">
        <ele>1388.28125</ele>
        <time>2011-05-07T14:23:51Z</time>
      </trkpt>
      <trkpt lat="44.99436" lon="5.49167">
        <ele>1393.568359375</ele>
        <time>2011-05-07T14:24:32Z</time>
      </trkpt>
      <trkpt lat="44.99415" lon="5.49197">
        <ele>1394.5295410156</ele>
        <time>2011-05-07T14:24:51Z</time>
      </trkpt>
      <trkpt lat="44.99394" lon="5.4922">
        <ele>1396.4523925781</ele>
        <time>2011-05-07T14:25:09Z</time>
      </trkpt>
      <trkpt lat="44.99373" lon="5.49244">
        <ele>1398.85546875</ele>
        <time>2011-05-07T14:25:31Z</time>
      </trkpt>
      <trkpt lat="44.9935" lon="5.49277">
        <ele>1398.85546875</ele>
        <time>2011-05-07T14:25:53Z</time>
      </trkpt>
      <trkpt lat="44.99336" lon="5.49296">
        <ele>1396.4523925781</ele>
        <time>2011-05-07T14:26:16Z</time>
      </trkpt>
      <trkpt lat="44.99341" lon="5.49284">
        <ele>1406.5461425781</ele>
        <time>2011-05-07T14:26:52Z</time>
      </trkpt>
      <trkpt lat="44.99321" lon="5.49311">
        <ele>1408.46875</ele>
        <time>2011-05-07T14:27:14Z</time>
      </trkpt>
      <trkpt lat="44.99294" lon="5.49339">
        <ele>1412.7946777344</ele>
        <time>2011-05-07T14:27:37Z</time>
      </trkpt>
      <trkpt lat="44.99286" lon="5.49346">
        <ele>1415.6787109375</ele>
        <time>2011-05-07T14:27:52Z</time>
      </trkpt>
      <trkpt lat="44.99282" lon="5.49348">
        <ele>1419.5239257812</ele>
        <time>2011-05-07T14:28:12Z</time>
      </trkpt>
      <trkpt lat="44.99276" lon="5.49354">
        <ele>1420.4853515625</ele>
        <time>2011-05-07T14:28:29Z</time>
      </trkpt>
      <trkpt lat="44.9927" lon="5.49361">
        <ele>1422.4079589844</ele>
        <time>2011-05-07T14:28:45Z</time>
      </trkpt>
      <trkpt lat="44.99264" lon="5.49371">
        <ele>1425.2917480469</ele>
        <time>2011-05-07T14:29:00Z</time>
      </trkpt>
      <trkpt lat="44.99259" lon="5.49377">
        <ele>1425.7724609375</ele>
        <time>2011-05-07T14:29:19Z</time>
      </trkpt>
      <trkpt lat="44.99253" lon="5.49382">
        <ele>1428.17578125</ele>
        <time>2011-05-07T14:29:40Z</time>
      </trkpt>
      <trkpt lat="44.99245" lon="5.49389">
        <ele>1429.1369628906</ele>
        <time>2011-05-07T14:29:57Z</time>
      </trkpt>
      <trkpt lat="44.99232" lon="5.49397">
        <ele>1432.5017089844</ele>
        <time>2011-05-07T14:30:17Z</time>
      </trkpt>
      <trkpt lat="44.99225" lon="5.49404">
        <ele>1434.9050292969</ele>
        <time>2011-05-07T14:30:33Z</time>
      </trkpt>
      <trkpt lat="44.9922" lon="5.49421">
        <ele>1436.3471679688</ele>
        <time>2011-05-07T14:30:54Z</time>
      </trkpt>
      <trkpt lat="44.99218" lon="5.4943">
        <ele>1438.2697753906</ele>
        <time>2011-05-07T14:31:09Z</time>
      </trkpt>
      <trkpt lat="44.99217" lon="5.49429">
        <ele>1439.7116699219</ele>
        <time>2011-05-07T14:31:15Z</time>
      </trkpt>
      <trkpt lat="44.99221" lon="5.49435">
        <ele>1439.2309570312</ele>
        <time>2011-05-07T14:31:22Z</time>
      </trkpt>
      <trkpt lat="44.99219" lon="5.49443">
        <ele>1439.7116699219</ele>
        <time>2011-05-07T14:31:28Z</time>
      </trkpt>
      <trkpt lat="44.99218" lon="5.49455">
        <ele>1442.595703125</ele>
        <time>2011-05-07T14:31:37Z</time>
      </trkpt>
      <trkpt lat="44.99225" lon="5.49477">
        <ele>1444.9987792969</ele>
        <time>2011-05-07T14:31:55Z</time>
      </trkpt>
      <trkpt lat="44.99232" lon="5.49492">
        <ele>1446.9213867188</ele>
        <time>2011-05-07T14:32:14Z</time>
      </trkpt>
      <trkpt lat="44.99249" lon="5.49519">
        <ele>1448.8439941406</ele>
        <time>2011-05-07T14:32:35Z</time>
      </trkpt>
      <trkpt lat="44.99265" lon="5.49533">
        <ele>1456.0539550781</ele>
        <time>2011-05-07T14:32:52Z</time>
      </trkpt>
      <trkpt lat="44.99281" lon="5.49538">
        <ele>1455.0927734375</ele>
        <time>2011-05-07T14:33:12Z</time>
      </trkpt>
      <trkpt lat="44.99286" lon="5.49541">
        <ele>1454.6120605469</ele>
        <time>2011-05-07T14:33:51Z</time>
      </trkpt>
      <trkpt lat="44.99283" lon="5.49547">
        <ele>1455.5734863281</ele>
        <time>2011-05-07T14:35:14Z</time>
      </trkpt>
      <trkpt lat="44.99283" lon="5.4955">
        <ele>1457.9768066406</ele>
        <time>2011-05-07T14:36:13Z</time>
      </trkpt>
      <trkpt lat="44.9928" lon="5.49549">
        <ele>1462.783203125</ele>
        <time>2011-05-07T14:36:44Z</time>
      </trkpt>
      <trkpt lat="44.99277" lon="5.49548">
        <ele>1460.8605957031</ele>
        <time>2011-05-07T14:37:33Z</time>
      </trkpt>
      <trkpt lat="44.99279" lon="5.49549">
        <ele>1441.6342773438</ele>
        <time>2011-05-07T14:44:05Z</time>
      </trkpt>
      <trkpt lat="44.9929" lon="5.49546">
        <ele>1445.9602050781</ele>
        <time>2011-05-07T14:45:20Z</time>
      </trkpt>
      <trkpt lat="44.99236" lon="5.49647">
        <ele>1441.6342773438</ele>
        <time>2011-05-07T14:46:09Z</time>
      </trkpt>
      <trkpt lat="44.99208" lon="5.49686">
        <ele>1443.076171875</ele>
        <time>2011-05-07T14:47:04Z</time>
      </trkpt>
      <trkpt lat="44.99197" lon="5.497">
        <ele>1445.4794921875</ele>
        <time>2011-05-07T14:47:23Z</time>
      </trkpt>
      <trkpt lat="44.99177" lon="5.49744">
        <ele>1441.6342773438</ele>
        <time>2011-05-07T14:47:52Z</time>
      </trkpt>
      <trkpt lat="44.99166" lon="5.49755">
        <ele>1439.2309570312</ele>
        <time>2011-05-07T14:48:02Z</time>
      </trkpt>
      <trkpt lat="44.99119" lon="5.49782">
        <ele>1430.5791015625</ele>
        <time>2011-05-07T14:48:51Z</time>
      </trkpt>
      <trkpt lat="44.99109" lon="5.498">
        <ele>1426.2531738281</ele>
        <time>2011-05-07T14:49:19Z</time>
      </trkpt>
      <trkpt lat="44.99098" lon="5.49832">
        <ele>1423.3693847656</ele>
        <time>2011-05-07T14:49:46Z</time>
      </trkpt>
      <trkpt lat="44.99085" lon="5.49845">
        <ele>1418.0817871094</ele>
        <time>2011-05-07T14:49:57Z</time>
      </trkpt>
      <trkpt lat="44.99079" lon="5.49858">
        <ele>1409.9106445312</ele>
        <time>2011-05-07T14:50:16Z</time>
      </trkpt>
      <trkpt lat="44.99071" lon="5.49876">
        <ele>1399.3361816406</ele>
        <time>2011-05-07T14:50:48Z</time>
      </trkpt>
      <trkpt lat="44.99066" lon="5.49881">
        <ele>1397.4135742188</ele>
        <time>2011-05-07T14:50:54Z</time>
      </trkpt>
      <trkpt lat="44.98981" lon="5.49987">
        <ele>1386.8388671875</ele>
        <time>2011-05-07T14:52:21Z</time>
      </trkpt>
      <trkpt lat="44.98954" lon="5.49969">
        <ele>1365.6901855469</ele>
        <time>2011-05-07T14:53:10Z</time>
      </trkpt>
      <trkpt lat="44.98941" lon="5.50077">
        <ele>1311.3757324219</ele>
        <time>2011-05-07T14:54:14Z</time>
      </trkpt>
      <trkpt lat="44.99028" lon="5.50135">
        <ele>1315.2209472656</ele>
        <time>2011-05-07T14:54:26Z</time>
      </trkpt>
      <trkpt lat="44.99063" lon="5.50166">
        <ele>1318.5854492188</ele>
        <time>2011-05-07T14:54:42Z</time>
      </trkpt>
      <trkpt lat="44.99086" lon="5.50197">
        <ele>1321.9499511719</ele>
        <time>2011-05-07T14:55:01Z</time>
      </trkpt>
      <trkpt lat="44.99114" lon="5.50216">
        <ele>1322.4306640625</ele>
        <time>2011-05-07T14:55:17Z</time>
      </trkpt>
      <trkpt lat="44.99255" lon="5.5025">
        <ele>1318.1047363281</ele>
        <time>2011-05-07T14:56:35Z</time>
      </trkpt>
      <trkpt lat="44.99565" lon="5.50363">
        <ele>1306.0881347656</ele>
        <time>2011-05-07T14:59:35Z</time>
      </trkpt>
      <trkpt lat="44.99577" lon="5.50372">
        <ele>1304.6462402344</ele>
        <time>2011-05-07T14:59:40Z</time>
      </trkpt>
      <trkpt lat="44.99605" lon="5.50407">
        <ele>1303.6850585938</ele>
        <time>2011-05-07T14:59:53Z</time>
      </trkpt>
      <trkpt lat="44.99633" lon="5.5043">
        <ele>1297.4365234375</ele>
        <time>2011-05-07T15:00:13Z</time>
      </trkpt>
      <trkpt lat="44.99712" lon="5.50472">
        <ele>1287.3425292969</ele>
        <time>2011-05-07T15:01:01Z</time>
      </trkpt>
      <trkpt lat="44.99759" lon="5.50525">
        <ele>1286.3813476562</ele>
        <time>2011-05-07T15:01:28Z</time>
      </trkpt>
      <trkpt lat="44.99874" lon="5.50624">
        <ele>1277.7294921875</ele>
        <time>2011-05-07T15:02:08Z</time>
      </trkpt>
      <trkpt lat="44.99912" lon="5.50663">
        <ele>1276.2875976562</ele>
        <time>2011-05-07T15:02:31Z</time>
      </trkpt>
      <trkpt lat="44.99933" lon="5.50678">
        <ele>1274.3647460938</ele>
        <time>2011-05-07T15:02:48Z</time>
      </trkpt>
      <trkpt lat="44.99971" lon="5.50712">
        <ele>1267.6354980469</ele>
        <time>2011-05-07T15:03:30Z</time>
      </trkpt>
      <trkpt lat="44.99975" lon="5.50717">
        <ele>1267.6354980469</ele>
        <time>2011-05-07T15:03:58Z</time>
      </trkpt>
      <trkpt lat="44.99993" lon="5.50738">
        <ele>1266.6743164062</ele>
        <time>2011-05-07T15:04:28Z</time>
      </trkpt>
      <trkpt lat="44.99985" lon="5.50736">
        <ele>1275.3259277344</ele>
        <time>2011-05-07T15:05:57Z</time>
      </trkpt>
      <trkpt lat="45.00026" lon="5.5075">
        <ele>1270.0388183594</ele>
        <time>2011-05-07T15:06:21Z</time>
      </trkpt>
      <trkpt lat="45.00072" lon="5.50765">
        <ele>1268.1162109375</ele>
        <time>2011-05-07T15:06:43Z</time>
      </trkpt>
      <trkpt lat="45.00128" lon="5.508">
        <ele>1266.1936035156</ele>
        <time>2011-05-07T15:07:04Z</time>
      </trkpt>
      <trkpt lat="45.00201" lon="5.50886">
        <ele>1267.1550292969</ele>
        <time>2011-05-07T15:07:42Z</time>
      </trkpt>
      <trkpt lat="45.0019" lon="5.50926">
        <ele>1263.7902832031</ele>
        <time>2011-05-07T15:08:03Z</time>
      </trkpt>
      <trkpt lat="45.00223" lon="5.5094">
        <ele>1263.7902832031</ele>
        <time>2011-05-07T15:08:13Z</time>
      </trkpt>
      <trkpt lat="45.00283" lon="5.50965">
        <ele>1263.7902832031</ele>
        <time>2011-05-07T15:08:27Z</time>
      </trkpt>
      <trkpt lat="45.00315" lon="5.50988">
        <ele>1262.8291015625</ele>
        <time>2011-05-07T15:08:33Z</time>
      </trkpt>
      <trkpt lat="45.00325" lon="5.50993">
        <ele>1261.8679199219</ele>
        <time>2011-05-07T15:08:38Z</time>
      </trkpt>
      <trkpt lat="45.0033" lon="5.50991">
        <ele>1261.3872070312</ele>
        <time>2011-05-07T15:08:49Z</time>
      </trkpt>
      <trkpt lat="45.00328" lon="5.51007">
        <ele>1263.3098144531</ele>
        <time>2011-05-07T15:09:16Z</time>
      </trkpt>
      <trkpt lat="45.00339" lon="5.51014">
        <ele>1259.4643554688</ele>
        <time>2011-05-07T15:09:38Z</time>
      </trkpt>
      <trkpt lat="45.00349" lon="5.5101">
        <ele>1258.5029296875</ele>
        <time>2011-05-07T15:09:49Z</time>
      </trkpt>
      <trkpt lat="45.00518" lon="5.51087">
        <ele>1255.1384277344</ele>
        <time>2011-05-07T15:10:54Z</time>
      </trkpt>
      <trkpt lat="45.00612" lon="5.51119">
        <ele>1247.9287109375</ele>
        <time>2011-05-07T15:11:19Z</time>
      </trkpt>
      <trkpt lat="45.00632" lon="5.51131">
        <ele>1245.0446777344</ele>
        <time>2011-05-07T15:11:25Z</time>
      </trkpt>
      <trkpt lat="45.00665" lon="5.51123">
        <ele>1244.0834960938</ele>
        <time>2011-05-07T15:11:31Z</time>
      </trkpt>
      <trkpt lat="45.00726" lon="5.51085">
        <ele>1243.6025390625</ele>
        <time>2011-05-07T15:11:41Z</time>
      </trkpt>
      <trkpt lat="45.00776" lon="5.5105">
        <ele>1239.2766113281</ele>
        <time>2011-05-07T15:11:51Z</time>
      </trkpt>
      <trkpt lat="45.00799" lon="5.51059">
        <ele>1237.3540039062</ele>
        <time>2011-05-07T15:11:56Z</time>
      </trkpt>
      <trkpt lat="45.00805" lon="5.51064">
        <ele>1235.4313964844</ele>
        <time>2011-05-07T15:11:58Z</time>
      </trkpt>
      <trkpt lat="45.00828" lon="5.5106">
        <ele>1235.4313964844</ele>
        <time>2011-05-07T15:12:03Z</time>
      </trkpt>
      <trkpt lat="45.00903" lon="5.51013">
        <ele>1235.912109375</ele>
        <time>2011-05-07T15:12:23Z</time>
      </trkpt>
      <trkpt lat="45.0097" lon="5.50952">
        <ele>1229.6635742188</ele>
        <time>2011-05-07T15:12:50Z</time>
      </trkpt>
      <trkpt lat="45.01017" lon="5.50933">
        <ele>1233.9895019531</ele>
        <time>2011-05-07T15:13:10Z</time>
      </trkpt>
      <trkpt lat="45.01078" lon="5.50927">
        <ele>1233.9895019531</ele>
        <time>2011-05-07T15:13:30Z</time>
      </trkpt>
      <trkpt lat="45.0109" lon="5.50935">
        <ele>1230.625</ele>
        <time>2011-05-07T15:13:33Z</time>
      </trkpt>
      <trkpt lat="45.01157" lon="5.50993">
        <ele>1226.298828125</ele>
        <time>2011-05-07T15:13:50Z</time>
      </trkpt>
      <trkpt lat="45.01189" lon="5.51009">
        <ele>1223.8955078125</ele>
        <time>2011-05-07T15:13:55Z</time>
      </trkpt>
      <trkpt lat="45.01208" lon="5.51012">
        <ele>1221.9729003906</ele>
        <time>2011-05-07T15:13:58Z</time>
      </trkpt>
      <trkpt lat="45.01299" lon="5.51026">
        <ele>1214.7631835938</ele>
        <time>2011-05-07T15:14:13Z</time>
      </trkpt>
      <trkpt lat="45.01373" lon="5.51118">
        <ele>1216.205078125</ele>
        <time>2011-05-07T15:14:42Z</time>
      </trkpt>
      <trkpt lat="45.01397" lon="5.51144">
        <ele>1214.2824707031</ele>
        <time>2011-05-07T15:14:50Z</time>
      </trkpt>
      <trkpt lat="45.01707" lon="5.51412">
        <ele>1203.7080078125</ele>
        <time>2011-05-07T15:16:01Z</time>
      </trkpt>
      <trkpt lat="45.01807" lon="5.5146">
        <ele>1197.9401855469</ele>
        <time>2011-05-07T15:16:10Z</time>
      </trkpt>
      <trkpt lat="45.01816" lon="5.51463">
        <ele>1196.4982910156</ele>
        <time>2011-05-07T15:16:12Z</time>
      </trkpt>
      <trkpt lat="45.0187" lon="5.51492">
        <ele>1190.7299804688</ele>
        <time>2011-05-07T15:16:28Z</time>
      </trkpt>
      <trkpt lat="45.01907" lon="5.51534">
        <ele>1184.0009765625</ele>
        <time>2011-05-07T15:16:44Z</time>
      </trkpt>
      <trkpt lat="45.01916" lon="5.5154">
        <ele>1181.1171875</ele>
        <time>2011-05-07T15:16:50Z</time>
      </trkpt>
      <trkpt lat="45.01936" lon="5.51542">
        <ele>1179.6748046875</ele>
        <time>2011-05-07T15:16:54Z</time>
      </trkpt>
      <trkpt lat="45.02023" lon="5.5154">
        <ele>1176.791015625</ele>
        <time>2011-05-07T15:17:08Z</time>
      </trkpt>
      <trkpt lat="45.02074" lon="5.51567">
        <ele>1174.8684082031</ele>
        <time>2011-05-07T15:17:16Z</time>
      </trkpt>
      <trkpt lat="45.0209" lon="5.51609">
        <ele>1174.3876953125</ele>
        <time>2011-05-07T15:17:21Z</time>
      </trkpt>
      <trkpt lat="45.02098" lon="5.51632">
        <ele>1171.984375</ele>
        <time>2011-05-07T15:17:25Z</time>
      </trkpt>
      <trkpt lat="45.02122" lon="5.51661">
        <ele>1168.6198730469</ele>
        <time>2011-05-07T15:17:32Z</time>
      </trkpt>
      <trkpt lat="45.02152" lon="5.51674">
        <ele>1167.6584472656</ele>
        <time>2011-05-07T15:17:36Z</time>
      </trkpt>
      <trkpt lat="45.02223" lon="5.51714">
        <ele>1164.7746582031</ele>
        <time>2011-05-07T15:17:46Z</time>
      </trkpt>
      <trkpt lat="45.02325" lon="5.51753">
        <ele>1159.9677734375</ele>
        <time>2011-05-07T15:18:00Z</time>
      </trkpt>
      <trkpt lat="45.02334" lon="5.51756">
        <ele>1159.9677734375</ele>
        <time>2011-05-07T15:18:02Z</time>
      </trkpt>
      <trkpt lat="45.02341" lon="5.51751">
        <ele>1159.0065917969</ele>
        <time>2011-05-07T15:18:04Z</time>
      </trkpt>
      <trkpt lat="45.02354" lon="5.51749">
        <ele>1159.0065917969</ele>
        <time>2011-05-07T15:18:07Z</time>
      </trkpt>
      <trkpt lat="45.02414" lon="5.51758">
        <ele>1153.2387695312</ele>
        <time>2011-05-07T15:18:22Z</time>
      </trkpt>
      <trkpt lat="45.02447" lon="5.51785">
        <ele>1147.470703125</ele>
        <time>2011-05-07T15:18:36Z</time>
      </trkpt>
      <trkpt lat="45.02456" lon="5.51786">
        <ele>1146.9899902344</ele>
        <time>2011-05-07T15:18:48Z</time>
      </trkpt>
      <trkpt lat="45.02456" lon="5.51785">
        <ele>1146.9899902344</ele>
        <time>2011-05-07T15:18:49Z</time>
      </trkpt>
      <trkpt lat="45.02472" lon="5.51764">
        <ele>1140.2609863281</ele>
        <time>2011-05-07T15:19:04Z</time>
      </trkpt>
      <trkpt lat="45.0247" lon="5.51762">
        <ele>1133.0510253906</ele>
        <time>2011-05-07T15:19:28Z</time>
      </trkpt>
      <trkpt lat="45.02472" lon="5.51763">
        <ele>1131.1284179688</ele>
        <time>2011-05-07T15:19:40Z</time>
      </trkpt>
      <trkpt lat="45.02475" lon="5.51763">
        <ele>1131.1284179688</ele>
        <time>2011-05-07T15:19:42Z</time>
      </trkpt>
      <trkpt lat="45.02491" lon="5.51774">
        <ele>1131.1284179688</ele>
        <time>2011-05-07T15:19:46Z</time>
      </trkpt>
      <trkpt lat="45.02514" lon="5.51805">
        <ele>1133.5317382812</ele>
        <time>2011-05-07T15:19:55Z</time>
      </trkpt>
      <trkpt lat="45.02517" lon="5.51807">
        <ele>1148.4321289062</ele>
        <time>2011-05-07T15:20:21Z</time>
      </trkpt>
      <trkpt lat="45.02523" lon="5.51818">
        <ele>1144.5866699219</ele>
        <time>2011-05-07T15:20:31Z</time>
      </trkpt>
      <trkpt lat="45.02536" lon="5.5184">
        <ele>1144.5866699219</ele>
        <time>2011-05-07T15:20:35Z</time>
      </trkpt>
      <trkpt lat="45.02613" lon="5.51982">
        <ele>1134.9738769531</ele>
        <time>2011-05-07T15:20:58Z</time>
      </trkpt>
      <trkpt lat="45.02614" lon="5.52005">
        <ele>1133.0510253906</ele>
        <time>2011-05-07T15:21:07Z</time>
      </trkpt>
      <trkpt lat="45.02641" lon="5.52059">
        <ele>1132.08984375</ele>
        <time>2011-05-07T15:21:16Z</time>
      </trkpt>
      <trkpt lat="45.02713" lon="5.52093">
        <ele>1126.3217773438</ele>
        <time>2011-05-07T15:21:27Z</time>
      </trkpt>
      <trkpt lat="45.02768" lon="5.52156">
        <ele>1121.9958496094</ele>
        <time>2011-05-07T15:21:39Z</time>
      </trkpt>
      <trkpt lat="45.02797" lon="5.5218">
        <ele>1118.1506347656</ele>
        <time>2011-05-07T15:21:47Z</time>
      </trkpt>
      <trkpt lat="45.02811" lon="5.52158">
        <ele>1117.669921875</ele>
        <time>2011-05-07T15:21:53Z</time>
      </trkpt>
      <trkpt lat="45.02826" lon="5.52105">
        <ele>1118.6313476562</ele>
        <time>2011-05-07T15:22:02Z</time>
      </trkpt>
      <trkpt lat="45.02839" lon="5.52086">
        <ele>1118.6313476562</ele>
        <time>2011-05-07T15:22:06Z</time>
      </trkpt>
      <trkpt lat="45.02852" lon="5.52078">
        <ele>1118.1506347656</ele>
        <time>2011-05-07T15:22:09Z</time>
      </trkpt>
      <trkpt lat="45.02901" lon="5.52094">
        <ele>1116.2280273438</ele>
        <time>2011-05-07T15:22:23Z</time>
      </trkpt>
      <trkpt lat="45.02958" lon="5.52132">
        <ele>1114.7858886719</ele>
        <time>2011-05-07T15:22:38Z</time>
      </trkpt>
      <trkpt lat="45.02975" lon="5.52148">
        <ele>1114.3051757812</ele>
        <time>2011-05-07T15:22:42Z</time>
      </trkpt>
      <trkpt lat="45.03022" lon="5.52188">
        <ele>1113.8244628906</ele>
        <time>2011-05-07T15:22:53Z</time>
      </trkpt>
      <trkpt lat="45.03072" lon="5.52226">
        <ele>1114.3051757812</ele>
        <time>2011-05-07T15:23:04Z</time>
      </trkpt>
      <trkpt lat="45.03081" lon="5.52233">
        <ele>1113.8244628906</ele>
        <time>2011-05-07T15:23:06Z</time>
      </trkpt>
      <trkpt lat="45.03129" lon="5.5227">
        <ele>1112.3825683594</ele>
        <time>2011-05-07T15:23:15Z</time>
      </trkpt>
      <trkpt lat="45.03204" lon="5.52285">
        <ele>1108.5373535156</ele>
        <time>2011-05-07T15:23:31Z</time>
      </trkpt>
      <trkpt lat="45.03236" lon="5.52288">
        <ele>1108.5373535156</ele>
        <time>2011-05-07T15:23:46Z</time>
      </trkpt>
      <trkpt lat="45.03272" lon="5.52294">
        <ele>1108.5373535156</ele>
        <time>2011-05-07T15:24:03Z</time>
      </trkpt>
      <trkpt lat="45.03319" lon="5.52302">
        <ele>1108.0568847656</ele>
        <time>2011-05-07T15:24:23Z</time>
      </trkpt>
      <trkpt lat="45.03356" lon="5.523">
        <ele>1107.0954589844</ele>
        <time>2011-05-07T15:24:44Z</time>
      </trkpt>
      <trkpt lat="45.03356" lon="5.523">
        <ele>1107.576171875</ele>
        <time>2011-05-07T15:24:46Z</time>
      </trkpt>
      <trkpt lat="45.03365" lon="5.52303">
        <ele>1108.5373535156</ele>
        <time>2011-05-07T15:24:50Z</time>
      </trkpt>
      <trkpt lat="45.03403" lon="5.52327">
        <ele>1110.4599609375</ele>
        <time>2011-05-07T15:25:06Z</time>
      </trkpt>
      <trkpt lat="45.03444" lon="5.5235">
        <ele>1108.5373535156</ele>
        <time>2011-05-07T15:25:24Z</time>
      </trkpt>
      <trkpt lat="45.03521" lon="5.52475">
        <ele>1110.4599609375</ele>
        <time>2011-05-07T15:26:03Z</time>
      </trkpt>
      <trkpt lat="45.03556" lon="5.5252">
        <ele>1111.4213867188</ele>
        <time>2011-05-07T15:26:18Z</time>
      </trkpt>
      <trkpt lat="45.03582" lon="5.52566">
        <ele>1105.6535644531</ele>
        <time>2011-05-07T15:26:26Z</time>
      </trkpt>
      <trkpt lat="45.03591" lon="5.52575">
        <ele>1105.1728515625</ele>
        <time>2011-05-07T15:26:29Z</time>
      </trkpt>
      <trkpt lat="45.03638" lon="5.52585">
        <ele>1105.1728515625</ele>
        <time>2011-05-07T15:26:47Z</time>
      </trkpt>
      <trkpt lat="45.03696" lon="5.52615">
        <ele>1104.6921386719</ele>
        <time>2011-05-07T15:27:11Z</time>
      </trkpt>
      <trkpt lat="45.037" lon="5.52611">
        <ele>1104.2116699219</ele>
        <time>2011-05-07T15:27:23Z</time>
      </trkpt>
      <trkpt lat="45.03716" lon="5.52607">
        <ele>1102.2888183594</ele>
        <time>2011-05-07T15:27:38Z</time>
      </trkpt>
      <trkpt lat="45.03765" lon="5.52606">
        <ele>1106.1340332031</ele>
        <time>2011-05-07T15:27:56Z</time>
      </trkpt>
      <trkpt lat="45.03823" lon="5.52594">
        <ele>1106.1340332031</ele>
        <time>2011-05-07T15:28:18Z</time>
      </trkpt>
      <trkpt lat="45.03931" lon="5.52552">
        <ele>1111.9020996094</ele>
        <time>2011-05-07T15:28:59Z</time>
      </trkpt>
      <trkpt lat="45.03959" lon="5.52533">
        <ele>1112.86328125</ele>
        <time>2011-05-07T15:29:14Z</time>
      </trkpt>
      <trkpt lat="45.0396" lon="5.52533">
        <ele>1116.2280273438</ele>
        <time>2011-05-07T15:29:32Z</time>
      </trkpt>
      <trkpt lat="45.03978" lon="5.52523">
        <ele>1117.669921875</ele>
        <time>2011-05-07T15:29:45Z</time>
      </trkpt>
      <trkpt lat="45.04002" lon="5.52511">
        <ele>1120.5539550781</ele>
        <time>2011-05-07T15:30:00Z</time>
      </trkpt>
      <trkpt lat="45.04006" lon="5.52512">
        <ele>1121.0346679688</ele>
        <time>2011-05-07T15:30:03Z</time>
      </trkpt>
      <trkpt lat="45.04027" lon="5.52506">
        <ele>1121.9958496094</ele>
        <time>2011-05-07T15:30:17Z</time>
      </trkpt>
      <trkpt lat="45.04033" lon="5.52506">
        <ele>1122.9572753906</ele>
        <time>2011-05-07T15:30:21Z</time>
      </trkpt>
      <trkpt lat="45.04038" lon="5.52507">
        <ele>1123.9184570312</ele>
        <time>2011-05-07T15:30:25Z</time>
      </trkpt>
      <trkpt lat="45.04082" lon="5.52499">
        <ele>1122.9572753906</ele>
        <time>2011-05-07T15:30:47Z</time>
      </trkpt>
      <trkpt lat="45.04124" lon="5.52494">
        <ele>1127.283203125</ele>
        <time>2011-05-07T15:31:07Z</time>
      </trkpt>
      <trkpt lat="45.04161" lon="5.52484">
        <ele>1128.7250976562</ele>
        <time>2011-05-07T15:31:23Z</time>
      </trkpt>
      <trkpt lat="45.04201" lon="5.52481">
        <ele>1132.08984375</ele>
        <time>2011-05-07T15:31:41Z</time>
      </trkpt>
      <trkpt lat="45.04243" lon="5.52481">
        <ele>1131.6088867188</ele>
        <time>2011-05-07T15:31:58Z</time>
      </trkpt>
      <trkpt lat="45.04291" lon="5.52492">
        <ele>1132.5705566406</ele>
        <time>2011-05-07T15:32:18Z</time>
      </trkpt>
      <trkpt lat="45.04323" lon="5.52501">
        <ele>1135.4543457031</ele>
        <time>2011-05-07T15:32:32Z</time>
      </trkpt>
      <trkpt lat="45.04371" lon="5.52518">
        <ele>1139.2995605469</ele>
        <time>2011-05-07T15:32:53Z</time>
      </trkpt>
      <trkpt lat="45.04412" lon="5.52528">
        <ele>1141.2221679688</ele>
        <time>2011-05-07T15:33:13Z</time>
      </trkpt>
      <trkpt lat="45.04454" lon="5.52546">
        <ele>1145.5480957031</ele>
        <time>2011-05-07T15:33:32Z</time>
      </trkpt>
      <trkpt lat="45.04472" lon="5.52556">
        <ele>1147.470703125</ele>
        <time>2011-05-07T15:33:51Z</time>
      </trkpt>
      <trkpt lat="45.04488" lon="5.52563">
        <ele>1149.8742675781</ele>
        <time>2011-05-07T15:34:08Z</time>
      </trkpt>
      <trkpt lat="45.04515" lon="5.52572">
        <ele>1150.8354492188</ele>
        <time>2011-05-07T15:34:24Z</time>
      </trkpt>
      <trkpt lat="45.04551" lon="5.5258">
        <ele>1150.8354492188</ele>
        <time>2011-05-07T15:34:45Z</time>
      </trkpt>
      <trkpt lat="45.04584" lon="5.52587">
        <ele>1154.2001953125</ele>
        <time>2011-05-07T15:35:02Z</time>
      </trkpt>
      <trkpt lat="45.04618" lon="5.52592">
        <ele>1159.0065917969</ele>
        <time>2011-05-07T15:35:21Z</time>
      </trkpt>
      <trkpt lat="45.04643" lon="5.52595">
        <ele>1162.37109375</ele>
        <time>2011-05-07T15:35:36Z</time>
      </trkpt>
      <trkpt lat="45.04684" lon="5.526">
        <ele>1168.1391601562</ele>
        <time>2011-05-07T15:35:58Z</time>
      </trkpt>
      <trkpt lat="45.0472" lon="5.52603">
        <ele>1171.0231933594</ele>
        <time>2011-05-07T15:36:17Z</time>
      </trkpt>
      <trkpt lat="45.04757" lon="5.52616">
        <ele>1173.4265136719</ele>
        <time>2011-05-07T15:36:37Z</time>
      </trkpt>
      <trkpt lat="45.0484" lon="5.52651">
        <ele>1175.8295898438</ele>
        <time>2011-05-07T15:37:29Z</time>
      </trkpt>
      <trkpt lat="45.04877" lon="5.52678">
        <ele>1180.6364746094</ele>
        <time>2011-05-07T15:37:51Z</time>
      </trkpt>
      <trkpt lat="45.04913" lon="5.5269">
        <ele>1183.0395507812</ele>
        <time>2011-05-07T15:38:12Z</time>
      </trkpt>
      <trkpt lat="45.04949" lon="5.52683">
        <ele>1186.404296875</ele>
        <time>2011-05-07T15:38:36Z</time>
      </trkpt>
      <trkpt lat="45.04983" lon="5.52672">
        <ele>1190.7299804688</ele>
        <time>2011-05-07T15:38:59Z</time>
      </trkpt>
      <trkpt lat="45.05013" lon="5.5267">
        <ele>1191.69140625</ele>
        <time>2011-05-07T15:39:22Z</time>
      </trkpt>
      <trkpt lat="45.05041" lon="5.52664">
        <ele>1197.9401855469</ele>
        <time>2011-05-07T15:39:41Z</time>
      </trkpt>
      <trkpt lat="45.05068" lon="5.52659">
        <ele>1201.3046875</ele>
        <time>2011-05-07T15:39:58Z</time>
      </trkpt>
      <trkpt lat="45.05097" lon="5.52656">
        <ele>1204.6691894531</ele>
        <time>2011-05-07T15:40:18Z</time>
      </trkpt>
      <trkpt lat="45.05124" lon="5.52657">
        <ele>1206.591796875</ele>
        <time>2011-05-07T15:40:35Z</time>
      </trkpt>
      <trkpt lat="45.0516" lon="5.52655">
        <ele>1210.9177246094</ele>
        <time>2011-05-07T15:40:57Z</time>
      </trkpt>
      <trkpt lat="45.05221" lon="5.52669">
        <ele>1210.9177246094</ele>
        <time>2011-05-07T15:41:41Z</time>
      </trkpt>
      <trkpt lat="45.05251" lon="5.52672">
        <ele>1207.0725097656</ele>
        <time>2011-05-07T15:41:58Z</time>
      </trkpt>
      <trkpt lat="45.05279" lon="5.52663">
        <ele>1212.8405761719</ele>
        <time>2011-05-07T15:42:21Z</time>
      </trkpt>
      <trkpt lat="45.05311" lon="5.5263">
        <ele>1214.7631835938</ele>
        <time>2011-05-07T15:42:50Z</time>
      </trkpt>
      <trkpt lat="45.05332" lon="5.52595">
        <ele>1218.6083984375</ele>
        <time>2011-05-07T15:43:09Z</time>
      </trkpt>
      <trkpt lat="45.05333" lon="5.52593">
        <ele>1218.6083984375</ele>
        <time>2011-05-07T15:43:10Z</time>
      </trkpt>
      <trkpt lat="45.05334" lon="5.52588">
        <ele>1225.3374023438</ele>
        <time>2011-05-07T15:43:29Z</time>
      </trkpt>
      <trkpt lat="45.05337" lon="5.52585">
        <ele>1231.5861816406</ele>
        <time>2011-05-07T15:43:51Z</time>
      </trkpt>
      <trkpt lat="45.05337" lon="5.52583">
        <ele>1232.5476074219</ele>
        <time>2011-05-07T15:44:22Z</time>
      </trkpt>
      <trkpt lat="45.05338" lon="5.52582">
        <ele>1236.3928222656</ele>
        <time>2011-05-07T15:44:53Z</time>
      </trkpt>
      <trkpt lat="45.05339" lon="5.5258">
        <ele>1239.2766113281</ele>
        <time>2011-05-07T15:45:26Z</time>
      </trkpt>
      <trkpt lat="45.05338" lon="5.5258">
        <ele>1235.912109375</ele>
        <time>2011-05-07T15:45:32Z</time>
      </trkpt>
      <trkpt lat="45.05338" lon="5.52581">
        <ele>1237.3540039062</ele>
        <time>2011-05-07T15:45:35Z</time>
      </trkpt>
      <trkpt lat="45.05369" lon="5.52611">
        <ele>1235.912109375</ele>
        <time>2011-05-07T15:45:49Z</time>
      </trkpt>
      <trkpt lat="45.05398" lon="5.52636">
        <ele>1233.0280761719</ele>
        <time>2011-05-07T15:45:57Z</time>
      </trkpt>
      <trkpt lat="45.05408" lon="5.52641">
        <ele>1232.5476074219</ele>
        <time>2011-05-07T15:45:59Z</time>
      </trkpt>
      <trkpt lat="45.05426" lon="5.5265">
        <ele>1231.1057128906</ele>
        <time>2011-05-07T15:46:03Z</time>
      </trkpt>
      <trkpt lat="45.05445" lon="5.52654">
        <ele>1230.1442871094</ele>
        <time>2011-05-07T15:46:08Z</time>
      </trkpt>
      <trkpt lat="45.05491" lon="5.52648">
        <ele>1228.7023925781</ele>
        <time>2011-05-07T15:46:15Z</time>
      </trkpt>
      <trkpt lat="45.05514" lon="5.52655">
        <ele>1228.2216796875</ele>
        <time>2011-05-07T15:46:18Z</time>
      </trkpt>
      <trkpt lat="45.05538" lon="5.52676">
        <ele>1227.2602539062</ele>
        <time>2011-05-07T15:46:22Z</time>
      </trkpt>
      <trkpt lat="45.0556" lon="5.52707">
        <ele>1225.3374023438</ele>
        <time>2011-05-07T15:46:26Z</time>
      </trkpt>
      <trkpt lat="45.05597" lon="5.52722">
        <ele>1223.8955078125</ele>
        <time>2011-05-07T15:46:31Z</time>
      </trkpt>
      <trkpt lat="45.05633" lon="5.5271">
        <ele>1224.3762207031</ele>
        <time>2011-05-07T15:46:37Z</time>
      </trkpt>
      <trkpt lat="45.05697" lon="5.5269">
        <ele>1220.0502929688</ele>
        <time>2011-05-07T15:46:52Z</time>
      </trkpt>
      <trkpt lat="45.05709" lon="5.52686">
        <ele>1217.1665039062</ele>
        <time>2011-05-07T15:47:00Z</time>
      </trkpt>
      <trkpt lat="45.05713" lon="5.52685">
        <ele>1216.6857910156</ele>
        <time>2011-05-07T15:47:01Z</time>
      </trkpt>
      <trkpt lat="45.05748" lon="5.52696">
        <ele>1212.3598632812</ele>
        <time>2011-05-07T15:47:06Z</time>
      </trkpt>
      <trkpt lat="45.05774" lon="5.52711">
        <ele>1209.4758300781</ele>
        <time>2011-05-07T15:47:09Z</time>
      </trkpt>
      <trkpt lat="45.05812" lon="5.52718">
        <ele>1207.5532226562</ele>
        <time>2011-05-07T15:47:13Z</time>
      </trkpt>
      <trkpt lat="45.05927" lon="5.52738">
        <ele>1204.6691894531</ele>
        <time>2011-05-07T15:47:27Z</time>
      </trkpt>
      <trkpt lat="45.05943" lon="5.52747">
        <ele>1203.7080078125</ele>
        <time>2011-05-07T15:47:29Z</time>
      </trkpt>
      <trkpt lat="45.05994" lon="5.52778">
        <ele>1201.7854003906</ele>
        <time>2011-05-07T15:47:35Z</time>
      </trkpt>
      <trkpt lat="45.06082" lon="5.52812">
        <ele>1201.3046875</ele>
        <time>2011-05-07T15:47:48Z</time>
      </trkpt>
      <trkpt lat="45.06148" lon="5.52853">
        <ele>1199.8627929688</ele>
        <time>2011-05-07T15:47:58Z</time>
      </trkpt>
      <trkpt lat="45.06164" lon="5.52883">
        <ele>1197.4594726562</ele>
        <time>2011-05-07T15:48:06Z</time>
      </trkpt>
      <trkpt lat="45.06164" lon="5.52888">
        <ele>1197.4594726562</ele>
        <time>2011-05-07T15:48:08Z</time>
      </trkpt>
      <trkpt lat="45.06254" lon="5.53032">
        <ele>1194.5751953125</ele>
        <time>2011-05-07T15:49:09Z</time>
      </trkpt>
      <trkpt lat="45.06277" lon="5.53073">
        <ele>1194.0947265625</ele>
        <time>2011-05-07T15:49:48Z</time>
      </trkpt>
      <trkpt lat="45.06274" lon="5.53113">
        <ele>1194.0947265625</ele>
        <time>2011-05-07T15:50:13Z</time>
      </trkpt>
      <trkpt lat="45.06265" lon="5.53193">
        <ele>1191.69140625</ele>
        <time>2011-05-07T15:51:01Z</time>
      </trkpt>
      <trkpt lat="45.06255" lon="5.53212">
        <ele>1190.2495117188</ele>
        <time>2011-05-07T15:51:25Z</time>
      </trkpt>
      <trkpt lat="45.06256" lon="5.53231">
        <ele>1190.2495117188</ele>
        <time>2011-05-07T15:51:29Z</time>
      </trkpt>
      <trkpt lat="45.06252" lon="5.53242">
        <ele>1189.2880859375</ele>
        <time>2011-05-07T15:51:32Z</time>
      </trkpt>
      <trkpt lat="45.06287" lon="5.53429">
        <ele>1189.7687988281</ele>
        <time>2011-05-07T15:52:06Z</time>
      </trkpt>
      <trkpt lat="45.06517" lon="5.53577">
        <ele>1191.2106933594</ele>
        <time>2011-05-07T15:56:05Z</time>
      </trkpt>
      <trkpt lat="45.06574" lon="5.53587">
        <ele>1191.69140625</ele>
        <time>2011-05-07T15:56:59Z</time>
      </trkpt>
      <trkpt lat="45.06692" lon="5.53778">
        <ele>1041.7258300781</ele>
        <time>2011-05-07T15:57:01Z</time>
      </trkpt>
      <trkpt lat="45.06739" lon="5.53781">
        <ele>1041.7258300781</ele>
        <time>2011-05-07T15:57:07Z</time>
      </trkpt>
      <trkpt lat="45.07048" lon="5.53967">
        <ele>1042.2065429688</ele>
        <time>2011-05-07T15:57:42Z</time>
      </trkpt>
      <trkpt lat="45.07113" lon="5.54086">
        <ele>1034.03515625</ele>
        <time>2011-05-07T15:57:52Z</time>
      </trkpt>
      <trkpt lat="45.07162" lon="5.54223">
        <ele>1027.7866210938</ele>
        <time>2011-05-07T15:58:02Z</time>
      </trkpt>
      <trkpt lat="45.07206" lon="5.54356">
        <ele>1024.4221191406</ele>
        <time>2011-05-07T15:58:13Z</time>
      </trkpt>
      <trkpt lat="45.0714" lon="5.54466">
        <ele>1019.6154785156</ele>
        <time>2011-05-07T15:58:29Z</time>
      </trkpt>
      <trkpt lat="45.07104" lon="5.54489">
        <ele>1016.2507324219</ele>
        <time>2011-05-07T15:58:34Z</time>
      </trkpt>
      <trkpt lat="45.06794" lon="5.54532">
        <ele>1005.1958007812</ele>
        <time>2011-05-07T15:59:07Z</time>
      </trkpt>
      <trkpt lat="45.06701" lon="5.54577">
        <ele>1001.8310546875</ele>
        <time>2011-05-07T15:59:19Z</time>
      </trkpt>
      <trkpt lat="45.06693" lon="5.54584">
        <ele>1001.8310546875</ele>
        <time>2011-05-07T15:59:21Z</time>
      </trkpt>
      <trkpt lat="45.06691" lon="5.5459">
        <ele>1000.3891601562</ele>
        <time>2011-05-07T15:59:24Z</time>
      </trkpt>
      <trkpt lat="45.06696" lon="5.54586">
        <ele>995.58251953125</ele>
        <time>2011-05-07T15:59:37Z</time>
      </trkpt>
      <trkpt lat="45.067" lon="5.54584">
        <ele>972.99169921875</ele>
        <time>2011-05-07T16:00:16Z</time>
      </trkpt>
      <trkpt lat="45.06702" lon="5.54585">
        <ele>989.81469726562</ele>
        <time>2011-05-07T16:00:52Z</time>
      </trkpt>
      <trkpt lat="45.06703" lon="5.54585">
        <ele>999.427734375</ele>
        <time>2011-05-07T16:01:28Z</time>
      </trkpt>
      <trkpt lat="45.0671" lon="5.5458">
        <ele>992.21801757812</ele>
        <time>2011-05-07T16:01:58Z</time>
      </trkpt>
      <trkpt lat="45.06714" lon="5.54581">
        <ele>981.64331054688</ele>
        <time>2011-05-07T16:02:32Z</time>
      </trkpt>
      <trkpt lat="45.06713" lon="5.54597">
        <ele>979.23999023438</ele>
        <time>2011-05-07T16:02:45Z</time>
      </trkpt>
      <trkpt lat="45.06721" lon="5.54638">
        <ele>980.68212890625</ele>
        <time>2011-05-07T16:03:04Z</time>
      </trkpt>
      <trkpt lat="45.06723" lon="5.54651">
        <ele>982.60473632812</ele>
        <time>2011-05-07T16:03:25Z</time>
      </trkpt>
      <trkpt lat="45.06742" lon="5.54701">
        <ele>984.52734375</ele>
        <time>2011-05-07T16:03:47Z</time>
      </trkpt>
      <trkpt lat="45.0675" lon="5.54749">
        <ele>983.08520507812</ele>
        <time>2011-05-07T16:04:03Z</time>
      </trkpt>
      <trkpt lat="45.0674" lon="5.54764">
        <ele>982.60473632812</ele>
        <time>2011-05-07T16:04:12Z</time>
      </trkpt>
      <trkpt lat="45.06699" lon="5.54777">
        <ele>984.52734375</ele>
        <time>2011-05-07T16:04:35Z</time>
      </trkpt>
      <trkpt lat="45.06674" lon="5.54785">
        <ele>987.89184570312</ele>
        <time>2011-05-07T16:04:51Z</time>
      </trkpt>
      <trkpt lat="45.06641" lon="5.54786">
        <ele>991.7373046875</ele>
        <time>2011-05-07T16:05:09Z</time>
      </trkpt>
      <trkpt lat="45.06634" lon="5.54791">
        <ele>991.7373046875</ele>
        <time>2011-05-07T16:05:26Z</time>
      </trkpt>
      <trkpt lat="45.06637" lon="5.54795">
        <ele>992.69873046875</ele>
        <time>2011-05-07T16:05:45Z</time>
      </trkpt>
      <trkpt lat="45.06637" lon="5.548">
        <ele>993.65991210938</ele>
        <time>2011-05-07T16:06:05Z</time>
      </trkpt>
      <trkpt lat="45.0663" lon="5.54812">
        <ele>984.04663085938</ele>
        <time>2011-05-07T16:06:20Z</time>
      </trkpt>
      <trkpt lat="45.06633" lon="5.54819">
        <ele>989.81469726562</ele>
        <time>2011-05-07T16:06:37Z</time>
      </trkpt>
      <trkpt lat="45.06636" lon="5.54825">
        <ele>992.69873046875</ele>
        <time>2011-05-07T16:06:46Z</time>
      </trkpt>
      <trkpt lat="45.06636" lon="5.54846">
        <ele>996.5439453125</ele>
        <time>2011-05-07T16:07:05Z</time>
      </trkpt>
      <trkpt lat="45.06635" lon="5.54871">
        <ele>999.427734375</ele>
        <time>2011-05-07T16:07:23Z</time>
      </trkpt>
      <trkpt lat="45.06634" lon="5.54876">
        <ele>1000.8696289062</ele>
        <time>2011-05-07T16:07:38Z</time>
      </trkpt>
      <trkpt lat="45.0663" lon="5.54898">
        <ele>1002.7922363281</ele>
        <time>2011-05-07T16:08:01Z</time>
      </trkpt>
      <trkpt lat="45.06627" lon="5.54948">
        <ele>1006.1569824219</ele>
        <time>2011-05-07T16:08:22Z</time>
      </trkpt>
      <trkpt lat="45.06625" lon="5.54979">
        <ele>1010.4829101562</ele>
        <time>2011-05-07T16:08:56Z</time>
      </trkpt>
      <trkpt lat="45.06621" lon="5.54967">
        <ele>1011.4443359375</ele>
        <time>2011-05-07T16:09:01Z</time>
      </trkpt>
      <trkpt lat="45.06601" lon="5.54941">
        <ele>1011.9250488281</ele>
        <time>2011-05-07T16:09:18Z</time>
      </trkpt>
      <trkpt lat="45.06572" lon="5.54952">
        <ele>995.58251953125</ele>
        <time>2011-05-07T16:09:33Z</time>
      </trkpt>
      <trkpt lat="45.06563" lon="5.54955">
        <ele>1000.3891601562</ele>
        <time>2011-05-07T16:09:47Z</time>
      </trkpt>
      <trkpt lat="45.06547" lon="5.54963">
        <ele>1008.0798339844</ele>
        <time>2011-05-07T16:10:00Z</time>
      </trkpt>
      <trkpt lat="45.06534" lon="5.54995">
        <ele>1018.1733398438</ele>
        <time>2011-05-07T16:10:18Z</time>
      </trkpt>
      <trkpt lat="45.06498" lon="5.55066">
        <ele>1041.2451171875</ele>
        <time>2011-05-07T16:10:35Z</time>
      </trkpt>
      <trkpt lat="45.06524" lon="5.55031">
        <ele>1014.8088378906</ele>
        <time>2011-05-07T16:10:50Z</time>
      </trkpt>
      <trkpt lat="45.06514" lon="5.55029">
        <ele>1031.1513671875</ele>
        <time>2011-05-07T16:11:07Z</time>
      </trkpt>
      <trkpt lat="45.06501" lon="5.55055">
        <ele>1032.5932617188</ele>
        <time>2011-05-07T16:11:22Z</time>
      </trkpt>
      <trkpt lat="45.06489" lon="5.55086">
        <ele>1035.9577636719</ele>
        <time>2011-05-07T16:11:39Z</time>
      </trkpt>
      <trkpt lat="45.06471" lon="5.5512">
        <ele>1038.361328125</ele>
        <time>2011-05-07T16:11:59Z</time>
      </trkpt>
      <trkpt lat="45.06454" lon="5.55155">
        <ele>1041.2451171875</ele>
        <time>2011-05-07T16:12:20Z</time>
      </trkpt>
      <trkpt lat="45.06437" lon="5.55169">
        <ele>1042.6872558594</ele>
        <time>2011-05-07T16:12:33Z</time>
      </trkpt>
      <trkpt lat="45.06412" lon="5.552">
        <ele>1044.1291503906</ele>
        <time>2011-05-07T16:12:54Z</time>
      </trkpt>
      <trkpt lat="45.06385" lon="5.55243">
        <ele>1045.5710449219</ele>
        <time>2011-05-07T16:13:15Z</time>
      </trkpt>
      <trkpt lat="45.06355" lon="5.55271">
        <ele>1047.4936523438</ele>
        <time>2011-05-07T16:13:35Z</time>
      </trkpt>
      <trkpt lat="45.06324" lon="5.55282">
        <ele>1049.8969726562</ele>
        <time>2011-05-07T16:13:54Z</time>
      </trkpt>
      <trkpt lat="45.06281" lon="5.55312">
        <ele>1050.3776855469</ele>
        <time>2011-05-07T16:14:17Z</time>
      </trkpt>
      <trkpt lat="45.06239" lon="5.55361">
        <ele>1049.4162597656</ele>
        <time>2011-05-07T16:14:35Z</time>
      </trkpt>
      <trkpt lat="45.0624" lon="5.55407">
        <ele>1052.3002929688</ele>
        <time>2011-05-07T16:14:53Z</time>
      </trkpt>
      <trkpt lat="45.0623" lon="5.55442">
        <ele>1054.7036132812</ele>
        <time>2011-05-07T16:15:11Z</time>
      </trkpt>
      <trkpt lat="45.06198" lon="5.55472">
        <ele>1060.4714355469</ele>
        <time>2011-05-07T16:15:33Z</time>
      </trkpt>
      <trkpt lat="45.0618" lon="5.55498">
        <ele>1059.9907226562</ele>
        <time>2011-05-07T16:15:51Z</time>
      </trkpt>
      <trkpt lat="45.06169" lon="5.55531">
        <ele>1060.9521484375</ele>
        <time>2011-05-07T16:16:09Z</time>
      </trkpt>
      <trkpt lat="45.06165" lon="5.55545">
        <ele>1065.2780761719</ele>
        <time>2011-05-07T16:16:28Z</time>
      </trkpt>
      <trkpt lat="45.06168" lon="5.5555">
        <ele>1063.35546875</ele>
        <time>2011-05-07T16:17:05Z</time>
      </trkpt>
      <trkpt lat="45.06168" lon="5.5555">
        <ele>1066.7199707031</ele>
        <time>2011-05-07T16:17:29Z</time>
      </trkpt>
      <trkpt lat="45.06167" lon="5.55551">
        <ele>1066.7199707031</ele>
        <time>2011-05-07T16:17:57Z</time>
      </trkpt>
      <trkpt lat="45.06165" lon="5.5555">
        <ele>1064.7973632812</ele>
        <time>2011-05-07T16:18:01Z</time>
      </trkpt>
      <trkpt lat="45.0616" lon="5.55555">
        <ele>1062.8747558594</ele>
        <time>2011-05-07T16:18:05Z</time>
      </trkpt>
      <trkpt lat="45.06112" lon="5.55611">
        <ele>1060.4714355469</ele>
        <time>2011-05-07T16:18:16Z</time>
      </trkpt>
      <trkpt lat="45.06078" lon="5.55653">
        <ele>1059.9907226562</ele>
        <time>2011-05-07T16:18:22Z</time>
      </trkpt>
      <trkpt lat="45.06066" lon="5.55655">
        <ele>1060.9521484375</ele>
        <time>2011-05-07T16:18:24Z</time>
      </trkpt>
      <trkpt lat="45.06034" lon="5.55639">
        <ele>1063.35546875</ele>
        <time>2011-05-07T16:18:34Z</time>
      </trkpt>
      <trkpt lat="45.06003" lon="5.55612">
        <ele>1064.3166503906</ele>
        <time>2011-05-07T16:18:53Z</time>
      </trkpt>
      <trkpt lat="45.0599" lon="5.55599">
        <ele>1061.9135742188</ele>
        <time>2011-05-07T16:19:03Z</time>
      </trkpt>
      <trkpt lat="45.05971" lon="5.55583">
        <ele>1064.3166503906</ele>
        <time>2011-05-07T16:19:18Z</time>
      </trkpt>
      <trkpt lat="45.05946" lon="5.55546">
        <ele>1063.8359375</ele>
        <time>2011-05-07T16:19:39Z</time>
      </trkpt>
      <trkpt lat="45.05917" lon="5.55494">
        <ele>1061.4328613281</ele>
        <time>2011-05-07T16:20:05Z</time>
      </trkpt>
      <trkpt lat="45.05916" lon="5.55486">
        <ele>1062.3940429688</ele>
        <time>2011-05-07T16:20:18Z</time>
      </trkpt>
      <trkpt lat="45.05916" lon="5.55489">
        <ele>1069.1235351562</ele>
        <time>2011-05-07T16:20:48Z</time>
      </trkpt>
      <trkpt lat="45.05914" lon="5.55489">
        <ele>1070.5654296875</ele>
        <time>2011-05-07T16:21:20Z</time>
      </trkpt>
      <trkpt lat="45.05896" lon="5.55467">
        <ele>1069.1235351562</ele>
        <time>2011-05-07T16:21:29Z</time>
      </trkpt>
      <trkpt lat="45.05883" lon="5.55387">
        <ele>1067.6811523438</ele>
        <time>2011-05-07T16:21:46Z</time>
      </trkpt>
      <trkpt lat="45.05879" lon="5.55391">
        <ele>1066.2392578125</ele>
        <time>2011-05-07T16:21:49Z</time>
      </trkpt>
      <trkpt lat="45.05874" lon="5.55401">
        <ele>1065.2780761719</ele>
        <time>2011-05-07T16:22:10Z</time>
      </trkpt>
      <trkpt lat="45.05888" lon="5.55288">
        <ele>1065.2780761719</ele>
        <time>2011-05-07T16:22:46Z</time>
      </trkpt>
      <trkpt lat="45.05891" lon="5.55277">
        <ele>1056.6262207031</ele>
        <time>2011-05-07T16:23:14Z</time>
      </trkpt>
      <trkpt lat="45.05892" lon="5.55273">
        <ele>1057.1069335938</ele>
        <time>2011-05-07T16:23:49Z</time>
      </trkpt>
      <trkpt lat="45.05896" lon="5.55268">
        <ele>1057.1069335938</ele>
        <time>2011-05-07T16:24:15Z</time>
      </trkpt>
      <trkpt lat="45.05896" lon="5.55269">
        <ele>1055.6650390625</ele>
        <time>2011-05-07T16:24:57Z</time>
      </trkpt>
      <trkpt lat="45.05899" lon="5.55278">
        <ele>1056.1455078125</ele>
        <time>2011-05-07T16:25:37Z</time>
      </trkpt>
      <trkpt lat="45.05899" lon="5.55283">
        <ele>1056.6262207031</ele>
        <time>2011-05-07T16:25:42Z</time>
      </trkpt>
      <trkpt lat="45.05899" lon="5.55294">
        <ele>1053.7424316406</ele>
        <time>2011-05-07T16:25:48Z</time>
      </trkpt>
      <trkpt lat="45.05893" lon="5.55317">
        <ele>1052.7810058594</ele>
        <time>2011-05-07T16:26:08Z</time>
      </trkpt>
      <trkpt lat="45.05893" lon="5.55322">
        <ele>1056.1455078125</ele>
        <time>2011-05-07T16:26:26Z</time>
      </trkpt>
      <trkpt lat="45.0589" lon="5.55336">
        <ele>1058.068359375</ele>
        <time>2011-05-07T16:26:43Z</time>
      </trkpt>
      <trkpt lat="45.05889" lon="5.55427">
        <ele>1058.068359375</ele>
        <time>2011-05-07T16:27:13Z</time>
      </trkpt>
      <trkpt lat="45.05891" lon="5.5547">
        <ele>1059.5102539062</ele>
        <time>2011-05-07T16:27:31Z</time>
      </trkpt>
      <trkpt lat="45.05911" lon="5.55489">
        <ele>1066.7199707031</ele>
        <time>2011-05-07T16:27:50Z</time>
      </trkpt>
      <trkpt lat="45.05912" lon="5.55538">
        <ele>1071.0461425781</ele>
        <time>2011-05-07T16:28:19Z</time>
      </trkpt>
      <trkpt lat="45.05909" lon="5.5554">
        <ele>1072.96875</ele>
        <time>2011-05-07T16:28:29Z</time>
      </trkpt>
      <trkpt lat="45.0589" lon="5.55548">
        <ele>1078.255859375</ele>
        <time>2011-05-07T16:28:46Z</time>
      </trkpt>
      <trkpt lat="45.05846" lon="5.55574">
        <ele>1081.1398925781</ele>
        <time>2011-05-07T16:29:07Z</time>
      </trkpt>
      <trkpt lat="45.05805" lon="5.55608">
        <ele>1080.1784667969</ele>
        <time>2011-05-07T16:29:28Z</time>
      </trkpt>
      <trkpt lat="45.05762" lon="5.55624">
        <ele>1080.1784667969</ele>
        <time>2011-05-07T16:29:49Z</time>
      </trkpt>
      <trkpt lat="45.05717" lon="5.55632">
        <ele>1082.1010742188</ele>
        <time>2011-05-07T16:30:05Z</time>
      </trkpt>
      <trkpt lat="45.05462" lon="5.55406">
        <ele>1083.54296875</ele>
        <time>2011-05-07T16:34:04Z</time>
      </trkpt>
      <trkpt lat="45.05433" lon="5.55405">
        <ele>1085.4658203125</ele>
        <time>2011-05-07T16:34:14Z</time>
      </trkpt>
      <trkpt lat="45.05417" lon="5.55402">
        <ele>1092.1950683594</ele>
        <time>2011-05-07T16:34:22Z</time>
      </trkpt>
      <trkpt lat="45.05391" lon="5.55341">
        <ele>1101.3276367188</ele>
        <time>2011-05-07T16:34:57Z</time>
      </trkpt>
      <trkpt lat="45.05363" lon="5.55319">
        <ele>1107.576171875</ele>
        <time>2011-05-07T16:35:22Z</time>
      </trkpt>
      <trkpt lat="45.05328" lon="5.55305">
        <ele>1122.4765625</ele>
        <time>2011-05-07T16:35:44Z</time>
      </trkpt>
      <trkpt lat="45.05263" lon="5.55285">
        <ele>1121.5151367188</ele>
        <time>2011-05-07T16:35:56Z</time>
      </trkpt>
      <trkpt lat="45.05209" lon="5.55285">
        <ele>1119.5927734375</ele>
        <time>2011-05-07T16:36:04Z</time>
      </trkpt>
      <trkpt lat="45.05174" lon="5.55253">
        <ele>1121.9958496094</ele>
        <time>2011-05-07T16:36:13Z</time>
      </trkpt>
      <trkpt lat="45.05122" lon="5.55227">
        <ele>1121.0346679688</ele>
        <time>2011-05-07T16:36:30Z</time>
      </trkpt>
      <trkpt lat="45.05072" lon="5.55192">
        <ele>1124.8798828125</ele>
        <time>2011-05-07T16:36:47Z</time>
      </trkpt>
      <trkpt lat="45.05061" lon="5.5518">
        <ele>1124.3991699219</ele>
        <time>2011-05-07T16:37:02Z</time>
      </trkpt>
      <trkpt lat="45.05061" lon="5.55181">
        <ele>1121.0346679688</ele>
        <time>2011-05-07T16:37:30Z</time>
      </trkpt>
      <trkpt lat="45.05038" lon="5.55179">
        <ele>1124.3991699219</ele>
        <time>2011-05-07T16:37:44Z</time>
      </trkpt>
      <trkpt lat="45.05011" lon="5.55187">
        <ele>1132.08984375</ele>
        <time>2011-05-07T16:38:02Z</time>
      </trkpt>
      <trkpt lat="45.04986" lon="5.55193">
        <ele>1134.4931640625</ele>
        <time>2011-05-07T16:38:19Z</time>
      </trkpt>
      <trkpt lat="45.04945" lon="5.552">
        <ele>1135.4543457031</ele>
        <time>2011-05-07T16:38:38Z</time>
      </trkpt>
      <trkpt lat="45.0491" lon="5.55201">
        <ele>1136.8962402344</ele>
        <time>2011-05-07T16:38:54Z</time>
      </trkpt>
      <trkpt lat="45.04867" lon="5.55199">
        <ele>1138.3383789062</ele>
        <time>2011-05-07T16:39:15Z</time>
      </trkpt>
      <trkpt lat="45.04837" lon="5.55222">
        <ele>1138.8190917969</ele>
        <time>2011-05-07T16:39:31Z</time>
      </trkpt>
      <trkpt lat="45.04818" lon="5.55302">
        <ele>1134.9738769531</ele>
        <time>2011-05-07T16:39:43Z</time>
      </trkpt>
      <trkpt lat="45.04806" lon="5.55453">
        <ele>1133.5317382812</ele>
        <time>2011-05-07T16:40:00Z</time>
      </trkpt>
      <trkpt lat="45.04806" lon="5.5546">
        <ele>1133.5317382812</ele>
        <time>2011-05-07T16:40:01Z</time>
      </trkpt>
      <trkpt lat="45.04804" lon="5.55478">
        <ele>1132.08984375</ele>
        <time>2011-05-07T16:40:06Z</time>
      </trkpt>
      <trkpt lat="45.04831" lon="5.55572">
        <ele>1131.1284179688</ele>
        <time>2011-05-07T16:40:34Z</time>
      </trkpt>
      <trkpt lat="45.04852" lon="5.55622">
        <ele>1131.1284179688</ele>
        <time>2011-05-07T16:40:53Z</time>
      </trkpt>
      <trkpt lat="45.04857" lon="5.55668">
        <ele>1134.0124511719</ele>
        <time>2011-05-07T16:41:13Z</time>
      </trkpt>
      <trkpt lat="45.04829" lon="5.55678">
        <ele>1137.376953125</ele>
        <time>2011-05-07T16:41:28Z</time>
      </trkpt>
      <trkpt lat="45.04785" lon="5.55664">
        <ele>1137.376953125</ele>
        <time>2011-05-07T16:41:47Z</time>
      </trkpt>
      <trkpt lat="45.04729" lon="5.55663">
        <ele>1140.7414550781</ele>
        <time>2011-05-07T16:42:07Z</time>
      </trkpt>
      <trkpt lat="45.04676" lon="5.55648">
        <ele>1142.18359375</ele>
        <time>2011-05-07T16:42:25Z</time>
      </trkpt>
      <trkpt lat="45.04627" lon="5.55628">
        <ele>1144.5866699219</ele>
        <time>2011-05-07T16:42:42Z</time>
      </trkpt>
      <trkpt lat="45.04596" lon="5.55674">
        <ele>1146.0288085938</ele>
        <time>2011-05-07T16:42:57Z</time>
      </trkpt>
      <trkpt lat="45.04581" lon="5.55762">
        <ele>1146.0288085938</ele>
        <time>2011-05-07T16:43:16Z</time>
      </trkpt>
      <trkpt lat="45.04573" lon="5.55792">
        <ele>1145.5480957031</ele>
        <time>2011-05-07T16:43:28Z</time>
      </trkpt>
      <trkpt lat="45.04573" lon="5.55792">
        <ele>1145.5480957031</ele>
        <time>2011-05-07T16:43:46Z</time>
      </trkpt>
      <trkpt lat="45.04573" lon="5.55792">
        <ele>1147.9514160156</ele>
        <time>2011-05-07T16:44:12Z</time>
      </trkpt>
      <trkpt lat="45.04574" lon="5.55792">
        <ele>1144.1062011719</ele>
        <time>2011-05-07T16:44:50Z</time>
      </trkpt>
      <trkpt lat="45.04573" lon="5.55793">
        <ele>1134.9738769531</ele>
        <time>2011-05-07T16:45:27Z</time>
      </trkpt>
      <trkpt lat="45.04573" lon="5.55795">
        <ele>1145.0673828125</ele>
        <time>2011-05-07T16:46:22Z</time>
      </trkpt>
      <trkpt lat="45.04574" lon="5.55795">
        <ele>1144.1062011719</ele>
        <time>2011-05-07T16:46:50Z</time>
      </trkpt>
      <trkpt lat="45.04574" lon="5.55794">
        <ele>1149.3935546875</ele>
        <time>2011-05-07T16:47:25Z</time>
      </trkpt>
      <trkpt lat="45.04574" lon="5.55793">
        <ele>1138.8190917969</ele>
        <time>2011-05-07T16:48:02Z</time>
      </trkpt>
      <trkpt lat="45.04574" lon="5.55794">
        <ele>1140.7414550781</ele>
        <time>2011-05-07T16:48:35Z</time>
      </trkpt>
      <trkpt lat="45.04575" lon="5.55794">
        <ele>1130.6477050781</ele>
        <time>2011-05-07T16:49:03Z</time>
      </trkpt>
      <trkpt lat="45.04575" lon="5.55804">
        <ele>1132.5705566406</ele>
        <time>2011-05-07T16:49:39Z</time>
      </trkpt>
      <trkpt lat="45.04575" lon="5.55805">
        <ele>1130.6477050781</ele>
        <time>2011-05-07T16:50:12Z</time>
      </trkpt>
      <trkpt lat="45.04577" lon="5.55808">
        <ele>1133.0510253906</ele>
        <time>2011-05-07T16:50:40Z</time>
      </trkpt>
      <trkpt lat="45.04578" lon="5.55802">
        <ele>1132.08984375</ele>
        <time>2011-05-07T16:51:12Z</time>
      </trkpt>
      <trkpt lat="45.04576" lon="5.55796">
        <ele>1140.2609863281</ele>
        <time>2011-05-07T16:52:17Z</time>
      </trkpt>
      <trkpt lat="45.04578" lon="5.55794">
        <ele>1135.9350585938</ele>
        <time>2011-05-07T16:53:04Z</time>
      </trkpt>
      <trkpt lat="45.04579" lon="5.55793">
        <ele>1146.0288085938</ele>
        <time>2011-05-07T16:53:45Z</time>
      </trkpt>
      <trkpt lat="45.04579" lon="5.55792">
        <ele>1146.5095214844</ele>
        <time>2011-05-07T16:54:20Z</time>
      </trkpt>
      <trkpt lat="45.04579" lon="5.55791">
        <ele>1146.5095214844</ele>
        <time>2011-05-07T16:54:55Z</time>
      </trkpt>
      <trkpt lat="45.0458" lon="5.55791">
        <ele>1145.0673828125</ele>
        <time>2011-05-07T16:55:39Z</time>
      </trkpt>
      <trkpt lat="45.0458" lon="5.55792">
        <ele>1146.9899902344</ele>
        <time>2011-05-07T16:56:35Z</time>
      </trkpt>
      <trkpt lat="45.04579" lon="5.55792">
        <ele>1137.376953125</ele>
        <time>2011-05-07T16:57:26Z</time>
      </trkpt>
      <trkpt lat="45.04579" lon="5.55793">
        <ele>1145.0673828125</ele>
        <time>2011-05-07T16:58:05Z</time>
      </trkpt>
      <trkpt lat="45.04579" lon="5.55793">
        <ele>1146.0288085938</ele>
        <time>2011-05-07T16:58:16Z</time>
      </trkpt>
    </trkseg>
  </trk>
</gpx>